<?xml version="1.0" encoding="UTF-8" standalone="no" ?>
<gpx xmlns="http://www.topografix.com/GPX/1/1" xmlns:xsi="http://www.w3.org/2001/XMLSchema-instance" xsi:schemaLocation="http://www.topografix.com/GPX/1/1 http://www.topografix.com/GPX/1/1/gpx.xsd" version="1.1" creator="VisuGPX - https://www.visugpx.com">
  <metadata>
    <name>83-D-Carces</name>
    <desc><![CDATA[83-D-Carces : sur la piste du petit cabanon à prêle]]></desc>
  </metadata>
  <trk>
    <name><![CDATA[carces DIM  à 2019-02-10-01]]></name>
    <trkseg>
      <trkpt lat="43.47781" lon="6.18336">
        <ele>135.9</ele>
        <time>2019-02-10T08:24:49Z</time>
      </trkpt>
      <trkpt lat="43.47781" lon="6.18336">
        <ele>135.9</ele>
        <time>2019-02-10T08:24:50Z</time>
      </trkpt>
      <trkpt lat="43.47774" lon="6.18343">
        <ele>135</ele>
        <time>2019-02-10T08:25:56Z</time>
      </trkpt>
      <trkpt lat="43.47781" lon="6.18336">
        <ele>135.4</ele>
        <time>2019-02-10T08:28:23Z</time>
      </trkpt>
      <trkpt lat="43.47772" lon="6.18334">
        <ele>135.3</ele>
        <time>2019-02-10T08:32:07Z</time>
      </trkpt>
      <trkpt lat="43.47764" lon="6.18328">
        <ele>135.2</ele>
        <time>2019-02-10T08:33:04Z</time>
      </trkpt>
      <trkpt lat="43.47755" lon="6.18326">
        <ele>135.6</ele>
        <time>2019-02-10T08:33:19Z</time>
      </trkpt>
      <trkpt lat="43.47754" lon="6.18313">
        <ele>135.9</ele>
        <time>2019-02-10T08:33:33Z</time>
      </trkpt>
      <trkpt lat="43.47756" lon="6.18301">
        <ele>135.6</ele>
        <time>2019-02-10T08:33:40Z</time>
      </trkpt>
      <trkpt lat="43.47761" lon="6.1829">
        <ele>135.8</ele>
        <time>2019-02-10T08:33:48Z</time>
      </trkpt>
      <trkpt lat="43.4777" lon="6.18286">
        <ele>135</ele>
        <time>2019-02-10T08:34:27Z</time>
      </trkpt>
      <trkpt lat="43.47779" lon="6.18287">
        <ele>134.7</ele>
        <time>2019-02-10T08:34:35Z</time>
      </trkpt>
      <trkpt lat="43.47788" lon="6.1829">
        <ele>134.1</ele>
        <time>2019-02-10T08:34:49Z</time>
      </trkpt>
      <trkpt lat="43.47798" lon="6.18293">
        <ele>133.8</ele>
        <time>2019-02-10T08:35:00Z</time>
      </trkpt>
      <trkpt lat="43.47808" lon="6.18294">
        <ele>133.7</ele>
        <time>2019-02-10T08:35:12Z</time>
      </trkpt>
      <trkpt lat="43.47816" lon="6.18297">
        <ele>133.8</ele>
        <time>2019-02-10T08:35:22Z</time>
      </trkpt>
      <trkpt lat="43.47826" lon="6.18296">
        <ele>133.6</ele>
        <time>2019-02-10T08:35:30Z</time>
      </trkpt>
      <trkpt lat="43.47836" lon="6.18297">
        <ele>133.5</ele>
        <time>2019-02-10T08:35:37Z</time>
      </trkpt>
      <trkpt lat="43.47845" lon="6.183">
        <ele>134</ele>
        <time>2019-02-10T08:35:47Z</time>
      </trkpt>
      <trkpt lat="43.47855" lon="6.183">
        <ele>133.9</ele>
        <time>2019-02-10T08:35:54Z</time>
      </trkpt>
      <trkpt lat="43.47864" lon="6.18302">
        <ele>134.6</ele>
        <time>2019-02-10T08:36:01Z</time>
      </trkpt>
      <trkpt lat="43.47874" lon="6.18304">
        <ele>134.4</ele>
        <time>2019-02-10T08:36:09Z</time>
      </trkpt>
      <trkpt lat="43.47883" lon="6.18308">
        <ele>134.3</ele>
        <time>2019-02-10T08:36:17Z</time>
      </trkpt>
      <trkpt lat="43.4789" lon="6.18315">
        <ele>134.8</ele>
        <time>2019-02-10T08:36:29Z</time>
      </trkpt>
      <trkpt lat="43.47897" lon="6.18324">
        <ele>135.1</ele>
        <time>2019-02-10T08:36:37Z</time>
      </trkpt>
      <trkpt lat="43.47901" lon="6.18337">
        <ele>135.4</ele>
        <time>2019-02-10T08:36:46Z</time>
      </trkpt>
      <trkpt lat="43.47908" lon="6.18345">
        <ele>136.6</ele>
        <time>2019-02-10T08:36:55Z</time>
      </trkpt>
      <trkpt lat="43.47916" lon="6.18351">
        <ele>137.5</ele>
        <time>2019-02-10T08:37:03Z</time>
      </trkpt>
      <trkpt lat="43.47926" lon="6.1835">
        <ele>137.6</ele>
        <time>2019-02-10T08:37:12Z</time>
      </trkpt>
      <trkpt lat="43.47935" lon="6.18345">
        <ele>137.7</ele>
        <time>2019-02-10T08:37:21Z</time>
      </trkpt>
      <trkpt lat="43.47945" lon="6.18341">
        <ele>137.8</ele>
        <time>2019-02-10T08:37:30Z</time>
      </trkpt>
      <trkpt lat="43.47954" lon="6.18339">
        <ele>137.9</ele>
        <time>2019-02-10T08:37:37Z</time>
      </trkpt>
      <trkpt lat="43.47962" lon="6.18345">
        <ele>137.8</ele>
        <time>2019-02-10T08:38:11Z</time>
      </trkpt>
      <trkpt lat="43.4796" lon="6.18357">
        <ele>137.7</ele>
        <time>2019-02-10T08:38:19Z</time>
      </trkpt>
      <trkpt lat="43.47962" lon="6.1837">
        <ele>138</ele>
        <time>2019-02-10T08:38:27Z</time>
      </trkpt>
      <trkpt lat="43.47969" lon="6.18379">
        <ele>137.7</ele>
        <time>2019-02-10T08:38:35Z</time>
      </trkpt>
      <trkpt lat="43.47976" lon="6.18387">
        <ele>137.6</ele>
        <time>2019-02-10T08:38:43Z</time>
      </trkpt>
      <trkpt lat="43.47981" lon="6.18398">
        <ele>137.6</ele>
        <time>2019-02-10T08:38:51Z</time>
      </trkpt>
      <trkpt lat="43.4799" lon="6.18404">
        <ele>137.8</ele>
        <time>2019-02-10T08:39:00Z</time>
      </trkpt>
      <trkpt lat="43.47997" lon="6.18413">
        <ele>137.9</ele>
        <time>2019-02-10T08:39:08Z</time>
      </trkpt>
      <trkpt lat="43.48006" lon="6.1842">
        <ele>138</ele>
        <time>2019-02-10T08:39:16Z</time>
      </trkpt>
      <trkpt lat="43.48014" lon="6.18427">
        <ele>138.3</ele>
        <time>2019-02-10T08:39:24Z</time>
      </trkpt>
      <trkpt lat="43.48021" lon="6.18435">
        <ele>138.2</ele>
        <time>2019-02-10T08:39:33Z</time>
      </trkpt>
      <trkpt lat="43.48029" lon="6.18442">
        <ele>138.5</ele>
        <time>2019-02-10T08:39:41Z</time>
      </trkpt>
      <trkpt lat="43.48037" lon="6.1845">
        <ele>138.6</ele>
        <time>2019-02-10T08:39:49Z</time>
      </trkpt>
      <trkpt lat="43.48047" lon="6.18452">
        <ele>138.7</ele>
        <time>2019-02-10T08:39:58Z</time>
      </trkpt>
      <trkpt lat="43.48055" lon="6.18461">
        <ele>138.9</ele>
        <time>2019-02-10T08:40:06Z</time>
      </trkpt>
      <trkpt lat="43.48061" lon="6.1847">
        <ele>139</ele>
        <time>2019-02-10T08:40:14Z</time>
      </trkpt>
      <trkpt lat="43.48068" lon="6.1848">
        <ele>139.2</ele>
        <time>2019-02-10T08:40:22Z</time>
      </trkpt>
      <trkpt lat="43.48074" lon="6.18489">
        <ele>139.1</ele>
        <time>2019-02-10T08:40:29Z</time>
      </trkpt>
      <trkpt lat="43.48083" lon="6.18494">
        <ele>139.3</ele>
        <time>2019-02-10T08:40:38Z</time>
      </trkpt>
      <trkpt lat="43.48089" lon="6.18503">
        <ele>139.6</ele>
        <time>2019-02-10T08:40:46Z</time>
      </trkpt>
      <trkpt lat="43.48096" lon="6.18514">
        <ele>139.9</ele>
        <time>2019-02-10T08:40:54Z</time>
      </trkpt>
      <trkpt lat="43.48102" lon="6.18524">
        <ele>140.1</ele>
        <time>2019-02-10T08:41:02Z</time>
      </trkpt>
      <trkpt lat="43.48109" lon="6.18533">
        <ele>140.4</ele>
        <time>2019-02-10T08:41:11Z</time>
      </trkpt>
      <trkpt lat="43.48116" lon="6.18542">
        <ele>140.5</ele>
        <time>2019-02-10T08:41:18Z</time>
      </trkpt>
      <trkpt lat="43.48123" lon="6.18551">
        <ele>140.6</ele>
        <time>2019-02-10T08:41:26Z</time>
      </trkpt>
      <trkpt lat="43.4813" lon="6.18559">
        <ele>140.7</ele>
        <time>2019-02-10T08:41:34Z</time>
      </trkpt>
      <trkpt lat="43.48137" lon="6.18569">
        <ele>140.7</ele>
        <time>2019-02-10T08:41:45Z</time>
      </trkpt>
      <trkpt lat="43.48146" lon="6.18575">
        <ele>140.8</ele>
        <time>2019-02-10T08:41:58Z</time>
      </trkpt>
      <trkpt lat="43.48156" lon="6.18576">
        <ele>140.9</ele>
        <time>2019-02-10T08:42:06Z</time>
      </trkpt>
      <trkpt lat="43.48166" lon="6.18579">
        <ele>141</ele>
        <time>2019-02-10T08:42:16Z</time>
      </trkpt>
      <trkpt lat="43.48175" lon="6.18582">
        <ele>141.1</ele>
        <time>2019-02-10T08:42:24Z</time>
      </trkpt>
      <trkpt lat="43.48184" lon="6.18586">
        <ele>141.3</ele>
        <time>2019-02-10T08:42:32Z</time>
      </trkpt>
      <trkpt lat="43.48192" lon="6.18591">
        <ele>141.6</ele>
        <time>2019-02-10T08:42:40Z</time>
      </trkpt>
      <trkpt lat="43.48202" lon="6.18594">
        <ele>141.7</ele>
        <time>2019-02-10T08:42:48Z</time>
      </trkpt>
      <trkpt lat="43.48211" lon="6.18598">
        <ele>141.9</ele>
        <time>2019-02-10T08:42:56Z</time>
      </trkpt>
      <trkpt lat="43.48221" lon="6.186">
        <ele>142.1</ele>
        <time>2019-02-10T08:43:03Z</time>
      </trkpt>
      <trkpt lat="43.48231" lon="6.18603">
        <ele>142.1</ele>
        <time>2019-02-10T08:43:11Z</time>
      </trkpt>
      <trkpt lat="43.48239" lon="6.18607">
        <ele>142.3</ele>
        <time>2019-02-10T08:43:19Z</time>
      </trkpt>
      <trkpt lat="43.48249" lon="6.18609">
        <ele>142.7</ele>
        <time>2019-02-10T08:43:26Z</time>
      </trkpt>
      <trkpt lat="43.48259" lon="6.18612">
        <ele>143.2</ele>
        <time>2019-02-10T08:43:34Z</time>
      </trkpt>
      <trkpt lat="43.48268" lon="6.18618">
        <ele>143.4</ele>
        <time>2019-02-10T08:43:42Z</time>
      </trkpt>
      <trkpt lat="43.48269" lon="6.18631">
        <ele>144.2</ele>
        <time>2019-02-10T08:43:52Z</time>
      </trkpt>
      <trkpt lat="43.48269" lon="6.18644">
        <ele>144.8</ele>
        <time>2019-02-10T08:44:00Z</time>
      </trkpt>
      <trkpt lat="43.4827" lon="6.18658">
        <ele>144.8</ele>
        <time>2019-02-10T08:44:09Z</time>
      </trkpt>
      <trkpt lat="43.48271" lon="6.18672">
        <ele>145.3</ele>
        <time>2019-02-10T08:44:18Z</time>
      </trkpt>
      <trkpt lat="43.48274" lon="6.18685">
        <ele>146.1</ele>
        <time>2019-02-10T08:44:26Z</time>
      </trkpt>
      <trkpt lat="43.4828" lon="6.18695">
        <ele>146.8</ele>
        <time>2019-02-10T08:44:34Z</time>
      </trkpt>
      <trkpt lat="43.48288" lon="6.18702">
        <ele>147.5</ele>
        <time>2019-02-10T08:44:41Z</time>
      </trkpt>
      <trkpt lat="43.48298" lon="6.18709">
        <ele>148.2</ele>
        <time>2019-02-10T08:44:49Z</time>
      </trkpt>
      <trkpt lat="43.48307" lon="6.18714">
        <ele>148.6</ele>
        <time>2019-02-10T08:44:57Z</time>
      </trkpt>
      <trkpt lat="43.48317" lon="6.18717">
        <ele>148.9</ele>
        <time>2019-02-10T08:45:04Z</time>
      </trkpt>
      <trkpt lat="43.48326" lon="6.1872">
        <ele>149.3</ele>
        <time>2019-02-10T08:45:11Z</time>
      </trkpt>
      <trkpt lat="43.48334" lon="6.18725">
        <ele>149.7</ele>
        <time>2019-02-10T08:45:19Z</time>
      </trkpt>
      <trkpt lat="43.48343" lon="6.1873">
        <ele>149.9</ele>
        <time>2019-02-10T08:45:27Z</time>
      </trkpt>
      <trkpt lat="43.48352" lon="6.18736">
        <ele>150.2</ele>
        <time>2019-02-10T08:45:36Z</time>
      </trkpt>
      <trkpt lat="43.48361" lon="6.18739">
        <ele>150.5</ele>
        <time>2019-02-10T08:45:43Z</time>
      </trkpt>
      <trkpt lat="43.4837" lon="6.18746">
        <ele>150.4</ele>
        <time>2019-02-10T08:45:51Z</time>
      </trkpt>
      <trkpt lat="43.48378" lon="6.18751">
        <ele>150.9</ele>
        <time>2019-02-10T08:45:59Z</time>
      </trkpt>
      <trkpt lat="43.48386" lon="6.18758">
        <ele>151.4</ele>
        <time>2019-02-10T08:46:08Z</time>
      </trkpt>
      <trkpt lat="43.48395" lon="6.18763">
        <ele>152.3</ele>
        <time>2019-02-10T08:46:16Z</time>
      </trkpt>
      <trkpt lat="43.48403" lon="6.18767">
        <ele>152.7</ele>
        <time>2019-02-10T08:46:23Z</time>
      </trkpt>
      <trkpt lat="43.48413" lon="6.1877">
        <ele>153.5</ele>
        <time>2019-02-10T08:46:32Z</time>
      </trkpt>
      <trkpt lat="43.48423" lon="6.18769">
        <ele>154.3</ele>
        <time>2019-02-10T08:46:40Z</time>
      </trkpt>
      <trkpt lat="43.48431" lon="6.18776">
        <ele>155.3</ele>
        <time>2019-02-10T08:46:50Z</time>
      </trkpt>
      <trkpt lat="43.4844" lon="6.18779">
        <ele>156.5</ele>
        <time>2019-02-10T08:46:59Z</time>
      </trkpt>
      <trkpt lat="43.48448" lon="6.18784">
        <ele>157.9</ele>
        <time>2019-02-10T08:47:08Z</time>
      </trkpt>
      <trkpt lat="43.48456" lon="6.18792">
        <ele>159.3</ele>
        <time>2019-02-10T08:47:18Z</time>
      </trkpt>
      <trkpt lat="43.48465" lon="6.18798">
        <ele>160.3</ele>
        <time>2019-02-10T08:47:27Z</time>
      </trkpt>
      <trkpt lat="43.48475" lon="6.18802">
        <ele>161.5</ele>
        <time>2019-02-10T08:47:36Z</time>
      </trkpt>
      <trkpt lat="43.48482" lon="6.18809">
        <ele>162.7</ele>
        <time>2019-02-10T08:47:45Z</time>
      </trkpt>
      <trkpt lat="43.48491" lon="6.18818">
        <ele>164</ele>
        <time>2019-02-10T08:47:54Z</time>
      </trkpt>
      <trkpt lat="43.48499" lon="6.18824">
        <ele>164.9</ele>
        <time>2019-02-10T08:48:02Z</time>
      </trkpt>
      <trkpt lat="43.48507" lon="6.18832">
        <ele>166</ele>
        <time>2019-02-10T08:48:12Z</time>
      </trkpt>
      <trkpt lat="43.48516" lon="6.18828">
        <ele>167.1</ele>
        <time>2019-02-10T08:48:25Z</time>
      </trkpt>
      <trkpt lat="43.48525" lon="6.18824">
        <ele>166.9</ele>
        <time>2019-02-10T08:49:16Z</time>
      </trkpt>
      <trkpt lat="43.48531" lon="6.18814">
        <ele>167.7</ele>
        <time>2019-02-10T08:53:30Z</time>
      </trkpt>
      <trkpt lat="43.48537" lon="6.18803">
        <ele>167.1</ele>
        <time>2019-02-10T08:53:38Z</time>
      </trkpt>
      <trkpt lat="43.48543" lon="6.18793">
        <ele>166.7</ele>
        <time>2019-02-10T08:53:48Z</time>
      </trkpt>
      <trkpt lat="43.48549" lon="6.18782">
        <ele>166.3</ele>
        <time>2019-02-10T08:54:00Z</time>
      </trkpt>
      <trkpt lat="43.48554" lon="6.18772">
        <ele>165.9</ele>
        <time>2019-02-10T08:54:09Z</time>
      </trkpt>
      <trkpt lat="43.48563" lon="6.18764">
        <ele>165.3</ele>
        <time>2019-02-10T08:54:18Z</time>
      </trkpt>
      <trkpt lat="43.4857" lon="6.18754">
        <ele>165.2</ele>
        <time>2019-02-10T08:54:27Z</time>
      </trkpt>
      <trkpt lat="43.48576" lon="6.18745">
        <ele>164.9</ele>
        <time>2019-02-10T08:54:36Z</time>
      </trkpt>
      <trkpt lat="43.48586" lon="6.18737">
        <ele>163.9</ele>
        <time>2019-02-10T08:54:50Z</time>
      </trkpt>
      <trkpt lat="43.48594" lon="6.18731">
        <ele>163.7</ele>
        <time>2019-02-10T08:54:57Z</time>
      </trkpt>
      <trkpt lat="43.48604" lon="6.18728">
        <ele>163.8</ele>
        <time>2019-02-10T08:55:08Z</time>
      </trkpt>
      <trkpt lat="43.4861" lon="6.18718">
        <ele>164.3</ele>
        <time>2019-02-10T08:55:15Z</time>
      </trkpt>
      <trkpt lat="43.48619" lon="6.1872">
        <ele>166.3</ele>
        <time>2019-02-10T08:55:33Z</time>
      </trkpt>
      <trkpt lat="43.48628" lon="6.18723">
        <ele>167.3</ele>
        <time>2019-02-10T08:55:42Z</time>
      </trkpt>
      <trkpt lat="43.48638" lon="6.18715">
        <ele>168.5</ele>
        <time>2019-02-10T08:55:52Z</time>
      </trkpt>
      <trkpt lat="43.48635" lon="6.18702">
        <ele>168.8</ele>
        <time>2019-02-10T08:56:01Z</time>
      </trkpt>
      <trkpt lat="43.48643" lon="6.18695">
        <ele>170.1</ele>
        <time>2019-02-10T08:56:12Z</time>
      </trkpt>
      <trkpt lat="43.48641" lon="6.18683">
        <ele>171</ele>
        <time>2019-02-10T08:57:31Z</time>
      </trkpt>
      <trkpt lat="43.48649" lon="6.18678">
        <ele>171.8</ele>
        <time>2019-02-10T08:59:28Z</time>
      </trkpt>
      <trkpt lat="43.48658" lon="6.18673">
        <ele>174.4</ele>
        <time>2019-02-10T08:59:52Z</time>
      </trkpt>
      <trkpt lat="43.48665" lon="6.18683">
        <ele>175.7</ele>
        <time>2019-02-10T09:00:01Z</time>
      </trkpt>
      <trkpt lat="43.48671" lon="6.18692">
        <ele>177</ele>
        <time>2019-02-10T09:00:12Z</time>
      </trkpt>
      <trkpt lat="43.48675" lon="6.18703">
        <ele>177.9</ele>
        <time>2019-02-10T09:00:21Z</time>
      </trkpt>
      <trkpt lat="43.48681" lon="6.18714">
        <ele>178.9</ele>
        <time>2019-02-10T09:00:28Z</time>
      </trkpt>
      <trkpt lat="43.48686" lon="6.18724">
        <ele>180</ele>
        <time>2019-02-10T09:00:36Z</time>
      </trkpt>
      <trkpt lat="43.48688" lon="6.18736">
        <ele>180.1</ele>
        <time>2019-02-10T09:00:44Z</time>
      </trkpt>
      <trkpt lat="43.48691" lon="6.18749">
        <ele>180.8</ele>
        <time>2019-02-10T09:00:55Z</time>
      </trkpt>
      <trkpt lat="43.48697" lon="6.18758">
        <ele>183.2</ele>
        <time>2019-02-10T09:01:09Z</time>
      </trkpt>
      <trkpt lat="43.48704" lon="6.18766">
        <ele>184.7</ele>
        <time>2019-02-10T09:01:19Z</time>
      </trkpt>
      <trkpt lat="43.48712" lon="6.18773">
        <ele>186.6</ele>
        <time>2019-02-10T09:01:29Z</time>
      </trkpt>
      <trkpt lat="43.48718" lon="6.18764">
        <ele>188.3</ele>
        <time>2019-02-10T09:01:45Z</time>
      </trkpt>
      <trkpt lat="43.48725" lon="6.18756">
        <ele>189.3</ele>
        <time>2019-02-10T09:01:52Z</time>
      </trkpt>
      <trkpt lat="43.48731" lon="6.18746">
        <ele>189.9</ele>
        <time>2019-02-10T09:02:00Z</time>
      </trkpt>
      <trkpt lat="43.48733" lon="6.18733">
        <ele>190.7</ele>
        <time>2019-02-10T09:02:10Z</time>
      </trkpt>
      <trkpt lat="43.48738" lon="6.18721">
        <ele>190.9</ele>
        <time>2019-02-10T09:02:18Z</time>
      </trkpt>
      <trkpt lat="43.48738" lon="6.18708">
        <ele>191.3</ele>
        <time>2019-02-10T09:02:27Z</time>
      </trkpt>
      <trkpt lat="43.48737" lon="6.18695">
        <ele>191.9</ele>
        <time>2019-02-10T09:02:37Z</time>
      </trkpt>
      <trkpt lat="43.48743" lon="6.18685">
        <ele>192.1</ele>
        <time>2019-02-10T09:02:44Z</time>
      </trkpt>
      <trkpt lat="43.48747" lon="6.18673">
        <ele>193.1</ele>
        <time>2019-02-10T09:02:55Z</time>
      </trkpt>
      <trkpt lat="43.48748" lon="6.1866">
        <ele>193.8</ele>
        <time>2019-02-10T09:03:04Z</time>
      </trkpt>
      <trkpt lat="43.48752" lon="6.18649">
        <ele>194.6</ele>
        <time>2019-02-10T09:03:13Z</time>
      </trkpt>
      <trkpt lat="43.48762" lon="6.18646">
        <ele>196.5</ele>
        <time>2019-02-10T09:03:30Z</time>
      </trkpt>
      <trkpt lat="43.4877" lon="6.1865">
        <ele>198.1</ele>
        <time>2019-02-10T09:03:42Z</time>
      </trkpt>
      <trkpt lat="43.48778" lon="6.18658">
        <ele>199.4</ele>
        <time>2019-02-10T09:03:53Z</time>
      </trkpt>
      <trkpt lat="43.48786" lon="6.18666">
        <ele>201</ele>
        <time>2019-02-10T09:04:04Z</time>
      </trkpt>
      <trkpt lat="43.48794" lon="6.18671">
        <ele>202.2</ele>
        <time>2019-02-10T09:04:15Z</time>
      </trkpt>
      <trkpt lat="43.48803" lon="6.18676">
        <ele>203.8</ele>
        <time>2019-02-10T09:04:24Z</time>
      </trkpt>
      <trkpt lat="43.48809" lon="6.18686">
        <ele>204.6</ele>
        <time>2019-02-10T09:04:34Z</time>
      </trkpt>
      <trkpt lat="43.48814" lon="6.18697">
        <ele>205.4</ele>
        <time>2019-02-10T09:04:42Z</time>
      </trkpt>
      <trkpt lat="43.4882" lon="6.18707">
        <ele>206.4</ele>
        <time>2019-02-10T09:04:50Z</time>
      </trkpt>
      <trkpt lat="43.48824" lon="6.18718">
        <ele>207.5</ele>
        <time>2019-02-10T09:05:00Z</time>
      </trkpt>
      <trkpt lat="43.48824" lon="6.18732">
        <ele>209.1</ele>
        <time>2019-02-10T09:05:13Z</time>
      </trkpt>
      <trkpt lat="43.48827" lon="6.18743">
        <ele>209.7</ele>
        <time>2019-02-10T09:05:23Z</time>
      </trkpt>
      <trkpt lat="43.48833" lon="6.18752">
        <ele>210.5</ele>
        <time>2019-02-10T09:05:30Z</time>
      </trkpt>
      <trkpt lat="43.4884" lon="6.18761">
        <ele>212.2</ele>
        <time>2019-02-10T09:05:40Z</time>
      </trkpt>
      <trkpt lat="43.48846" lon="6.18772">
        <ele>214.7</ele>
        <time>2019-02-10T09:05:51Z</time>
      </trkpt>
      <trkpt lat="43.48855" lon="6.18776">
        <ele>216.4</ele>
        <time>2019-02-10T09:06:01Z</time>
      </trkpt>
      <trkpt lat="43.48864" lon="6.18776">
        <ele>217.3</ele>
        <time>2019-02-10T09:06:08Z</time>
      </trkpt>
      <trkpt lat="43.48871" lon="6.18768">
        <ele>217.8</ele>
        <time>2019-02-10T09:06:21Z</time>
      </trkpt>
      <trkpt lat="43.4888" lon="6.18767">
        <ele>218.5</ele>
        <time>2019-02-10T09:06:54Z</time>
      </trkpt>
      <trkpt lat="43.48886" lon="6.18755">
        <ele>218</ele>
        <time>2019-02-10T09:12:03Z</time>
      </trkpt>
      <trkpt lat="43.48891" lon="6.18744">
        <ele>217.8</ele>
        <time>2019-02-10T09:12:13Z</time>
      </trkpt>
      <trkpt lat="43.48894" lon="6.18732">
        <ele>217.5</ele>
        <time>2019-02-10T09:12:22Z</time>
      </trkpt>
      <trkpt lat="43.48897" lon="6.1872">
        <ele>216.9</ele>
        <time>2019-02-10T09:12:31Z</time>
      </trkpt>
      <trkpt lat="43.48896" lon="6.18707">
        <ele>216.4</ele>
        <time>2019-02-10T09:12:39Z</time>
      </trkpt>
      <trkpt lat="43.48887" lon="6.18701">
        <ele>215.5</ele>
        <time>2019-02-10T09:12:47Z</time>
      </trkpt>
      <trkpt lat="43.48882" lon="6.18691">
        <ele>214.8</ele>
        <time>2019-02-10T09:12:56Z</time>
      </trkpt>
      <trkpt lat="43.4888" lon="6.18679">
        <ele>214.4</ele>
        <time>2019-02-10T09:13:03Z</time>
      </trkpt>
      <trkpt lat="43.48881" lon="6.18666">
        <ele>213.7</ele>
        <time>2019-02-10T09:13:12Z</time>
      </trkpt>
      <trkpt lat="43.48879" lon="6.18654">
        <ele>212.6</ele>
        <time>2019-02-10T09:13:22Z</time>
      </trkpt>
      <trkpt lat="43.48882" lon="6.18641">
        <ele>212.6</ele>
        <time>2019-02-10T09:13:31Z</time>
      </trkpt>
      <trkpt lat="43.48886" lon="6.18629">
        <ele>212.6</ele>
        <time>2019-02-10T09:13:38Z</time>
      </trkpt>
      <trkpt lat="43.48889" lon="6.18618">
        <ele>212.5</ele>
        <time>2019-02-10T09:13:49Z</time>
      </trkpt>
      <trkpt lat="43.48893" lon="6.18604">
        <ele>212.2</ele>
        <time>2019-02-10T09:13:56Z</time>
      </trkpt>
      <trkpt lat="43.48893" lon="6.1859">
        <ele>211.9</ele>
        <time>2019-02-10T09:14:06Z</time>
      </trkpt>
      <trkpt lat="43.48897" lon="6.18578">
        <ele>211.5</ele>
        <time>2019-02-10T09:14:16Z</time>
      </trkpt>
      <trkpt lat="43.48903" lon="6.18568">
        <ele>211.4</ele>
        <time>2019-02-10T09:14:25Z</time>
      </trkpt>
      <trkpt lat="43.48912" lon="6.18565">
        <ele>211.7</ele>
        <time>2019-02-10T09:14:37Z</time>
      </trkpt>
      <trkpt lat="43.48919" lon="6.18556">
        <ele>211.7</ele>
        <time>2019-02-10T09:14:45Z</time>
      </trkpt>
      <trkpt lat="43.48924" lon="6.18545">
        <ele>211.6</ele>
        <time>2019-02-10T09:14:53Z</time>
      </trkpt>
      <trkpt lat="43.48925" lon="6.18531">
        <ele>210.9</ele>
        <time>2019-02-10T09:15:05Z</time>
      </trkpt>
      <trkpt lat="43.4893" lon="6.1852">
        <ele>210.5</ele>
        <time>2019-02-10T09:15:13Z</time>
      </trkpt>
      <trkpt lat="43.48937" lon="6.18511">
        <ele>209.8</ele>
        <time>2019-02-10T09:15:27Z</time>
      </trkpt>
      <trkpt lat="43.48945" lon="6.18506">
        <ele>209.4</ele>
        <time>2019-02-10T09:15:35Z</time>
      </trkpt>
      <trkpt lat="43.48955" lon="6.18508">
        <ele>209.7</ele>
        <time>2019-02-10T09:15:47Z</time>
      </trkpt>
      <trkpt lat="43.48958" lon="6.1852">
        <ele>211</ele>
        <time>2019-02-10T09:16:05Z</time>
      </trkpt>
      <trkpt lat="43.4896" lon="6.18532">
        <ele>211.3</ele>
        <time>2019-02-10T09:16:14Z</time>
      </trkpt>
      <trkpt lat="43.48966" lon="6.18542">
        <ele>212.2</ele>
        <time>2019-02-10T09:16:25Z</time>
      </trkpt>
      <trkpt lat="43.48972" lon="6.18553">
        <ele>212.9</ele>
        <time>2019-02-10T09:16:35Z</time>
      </trkpt>
      <trkpt lat="43.48976" lon="6.18564">
        <ele>213.3</ele>
        <time>2019-02-10T09:16:45Z</time>
      </trkpt>
      <trkpt lat="43.48984" lon="6.18572">
        <ele>213.6</ele>
        <time>2019-02-10T09:16:53Z</time>
      </trkpt>
      <trkpt lat="43.48991" lon="6.18582">
        <ele>214.8</ele>
        <time>2019-02-10T09:17:05Z</time>
      </trkpt>
      <trkpt lat="43.48996" lon="6.18593">
        <ele>215.1</ele>
        <time>2019-02-10T09:17:13Z</time>
      </trkpt>
      <trkpt lat="43.49001" lon="6.18604">
        <ele>215.7</ele>
        <time>2019-02-10T09:17:24Z</time>
      </trkpt>
      <trkpt lat="43.49004" lon="6.18616">
        <ele>216.3</ele>
        <time>2019-02-10T09:17:33Z</time>
      </trkpt>
      <trkpt lat="43.49012" lon="6.18623">
        <ele>216.7</ele>
        <time>2019-02-10T09:17:41Z</time>
      </trkpt>
      <trkpt lat="43.49009" lon="6.18635">
        <ele>218</ele>
        <time>2019-02-10T09:17:54Z</time>
      </trkpt>
      <trkpt lat="43.49009" lon="6.18648">
        <ele>218.9</ele>
        <time>2019-02-10T09:18:08Z</time>
      </trkpt>
      <trkpt lat="43.49004" lon="6.18659">
        <ele>219.5</ele>
        <time>2019-02-10T09:18:18Z</time>
      </trkpt>
      <trkpt lat="43.49002" lon="6.18672">
        <ele>219.9</ele>
        <time>2019-02-10T09:18:25Z</time>
      </trkpt>
      <trkpt lat="43.49001" lon="6.18685">
        <ele>220.4</ele>
        <time>2019-02-10T09:18:35Z</time>
      </trkpt>
      <trkpt lat="43.49" lon="6.18698">
        <ele>220.8</ele>
        <time>2019-02-10T09:18:44Z</time>
      </trkpt>
      <trkpt lat="43.49002" lon="6.18711">
        <ele>220.9</ele>
        <time>2019-02-10T09:18:51Z</time>
      </trkpt>
      <trkpt lat="43.49005" lon="6.18724">
        <ele>221.2</ele>
        <time>2019-02-10T09:18:59Z</time>
      </trkpt>
      <trkpt lat="43.49007" lon="6.18737">
        <ele>221.5</ele>
        <time>2019-02-10T09:19:09Z</time>
      </trkpt>
      <trkpt lat="43.49008" lon="6.1875">
        <ele>222.2</ele>
        <time>2019-02-10T09:19:25Z</time>
      </trkpt>
      <trkpt lat="43.49012" lon="6.18761">
        <ele>222.1</ele>
        <time>2019-02-10T09:19:31Z</time>
      </trkpt>
      <trkpt lat="43.49014" lon="6.18775">
        <ele>221.9</ele>
        <time>2019-02-10T09:19:40Z</time>
      </trkpt>
      <trkpt lat="43.4902" lon="6.18784">
        <ele>221.6</ele>
        <time>2019-02-10T09:19:47Z</time>
      </trkpt>
      <trkpt lat="43.49025" lon="6.18796">
        <ele>221</ele>
        <time>2019-02-10T09:19:55Z</time>
      </trkpt>
      <trkpt lat="43.49029" lon="6.18809">
        <ele>220.4</ele>
        <time>2019-02-10T09:20:05Z</time>
      </trkpt>
      <trkpt lat="43.49031" lon="6.18822">
        <ele>219.6</ele>
        <time>2019-02-10T09:20:14Z</time>
      </trkpt>
      <trkpt lat="43.49032" lon="6.18834">
        <ele>219.1</ele>
        <time>2019-02-10T09:20:22Z</time>
      </trkpt>
      <trkpt lat="43.49037" lon="6.18848">
        <ele>218.8</ele>
        <time>2019-02-10T09:20:30Z</time>
      </trkpt>
      <trkpt lat="43.49041" lon="6.18859">
        <ele>217.7</ele>
        <time>2019-02-10T09:20:41Z</time>
      </trkpt>
      <trkpt lat="43.49045" lon="6.18871">
        <ele>216.7</ele>
        <time>2019-02-10T09:20:50Z</time>
      </trkpt>
      <trkpt lat="43.49047" lon="6.18884">
        <ele>216.1</ele>
        <time>2019-02-10T09:21:00Z</time>
      </trkpt>
      <trkpt lat="43.49047" lon="6.18898">
        <ele>215.7</ele>
        <time>2019-02-10T09:21:09Z</time>
      </trkpt>
      <trkpt lat="43.49048" lon="6.18911">
        <ele>215.1</ele>
        <time>2019-02-10T09:21:17Z</time>
      </trkpt>
      <trkpt lat="43.49058" lon="6.18911">
        <ele>214</ele>
        <time>2019-02-10T09:21:25Z</time>
      </trkpt>
      <trkpt lat="43.49067" lon="6.18908">
        <ele>213.1</ele>
        <time>2019-02-10T09:21:33Z</time>
      </trkpt>
      <trkpt lat="43.49076" lon="6.18906">
        <ele>212</ele>
        <time>2019-02-10T09:21:45Z</time>
      </trkpt>
      <trkpt lat="43.49083" lon="6.18898">
        <ele>211.7</ele>
        <time>2019-02-10T09:21:51Z</time>
      </trkpt>
      <trkpt lat="43.49091" lon="6.1889">
        <ele>211.4</ele>
        <time>2019-02-10T09:22:07Z</time>
      </trkpt>
      <trkpt lat="43.49098" lon="6.18881">
        <ele>211.1</ele>
        <time>2019-02-10T09:22:21Z</time>
      </trkpt>
      <trkpt lat="43.49106" lon="6.18872">
        <ele>210</ele>
        <time>2019-02-10T09:22:32Z</time>
      </trkpt>
      <trkpt lat="43.49111" lon="6.1886">
        <ele>209.8</ele>
        <time>2019-02-10T09:22:43Z</time>
      </trkpt>
      <trkpt lat="43.49116" lon="6.1885">
        <ele>209.3</ele>
        <time>2019-02-10T09:22:50Z</time>
      </trkpt>
      <trkpt lat="43.49123" lon="6.1884">
        <ele>208.9</ele>
        <time>2019-02-10T09:22:56Z</time>
      </trkpt>
      <trkpt lat="43.49131" lon="6.18832">
        <ele>208.7</ele>
        <time>2019-02-10T09:23:03Z</time>
      </trkpt>
      <trkpt lat="43.49125" lon="6.18822">
        <ele>208.5</ele>
        <time>2019-02-10T09:23:23Z</time>
      </trkpt>
      <trkpt lat="43.49133" lon="6.18814">
        <ele>208.7</ele>
        <time>2019-02-10T09:23:49Z</time>
      </trkpt>
      <trkpt lat="43.49139" lon="6.18804">
        <ele>209.3</ele>
        <time>2019-02-10T09:23:57Z</time>
      </trkpt>
      <trkpt lat="43.4914" lon="6.18791">
        <ele>210.1</ele>
        <time>2019-02-10T09:24:11Z</time>
      </trkpt>
      <trkpt lat="43.49143" lon="6.18778">
        <ele>210.5</ele>
        <time>2019-02-10T09:24:19Z</time>
      </trkpt>
      <trkpt lat="43.49137" lon="6.18767">
        <ele>210.5</ele>
        <time>2019-02-10T09:24:25Z</time>
      </trkpt>
      <trkpt lat="43.49134" lon="6.18755">
        <ele>211</ele>
        <time>2019-02-10T09:24:36Z</time>
      </trkpt>
      <trkpt lat="43.49136" lon="6.18742">
        <ele>211.3</ele>
        <time>2019-02-10T09:24:45Z</time>
      </trkpt>
      <trkpt lat="43.49136" lon="6.18728">
        <ele>211.6</ele>
        <time>2019-02-10T09:24:54Z</time>
      </trkpt>
      <trkpt lat="43.49138" lon="6.18715">
        <ele>211.7</ele>
        <time>2019-02-10T09:25:02Z</time>
      </trkpt>
      <trkpt lat="43.49134" lon="6.18703">
        <ele>211.8</ele>
        <time>2019-02-10T09:25:11Z</time>
      </trkpt>
      <trkpt lat="43.49137" lon="6.1869">
        <ele>212.1</ele>
        <time>2019-02-10T09:25:20Z</time>
      </trkpt>
      <trkpt lat="43.49138" lon="6.18677">
        <ele>212</ele>
        <time>2019-02-10T09:25:28Z</time>
      </trkpt>
      <trkpt lat="43.49131" lon="6.18667">
        <ele>211.9</ele>
        <time>2019-02-10T09:25:36Z</time>
      </trkpt>
      <trkpt lat="43.49128" lon="6.18655">
        <ele>212.4</ele>
        <time>2019-02-10T09:25:43Z</time>
      </trkpt>
      <trkpt lat="43.49121" lon="6.18648">
        <ele>212.5</ele>
        <time>2019-02-10T09:25:49Z</time>
      </trkpt>
      <trkpt lat="43.49118" lon="6.18636">
        <ele>213</ele>
        <time>2019-02-10T09:25:58Z</time>
      </trkpt>
      <trkpt lat="43.49112" lon="6.18626">
        <ele>213.7</ele>
        <time>2019-02-10T09:26:09Z</time>
      </trkpt>
      <trkpt lat="43.49113" lon="6.18613">
        <ele>213.4</ele>
        <time>2019-02-10T09:26:19Z</time>
      </trkpt>
      <trkpt lat="43.49105" lon="6.18606">
        <ele>213.3</ele>
        <time>2019-02-10T09:26:22Z</time>
      </trkpt>
      <trkpt lat="43.49105" lon="6.18593">
        <ele>213.1</ele>
        <time>2019-02-10T09:26:30Z</time>
      </trkpt>
      <trkpt lat="43.491" lon="6.1858">
        <ele>213.1</ele>
        <time>2019-02-10T09:26:39Z</time>
      </trkpt>
      <trkpt lat="43.49095" lon="6.1857">
        <ele>213</ele>
        <time>2019-02-10T09:26:47Z</time>
      </trkpt>
      <trkpt lat="43.49088" lon="6.18561">
        <ele>212.7</ele>
        <time>2019-02-10T09:26:55Z</time>
      </trkpt>
      <trkpt lat="43.49081" lon="6.18552">
        <ele>212.6</ele>
        <time>2019-02-10T09:27:01Z</time>
      </trkpt>
      <trkpt lat="43.49076" lon="6.1854">
        <ele>212.1</ele>
        <time>2019-02-10T09:27:10Z</time>
      </trkpt>
      <trkpt lat="43.49068" lon="6.18533">
        <ele>212.3</ele>
        <time>2019-02-10T09:27:20Z</time>
      </trkpt>
      <trkpt lat="43.49059" lon="6.18527">
        <ele>212.5</ele>
        <time>2019-02-10T09:27:28Z</time>
      </trkpt>
      <trkpt lat="43.49051" lon="6.18519">
        <ele>212.5</ele>
        <time>2019-02-10T09:27:34Z</time>
      </trkpt>
      <trkpt lat="43.49045" lon="6.18509">
        <ele>212</ele>
        <time>2019-02-10T09:27:42Z</time>
      </trkpt>
      <trkpt lat="43.49038" lon="6.18501">
        <ele>211.6</ele>
        <time>2019-02-10T09:27:48Z</time>
      </trkpt>
      <trkpt lat="43.49032" lon="6.1849">
        <ele>211</ele>
        <time>2019-02-10T09:27:56Z</time>
      </trkpt>
      <trkpt lat="43.49029" lon="6.18478">
        <ele>210.4</ele>
        <time>2019-02-10T09:28:04Z</time>
      </trkpt>
      <trkpt lat="43.49027" lon="6.18464">
        <ele>209.6</ele>
        <time>2019-02-10T09:28:13Z</time>
      </trkpt>
      <trkpt lat="43.49023" lon="6.18452">
        <ele>208.9</ele>
        <time>2019-02-10T09:28:22Z</time>
      </trkpt>
      <trkpt lat="43.49019" lon="6.18438">
        <ele>208.7</ele>
        <time>2019-02-10T09:28:30Z</time>
      </trkpt>
      <trkpt lat="43.49017" lon="6.18425">
        <ele>208.2</ele>
        <time>2019-02-10T09:28:38Z</time>
      </trkpt>
      <trkpt lat="43.49014" lon="6.18413">
        <ele>207.9</ele>
        <time>2019-02-10T09:28:47Z</time>
      </trkpt>
      <trkpt lat="43.49009" lon="6.18401">
        <ele>207.8</ele>
        <time>2019-02-10T09:28:54Z</time>
      </trkpt>
      <trkpt lat="43.49004" lon="6.1839">
        <ele>208</ele>
        <time>2019-02-10T09:29:06Z</time>
      </trkpt>
      <trkpt lat="43.49013" lon="6.18383">
        <ele>208.6</ele>
        <time>2019-02-10T09:30:38Z</time>
      </trkpt>
      <trkpt lat="43.49022" lon="6.18377">
        <ele>208.7</ele>
        <time>2019-02-10T09:30:43Z</time>
      </trkpt>
      <trkpt lat="43.49031" lon="6.18373">
        <ele>208.6</ele>
        <time>2019-02-10T09:30:54Z</time>
      </trkpt>
      <trkpt lat="43.49038" lon="6.18365">
        <ele>208.4</ele>
        <time>2019-02-10T09:31:04Z</time>
      </trkpt>
      <trkpt lat="43.49045" lon="6.18355">
        <ele>208.1</ele>
        <time>2019-02-10T09:31:16Z</time>
      </trkpt>
      <trkpt lat="43.49053" lon="6.18349">
        <ele>208.5</ele>
        <time>2019-02-10T09:31:25Z</time>
      </trkpt>
      <trkpt lat="43.49061" lon="6.18343">
        <ele>208.4</ele>
        <time>2019-02-10T09:31:33Z</time>
      </trkpt>
      <trkpt lat="43.4907" lon="6.18338">
        <ele>207.6</ele>
        <time>2019-02-10T09:31:42Z</time>
      </trkpt>
      <trkpt lat="43.49078" lon="6.18331">
        <ele>206.7</ele>
        <time>2019-02-10T09:31:52Z</time>
      </trkpt>
      <trkpt lat="43.49087" lon="6.18332">
        <ele>205.5</ele>
        <time>2019-02-10T09:32:00Z</time>
      </trkpt>
      <trkpt lat="43.49097" lon="6.18334">
        <ele>204.4</ele>
        <time>2019-02-10T09:32:09Z</time>
      </trkpt>
      <trkpt lat="43.49106" lon="6.18338">
        <ele>203.2</ele>
        <time>2019-02-10T09:32:19Z</time>
      </trkpt>
      <trkpt lat="43.49115" lon="6.18343">
        <ele>202.6</ele>
        <time>2019-02-10T09:32:27Z</time>
      </trkpt>
      <trkpt lat="43.49123" lon="6.18349">
        <ele>202.3</ele>
        <time>2019-02-10T09:32:35Z</time>
      </trkpt>
      <trkpt lat="43.49132" lon="6.18353">
        <ele>202.1</ele>
        <time>2019-02-10T09:32:45Z</time>
      </trkpt>
      <trkpt lat="43.49141" lon="6.18356">
        <ele>202</ele>
        <time>2019-02-10T09:32:53Z</time>
      </trkpt>
      <trkpt lat="43.4915" lon="6.18361">
        <ele>201.9</ele>
        <time>2019-02-10T09:33:00Z</time>
      </trkpt>
      <trkpt lat="43.49157" lon="6.18369">
        <ele>201.6</ele>
        <time>2019-02-10T09:33:09Z</time>
      </trkpt>
      <trkpt lat="43.49162" lon="6.18382">
        <ele>200.7</ele>
        <time>2019-02-10T09:33:18Z</time>
      </trkpt>
      <trkpt lat="43.49169" lon="6.18391">
        <ele>199.8</ele>
        <time>2019-02-10T09:33:25Z</time>
      </trkpt>
      <trkpt lat="43.49177" lon="6.18399">
        <ele>198.9</ele>
        <time>2019-02-10T09:33:32Z</time>
      </trkpt>
      <trkpt lat="43.49185" lon="6.18405">
        <ele>198</ele>
        <time>2019-02-10T09:33:39Z</time>
      </trkpt>
      <trkpt lat="43.49193" lon="6.18412">
        <ele>197</ele>
        <time>2019-02-10T09:33:46Z</time>
      </trkpt>
      <trkpt lat="43.492" lon="6.1842">
        <ele>196.1</ele>
        <time>2019-02-10T09:33:55Z</time>
      </trkpt>
      <trkpt lat="43.49208" lon="6.18427">
        <ele>195.1</ele>
        <time>2019-02-10T09:34:02Z</time>
      </trkpt>
      <trkpt lat="43.49215" lon="6.18436">
        <ele>193.8</ele>
        <time>2019-02-10T09:34:12Z</time>
      </trkpt>
      <trkpt lat="43.49223" lon="6.18442">
        <ele>192.9</ele>
        <time>2019-02-10T09:34:19Z</time>
      </trkpt>
      <trkpt lat="43.49225" lon="6.18454">
        <ele>192</ele>
        <time>2019-02-10T09:34:30Z</time>
      </trkpt>
      <trkpt lat="43.49233" lon="6.18462">
        <ele>191.2</ele>
        <time>2019-02-10T09:34:38Z</time>
      </trkpt>
      <trkpt lat="43.49232" lon="6.18475">
        <ele>190.7</ele>
        <time>2019-02-10T09:34:52Z</time>
      </trkpt>
      <trkpt lat="43.49231" lon="6.18488">
        <ele>191.1</ele>
        <time>2019-02-10T09:35:03Z</time>
      </trkpt>
      <trkpt lat="43.49229" lon="6.18501">
        <ele>191.2</ele>
        <time>2019-02-10T09:35:11Z</time>
      </trkpt>
      <trkpt lat="43.49227" lon="6.18514">
        <ele>191.2</ele>
        <time>2019-02-10T09:35:19Z</time>
      </trkpt>
      <trkpt lat="43.49226" lon="6.18526">
        <ele>191.5</ele>
        <time>2019-02-10T09:35:29Z</time>
      </trkpt>
      <trkpt lat="43.49227" lon="6.1854">
        <ele>191.7</ele>
        <time>2019-02-10T09:35:37Z</time>
      </trkpt>
      <trkpt lat="43.49226" lon="6.18553">
        <ele>191.6</ele>
        <time>2019-02-10T09:35:46Z</time>
      </trkpt>
      <trkpt lat="43.49225" lon="6.18567">
        <ele>191.7</ele>
        <time>2019-02-10T09:35:54Z</time>
      </trkpt>
      <trkpt lat="43.49223" lon="6.18579">
        <ele>192.1</ele>
        <time>2019-02-10T09:36:04Z</time>
      </trkpt>
      <trkpt lat="43.49225" lon="6.18593">
        <ele>192.5</ele>
        <time>2019-02-10T09:36:13Z</time>
      </trkpt>
      <trkpt lat="43.49229" lon="6.18606">
        <ele>192.8</ele>
        <time>2019-02-10T09:36:22Z</time>
      </trkpt>
      <trkpt lat="43.49231" lon="6.18618">
        <ele>193.1</ele>
        <time>2019-02-10T09:36:31Z</time>
      </trkpt>
      <trkpt lat="43.49228" lon="6.1863">
        <ele>193.4</ele>
        <time>2019-02-10T09:36:39Z</time>
      </trkpt>
      <trkpt lat="43.49231" lon="6.18643">
        <ele>193.8</ele>
        <time>2019-02-10T09:36:48Z</time>
      </trkpt>
      <trkpt lat="43.49234" lon="6.18655">
        <ele>194.1</ele>
        <time>2019-02-10T09:36:58Z</time>
      </trkpt>
      <trkpt lat="43.49237" lon="6.18668">
        <ele>194.5</ele>
        <time>2019-02-10T09:37:06Z</time>
      </trkpt>
      <trkpt lat="43.49235" lon="6.18681">
        <ele>195.2</ele>
        <time>2019-02-10T09:37:18Z</time>
      </trkpt>
      <trkpt lat="43.49231" lon="6.18693">
        <ele>195.5</ele>
        <time>2019-02-10T09:37:27Z</time>
      </trkpt>
      <trkpt lat="43.4923" lon="6.18706">
        <ele>196</ele>
        <time>2019-02-10T09:37:37Z</time>
      </trkpt>
      <trkpt lat="43.49228" lon="6.18718">
        <ele>196.6</ele>
        <time>2019-02-10T09:37:47Z</time>
      </trkpt>
      <trkpt lat="43.49232" lon="6.1873">
        <ele>196.5</ele>
        <time>2019-02-10T09:37:57Z</time>
      </trkpt>
      <trkpt lat="43.49242" lon="6.18735">
        <ele>196.2</ele>
        <time>2019-02-10T09:38:11Z</time>
      </trkpt>
      <trkpt lat="43.49249" lon="6.18742">
        <ele>196.1</ele>
        <time>2019-02-10T09:38:20Z</time>
      </trkpt>
      <trkpt lat="43.49258" lon="6.18746">
        <ele>196.2</ele>
        <time>2019-02-10T09:38:29Z</time>
      </trkpt>
      <trkpt lat="43.49267" lon="6.18744">
        <ele>197.5</ele>
        <time>2019-02-10T09:38:40Z</time>
      </trkpt>
      <trkpt lat="43.49277" lon="6.18744">
        <ele>197.7</ele>
        <time>2019-02-10T09:38:49Z</time>
      </trkpt>
      <trkpt lat="43.49286" lon="6.18748">
        <ele>197.8</ele>
        <time>2019-02-10T09:38:58Z</time>
      </trkpt>
      <trkpt lat="43.49294" lon="6.18753">
        <ele>197.8</ele>
        <time>2019-02-10T09:39:07Z</time>
      </trkpt>
      <trkpt lat="43.49295" lon="6.18767">
        <ele>197.7</ele>
        <time>2019-02-10T09:39:19Z</time>
      </trkpt>
      <trkpt lat="43.49293" lon="6.1878">
        <ele>197.6</ele>
        <time>2019-02-10T09:39:29Z</time>
      </trkpt>
      <trkpt lat="43.49291" lon="6.18793">
        <ele>197.9</ele>
        <time>2019-02-10T09:39:38Z</time>
      </trkpt>
      <trkpt lat="43.4929" lon="6.18806">
        <ele>198.2</ele>
        <time>2019-02-10T09:39:47Z</time>
      </trkpt>
      <trkpt lat="43.49288" lon="6.18819">
        <ele>198.8</ele>
        <time>2019-02-10T09:39:56Z</time>
      </trkpt>
      <trkpt lat="43.49286" lon="6.18833">
        <ele>198.8</ele>
        <time>2019-02-10T09:40:05Z</time>
      </trkpt>
      <trkpt lat="43.49292" lon="6.18843">
        <ele>198.9</ele>
        <time>2019-02-10T09:40:50Z</time>
      </trkpt>
      <trkpt lat="43.49291" lon="6.1883">
        <ele>198.6</ele>
        <time>2019-02-10T09:42:33Z</time>
      </trkpt>
      <trkpt lat="43.49283" lon="6.18837">
        <ele>198.7</ele>
        <time>2019-02-10T09:44:51Z</time>
      </trkpt>
      <trkpt lat="43.49291" lon="6.18846">
        <ele>198.4</ele>
        <time>2019-02-10T09:46:24Z</time>
      </trkpt>
      <trkpt lat="43.49299" lon="6.18851">
        <ele>197.5</ele>
        <time>2019-02-10T09:46:35Z</time>
      </trkpt>
      <trkpt lat="43.49308" lon="6.18854">
        <ele>196.7</ele>
        <time>2019-02-10T09:46:45Z</time>
      </trkpt>
      <trkpt lat="43.49317" lon="6.18857">
        <ele>196.3</ele>
        <time>2019-02-10T09:46:56Z</time>
      </trkpt>
      <trkpt lat="43.49326" lon="6.18861">
        <ele>196</ele>
        <time>2019-02-10T09:47:07Z</time>
      </trkpt>
      <trkpt lat="43.49335" lon="6.18867">
        <ele>196.4</ele>
        <time>2019-02-10T09:47:18Z</time>
      </trkpt>
      <trkpt lat="43.49344" lon="6.18864">
        <ele>197.3</ele>
        <time>2019-02-10T09:47:28Z</time>
      </trkpt>
      <trkpt lat="43.49354" lon="6.18861">
        <ele>197.3</ele>
        <time>2019-02-10T09:47:37Z</time>
      </trkpt>
      <trkpt lat="43.49364" lon="6.18859">
        <ele>197.4</ele>
        <time>2019-02-10T09:47:47Z</time>
      </trkpt>
      <trkpt lat="43.49373" lon="6.1886">
        <ele>197.8</ele>
        <time>2019-02-10T09:47:56Z</time>
      </trkpt>
      <trkpt lat="43.49383" lon="6.18863">
        <ele>198.3</ele>
        <time>2019-02-10T09:48:07Z</time>
      </trkpt>
      <trkpt lat="43.49391" lon="6.18869">
        <ele>198.8</ele>
        <time>2019-02-10T09:48:22Z</time>
      </trkpt>
      <trkpt lat="43.494" lon="6.18874">
        <ele>198.9</ele>
        <time>2019-02-10T09:48:31Z</time>
      </trkpt>
      <trkpt lat="43.49408" lon="6.1888">
        <ele>199.2</ele>
        <time>2019-02-10T09:48:40Z</time>
      </trkpt>
      <trkpt lat="43.49416" lon="6.18887">
        <ele>199.6</ele>
        <time>2019-02-10T09:48:50Z</time>
      </trkpt>
      <trkpt lat="43.49424" lon="6.18893">
        <ele>199.7</ele>
        <time>2019-02-10T09:48:59Z</time>
      </trkpt>
      <trkpt lat="43.49434" lon="6.18897">
        <ele>200.1</ele>
        <time>2019-02-10T09:49:08Z</time>
      </trkpt>
      <trkpt lat="43.49441" lon="6.18906">
        <ele>200.3</ele>
        <time>2019-02-10T09:49:17Z</time>
      </trkpt>
      <trkpt lat="43.49449" lon="6.18913">
        <ele>200.6</ele>
        <time>2019-02-10T09:49:24Z</time>
      </trkpt>
      <trkpt lat="43.49457" lon="6.18921">
        <ele>200.8</ele>
        <time>2019-02-10T09:49:32Z</time>
      </trkpt>
      <trkpt lat="43.49465" lon="6.18929">
        <ele>200.9</ele>
        <time>2019-02-10T09:49:40Z</time>
      </trkpt>
      <trkpt lat="43.49473" lon="6.18937">
        <ele>200.4</ele>
        <time>2019-02-10T09:49:48Z</time>
      </trkpt>
      <trkpt lat="43.49482" lon="6.18943">
        <ele>200.3</ele>
        <time>2019-02-10T09:49:56Z</time>
      </trkpt>
      <trkpt lat="43.49489" lon="6.18951">
        <ele>200.3</ele>
        <time>2019-02-10T09:50:04Z</time>
      </trkpt>
      <trkpt lat="43.49497" lon="6.18959">
        <ele>200.4</ele>
        <time>2019-02-10T09:50:12Z</time>
      </trkpt>
      <trkpt lat="43.49505" lon="6.18969">
        <ele>199.6</ele>
        <time>2019-02-10T09:50:21Z</time>
      </trkpt>
      <trkpt lat="43.49512" lon="6.18977">
        <ele>198.8</ele>
        <time>2019-02-10T09:50:29Z</time>
      </trkpt>
      <trkpt lat="43.49519" lon="6.18985">
        <ele>198.1</ele>
        <time>2019-02-10T09:50:37Z</time>
      </trkpt>
      <trkpt lat="43.49527" lon="6.18993">
        <ele>197.3</ele>
        <time>2019-02-10T09:50:45Z</time>
      </trkpt>
      <trkpt lat="43.49534" lon="6.19001">
        <ele>197</ele>
        <time>2019-02-10T09:50:53Z</time>
      </trkpt>
      <trkpt lat="43.49541" lon="6.19009">
        <ele>196.6</ele>
        <time>2019-02-10T09:51:01Z</time>
      </trkpt>
      <trkpt lat="43.49548" lon="6.19016">
        <ele>196.5</ele>
        <time>2019-02-10T09:51:09Z</time>
      </trkpt>
      <trkpt lat="43.49556" lon="6.19024">
        <ele>196.4</ele>
        <time>2019-02-10T09:51:18Z</time>
      </trkpt>
      <trkpt lat="43.49563" lon="6.19033">
        <ele>196.4</ele>
        <time>2019-02-10T09:51:27Z</time>
      </trkpt>
      <trkpt lat="43.49571" lon="6.19041">
        <ele>196.7</ele>
        <time>2019-02-10T09:51:36Z</time>
      </trkpt>
      <trkpt lat="43.49581" lon="6.19045">
        <ele>196.8</ele>
        <time>2019-02-10T09:51:45Z</time>
      </trkpt>
      <trkpt lat="43.49589" lon="6.19051">
        <ele>197.5</ele>
        <time>2019-02-10T09:51:53Z</time>
      </trkpt>
      <trkpt lat="43.49596" lon="6.19059">
        <ele>198.2</ele>
        <time>2019-02-10T09:52:02Z</time>
      </trkpt>
      <trkpt lat="43.49604" lon="6.19068">
        <ele>198.9</ele>
        <time>2019-02-10T09:52:10Z</time>
      </trkpt>
      <trkpt lat="43.49611" lon="6.19077">
        <ele>199.9</ele>
        <time>2019-02-10T09:52:22Z</time>
      </trkpt>
      <trkpt lat="43.49615" lon="6.19088">
        <ele>201.7</ele>
        <time>2019-02-10T09:52:47Z</time>
      </trkpt>
      <trkpt lat="43.49622" lon="6.19099">
        <ele>203.7</ele>
        <time>2019-02-10T09:53:02Z</time>
      </trkpt>
      <trkpt lat="43.4963" lon="6.19106">
        <ele>205.2</ele>
        <time>2019-02-10T09:53:15Z</time>
      </trkpt>
      <trkpt lat="43.49639" lon="6.19114">
        <ele>206.3</ele>
        <time>2019-02-10T09:53:27Z</time>
      </trkpt>
      <trkpt lat="43.49647" lon="6.1912">
        <ele>207.1</ele>
        <time>2019-02-10T09:53:33Z</time>
      </trkpt>
      <trkpt lat="43.49656" lon="6.19129">
        <ele>208.4</ele>
        <time>2019-02-10T09:53:45Z</time>
      </trkpt>
      <trkpt lat="43.49664" lon="6.19137">
        <ele>209.3</ele>
        <time>2019-02-10T09:53:52Z</time>
      </trkpt>
      <trkpt lat="43.49673" lon="6.19139">
        <ele>210.8</ele>
        <time>2019-02-10T09:54:08Z</time>
      </trkpt>
      <trkpt lat="43.49679" lon="6.19129">
        <ele>209.9</ele>
        <time>2019-02-10T09:59:54Z</time>
      </trkpt>
      <trkpt lat="43.49685" lon="6.19118">
        <ele>209.7</ele>
        <time>2019-02-10T10:00:04Z</time>
      </trkpt>
      <trkpt lat="43.4969" lon="6.19107">
        <ele>209.3</ele>
        <time>2019-02-10T10:00:16Z</time>
      </trkpt>
      <trkpt lat="43.49694" lon="6.19096">
        <ele>209.2</ele>
        <time>2019-02-10T10:00:27Z</time>
      </trkpt>
      <trkpt lat="43.49698" lon="6.19084">
        <ele>209.2</ele>
        <time>2019-02-10T10:00:40Z</time>
      </trkpt>
      <trkpt lat="43.49705" lon="6.19073">
        <ele>209.5</ele>
        <time>2019-02-10T10:00:47Z</time>
      </trkpt>
      <trkpt lat="43.4971" lon="6.19063">
        <ele>209.4</ele>
        <time>2019-02-10T10:00:55Z</time>
      </trkpt>
      <trkpt lat="43.49714" lon="6.1905">
        <ele>209.5</ele>
        <time>2019-02-10T10:01:05Z</time>
      </trkpt>
      <trkpt lat="43.49721" lon="6.19041">
        <ele>209.7</ele>
        <time>2019-02-10T10:01:14Z</time>
      </trkpt>
      <trkpt lat="43.49728" lon="6.1903">
        <ele>209.9</ele>
        <time>2019-02-10T10:01:23Z</time>
      </trkpt>
      <trkpt lat="43.49734" lon="6.1902">
        <ele>210</ele>
        <time>2019-02-10T10:01:31Z</time>
      </trkpt>
      <trkpt lat="43.49738" lon="6.19009">
        <ele>210.3</ele>
        <time>2019-02-10T10:01:39Z</time>
      </trkpt>
      <trkpt lat="43.49744" lon="6.18998">
        <ele>210.2</ele>
        <time>2019-02-10T10:01:47Z</time>
      </trkpt>
      <trkpt lat="43.4975" lon="6.18987">
        <ele>210.2</ele>
        <time>2019-02-10T10:01:56Z</time>
      </trkpt>
      <trkpt lat="43.49755" lon="6.18977">
        <ele>209.9</ele>
        <time>2019-02-10T10:02:04Z</time>
      </trkpt>
      <trkpt lat="43.49762" lon="6.18968">
        <ele>209.7</ele>
        <time>2019-02-10T10:02:12Z</time>
      </trkpt>
      <trkpt lat="43.49767" lon="6.18957">
        <ele>209.8</ele>
        <time>2019-02-10T10:02:22Z</time>
      </trkpt>
      <trkpt lat="43.49773" lon="6.18946">
        <ele>209.6</ele>
        <time>2019-02-10T10:02:34Z</time>
      </trkpt>
      <trkpt lat="43.49779" lon="6.18935">
        <ele>209.4</ele>
        <time>2019-02-10T10:02:43Z</time>
      </trkpt>
      <trkpt lat="43.49784" lon="6.18924">
        <ele>209.6</ele>
        <time>2019-02-10T10:02:52Z</time>
      </trkpt>
      <trkpt lat="43.49791" lon="6.18914">
        <ele>209.2</ele>
        <time>2019-02-10T10:03:00Z</time>
      </trkpt>
      <trkpt lat="43.49797" lon="6.18905">
        <ele>209.2</ele>
        <time>2019-02-10T10:03:08Z</time>
      </trkpt>
      <trkpt lat="43.49803" lon="6.18895">
        <ele>209.1</ele>
        <time>2019-02-10T10:03:15Z</time>
      </trkpt>
      <trkpt lat="43.49808" lon="6.18885">
        <ele>208.8</ele>
        <time>2019-02-10T10:03:24Z</time>
      </trkpt>
      <trkpt lat="43.49815" lon="6.18876">
        <ele>208</ele>
        <time>2019-02-10T10:03:33Z</time>
      </trkpt>
      <trkpt lat="43.49821" lon="6.18865">
        <ele>207.8</ele>
        <time>2019-02-10T10:03:42Z</time>
      </trkpt>
      <trkpt lat="43.49827" lon="6.18855">
        <ele>206.7</ele>
        <time>2019-02-10T10:04:01Z</time>
      </trkpt>
      <trkpt lat="43.49836" lon="6.18852">
        <ele>206.8</ele>
        <time>2019-02-10T10:04:53Z</time>
      </trkpt>
      <trkpt lat="43.49845" lon="6.18853">
        <ele>206.6</ele>
        <time>2019-02-10T10:05:07Z</time>
      </trkpt>
      <trkpt lat="43.49855" lon="6.18854">
        <ele>206.3</ele>
        <time>2019-02-10T10:05:20Z</time>
      </trkpt>
      <trkpt lat="43.49864" lon="6.18858">
        <ele>205.7</ele>
        <time>2019-02-10T10:05:30Z</time>
      </trkpt>
      <trkpt lat="43.49873" lon="6.1886">
        <ele>205.2</ele>
        <time>2019-02-10T10:05:38Z</time>
      </trkpt>
      <trkpt lat="43.49882" lon="6.18864">
        <ele>205</ele>
        <time>2019-02-10T10:05:48Z</time>
      </trkpt>
      <trkpt lat="43.4989" lon="6.18871">
        <ele>205</ele>
        <time>2019-02-10T10:05:58Z</time>
      </trkpt>
      <trkpt lat="43.49899" lon="6.18875">
        <ele>205.1</ele>
        <time>2019-02-10T10:06:08Z</time>
      </trkpt>
      <trkpt lat="43.49906" lon="6.18868">
        <ele>204.9</ele>
        <time>2019-02-10T10:06:16Z</time>
      </trkpt>
      <trkpt lat="43.49912" lon="6.18858">
        <ele>204.3</ele>
        <time>2019-02-10T10:06:24Z</time>
      </trkpt>
      <trkpt lat="43.49919" lon="6.18849">
        <ele>203.9</ele>
        <time>2019-02-10T10:06:32Z</time>
      </trkpt>
      <trkpt lat="43.49925" lon="6.18839">
        <ele>203.3</ele>
        <time>2019-02-10T10:06:42Z</time>
      </trkpt>
      <trkpt lat="43.49932" lon="6.1883">
        <ele>202.6</ele>
        <time>2019-02-10T10:06:53Z</time>
      </trkpt>
      <trkpt lat="43.49937" lon="6.1882">
        <ele>201.8</ele>
        <time>2019-02-10T10:07:04Z</time>
      </trkpt>
      <trkpt lat="43.49944" lon="6.18811">
        <ele>200.8</ele>
        <time>2019-02-10T10:07:14Z</time>
      </trkpt>
      <trkpt lat="43.49951" lon="6.18803">
        <ele>199.8</ele>
        <time>2019-02-10T10:07:33Z</time>
      </trkpt>
      <trkpt lat="43.4996" lon="6.18798">
        <ele>199.4</ele>
        <time>2019-02-10T10:07:45Z</time>
      </trkpt>
      <trkpt lat="43.49969" lon="6.18793">
        <ele>199.3</ele>
        <time>2019-02-10T10:07:53Z</time>
      </trkpt>
      <trkpt lat="43.49978" lon="6.18785">
        <ele>199.8</ele>
        <time>2019-02-10T10:08:03Z</time>
      </trkpt>
      <trkpt lat="43.49982" lon="6.18774">
        <ele>199.5</ele>
        <time>2019-02-10T10:08:32Z</time>
      </trkpt>
      <trkpt lat="43.49988" lon="6.18763">
        <ele>199.4</ele>
        <time>2019-02-10T10:08:46Z</time>
      </trkpt>
      <trkpt lat="43.49993" lon="6.1875">
        <ele>199</ele>
        <time>2019-02-10T10:08:58Z</time>
      </trkpt>
      <trkpt lat="43.49999" lon="6.1874">
        <ele>198.8</ele>
        <time>2019-02-10T10:09:07Z</time>
      </trkpt>
      <trkpt lat="43.50005" lon="6.18731">
        <ele>198</ele>
        <time>2019-02-10T10:09:18Z</time>
      </trkpt>
      <trkpt lat="43.50011" lon="6.1872">
        <ele>196.9</ele>
        <time>2019-02-10T10:09:30Z</time>
      </trkpt>
      <trkpt lat="43.50016" lon="6.18708">
        <ele>196.3</ele>
        <time>2019-02-10T10:09:38Z</time>
      </trkpt>
      <trkpt lat="43.50021" lon="6.18697">
        <ele>196.1</ele>
        <time>2019-02-10T10:09:45Z</time>
      </trkpt>
      <trkpt lat="43.50025" lon="6.18686">
        <ele>195.9</ele>
        <time>2019-02-10T10:09:53Z</time>
      </trkpt>
      <trkpt lat="43.50031" lon="6.18675">
        <ele>195.8</ele>
        <time>2019-02-10T10:10:03Z</time>
      </trkpt>
      <trkpt lat="43.50035" lon="6.18663">
        <ele>196.1</ele>
        <time>2019-02-10T10:10:12Z</time>
      </trkpt>
      <trkpt lat="43.50039" lon="6.18651">
        <ele>196.2</ele>
        <time>2019-02-10T10:10:20Z</time>
      </trkpt>
      <trkpt lat="43.50045" lon="6.1864">
        <ele>196.6</ele>
        <time>2019-02-10T10:10:29Z</time>
      </trkpt>
      <trkpt lat="43.5005" lon="6.18628">
        <ele>197</ele>
        <time>2019-02-10T10:10:40Z</time>
      </trkpt>
      <trkpt lat="43.50055" lon="6.18618">
        <ele>197.4</ele>
        <time>2019-02-10T10:10:50Z</time>
      </trkpt>
      <trkpt lat="43.5006" lon="6.18607">
        <ele>198.1</ele>
        <time>2019-02-10T10:10:59Z</time>
      </trkpt>
      <trkpt lat="43.50066" lon="6.18596">
        <ele>199.3</ele>
        <time>2019-02-10T10:11:09Z</time>
      </trkpt>
      <trkpt lat="43.50071" lon="6.18586">
        <ele>200</ele>
        <time>2019-02-10T10:11:17Z</time>
      </trkpt>
      <trkpt lat="43.50077" lon="6.18576">
        <ele>201.5</ele>
        <time>2019-02-10T10:11:27Z</time>
      </trkpt>
      <trkpt lat="43.50077" lon="6.18561">
        <ele>202.9</ele>
        <time>2019-02-10T10:11:38Z</time>
      </trkpt>
      <trkpt lat="43.50071" lon="6.18551">
        <ele>204.6</ele>
        <time>2019-02-10T10:11:47Z</time>
      </trkpt>
      <trkpt lat="43.50065" lon="6.18542">
        <ele>205.2</ele>
        <time>2019-02-10T10:14:25Z</time>
      </trkpt>
      <trkpt lat="43.50056" lon="6.18536">
        <ele>204.9</ele>
        <time>2019-02-10T10:14:35Z</time>
      </trkpt>
      <trkpt lat="43.50047" lon="6.18531">
        <ele>204.5</ele>
        <time>2019-02-10T10:14:42Z</time>
      </trkpt>
      <trkpt lat="43.5004" lon="6.18522">
        <ele>204.4</ele>
        <time>2019-02-10T10:14:50Z</time>
      </trkpt>
      <trkpt lat="43.50033" lon="6.18513">
        <ele>205.3</ele>
        <time>2019-02-10T10:15:01Z</time>
      </trkpt>
      <trkpt lat="43.50025" lon="6.18505">
        <ele>205.9</ele>
        <time>2019-02-10T10:15:09Z</time>
      </trkpt>
      <trkpt lat="43.5002" lon="6.18494">
        <ele>206.7</ele>
        <time>2019-02-10T10:15:19Z</time>
      </trkpt>
      <trkpt lat="43.50017" lon="6.18482">
        <ele>208.6</ele>
        <time>2019-02-10T10:15:29Z</time>
      </trkpt>
      <trkpt lat="43.50009" lon="6.18473">
        <ele>208.5</ele>
        <time>2019-02-10T10:15:38Z</time>
      </trkpt>
      <trkpt lat="43.50014" lon="6.18484">
        <ele>208.7</ele>
        <time>2019-02-10T10:21:50Z</time>
      </trkpt>
      <trkpt lat="43.50008" lon="6.18493">
        <ele>207</ele>
        <time>2019-02-10T10:22:13Z</time>
      </trkpt>
      <trkpt lat="43.5" lon="6.18485">
        <ele>206.2</ele>
        <time>2019-02-10T10:22:32Z</time>
      </trkpt>
      <trkpt lat="43.49994" lon="6.18475">
        <ele>206.1</ele>
        <time>2019-02-10T10:22:50Z</time>
      </trkpt>
      <trkpt lat="43.49986" lon="6.18466">
        <ele>206.1</ele>
        <time>2019-02-10T10:23:00Z</time>
      </trkpt>
      <trkpt lat="43.4998" lon="6.18455">
        <ele>206</ele>
        <time>2019-02-10T10:23:10Z</time>
      </trkpt>
      <trkpt lat="43.49974" lon="6.18445">
        <ele>205.8</ele>
        <time>2019-02-10T10:23:19Z</time>
      </trkpt>
      <trkpt lat="43.49969" lon="6.18434">
        <ele>205.2</ele>
        <time>2019-02-10T10:23:29Z</time>
      </trkpt>
      <trkpt lat="43.49964" lon="6.18423">
        <ele>205.4</ele>
        <time>2019-02-10T10:23:38Z</time>
      </trkpt>
      <trkpt lat="43.49957" lon="6.18414">
        <ele>205.4</ele>
        <time>2019-02-10T10:23:46Z</time>
      </trkpt>
      <trkpt lat="43.49953" lon="6.18402">
        <ele>205.5</ele>
        <time>2019-02-10T10:23:55Z</time>
      </trkpt>
      <trkpt lat="43.49944" lon="6.18398">
        <ele>205.8</ele>
        <time>2019-02-10T10:24:04Z</time>
      </trkpt>
      <trkpt lat="43.49935" lon="6.18403">
        <ele>204.9</ele>
        <time>2019-02-10T10:24:14Z</time>
      </trkpt>
      <trkpt lat="43.49928" lon="6.1841">
        <ele>202.2</ele>
        <time>2019-02-10T10:24:26Z</time>
      </trkpt>
      <trkpt lat="43.49921" lon="6.1842">
        <ele>199.8</ele>
        <time>2019-02-10T10:24:36Z</time>
      </trkpt>
      <trkpt lat="43.49919" lon="6.18433">
        <ele>199</ele>
        <time>2019-02-10T10:24:45Z</time>
      </trkpt>
      <trkpt lat="43.49921" lon="6.18447">
        <ele>198.3</ele>
        <time>2019-02-10T10:24:56Z</time>
      </trkpt>
      <trkpt lat="43.49922" lon="6.18459">
        <ele>197.5</ele>
        <time>2019-02-10T10:25:05Z</time>
      </trkpt>
      <trkpt lat="43.49917" lon="6.18447">
        <ele>196</ele>
        <time>2019-02-10T10:25:33Z</time>
      </trkpt>
      <trkpt lat="43.49912" lon="6.18437">
        <ele>195.9</ele>
        <time>2019-02-10T10:25:42Z</time>
      </trkpt>
      <trkpt lat="43.49906" lon="6.18426">
        <ele>195.9</ele>
        <time>2019-02-10T10:25:55Z</time>
      </trkpt>
      <trkpt lat="43.49905" lon="6.18413">
        <ele>195.6</ele>
        <time>2019-02-10T10:26:10Z</time>
      </trkpt>
      <trkpt lat="43.49905" lon="6.184">
        <ele>195.5</ele>
        <time>2019-02-10T10:26:19Z</time>
      </trkpt>
      <trkpt lat="43.49904" lon="6.18387">
        <ele>195.4</ele>
        <time>2019-02-10T10:26:28Z</time>
      </trkpt>
      <trkpt lat="43.49898" lon="6.18378">
        <ele>195.3</ele>
        <time>2019-02-10T10:26:40Z</time>
      </trkpt>
      <trkpt lat="43.49888" lon="6.18379">
        <ele>193.3</ele>
        <time>2019-02-10T10:26:51Z</time>
      </trkpt>
      <trkpt lat="43.4988" lon="6.18382">
        <ele>191.4</ele>
        <time>2019-02-10T10:27:01Z</time>
      </trkpt>
      <trkpt lat="43.49874" lon="6.18371">
        <ele>189.9</ele>
        <time>2019-02-10T10:27:12Z</time>
      </trkpt>
      <trkpt lat="43.49871" lon="6.18358">
        <ele>188.9</ele>
        <time>2019-02-10T10:27:22Z</time>
      </trkpt>
      <trkpt lat="43.49869" lon="6.18345">
        <ele>188.6</ele>
        <time>2019-02-10T10:27:31Z</time>
      </trkpt>
      <trkpt lat="43.49867" lon="6.18333">
        <ele>188.3</ele>
        <time>2019-02-10T10:27:41Z</time>
      </trkpt>
      <trkpt lat="43.49863" lon="6.18321">
        <ele>188.2</ele>
        <time>2019-02-10T10:27:51Z</time>
      </trkpt>
      <trkpt lat="43.49863" lon="6.18308">
        <ele>188.4</ele>
        <time>2019-02-10T10:28:00Z</time>
      </trkpt>
      <trkpt lat="43.49863" lon="6.18294">
        <ele>188.1</ele>
        <time>2019-02-10T10:28:10Z</time>
      </trkpt>
      <trkpt lat="43.49861" lon="6.18281">
        <ele>187.7</ele>
        <time>2019-02-10T10:28:18Z</time>
      </trkpt>
      <trkpt lat="43.49859" lon="6.18269">
        <ele>187.2</ele>
        <time>2019-02-10T10:28:26Z</time>
      </trkpt>
      <trkpt lat="43.49858" lon="6.18255">
        <ele>187.1</ele>
        <time>2019-02-10T10:28:36Z</time>
      </trkpt>
      <trkpt lat="43.49855" lon="6.18243">
        <ele>186.9</ele>
        <time>2019-02-10T10:28:45Z</time>
      </trkpt>
      <trkpt lat="43.49852" lon="6.18231">
        <ele>187</ele>
        <time>2019-02-10T10:28:55Z</time>
      </trkpt>
      <trkpt lat="43.49849" lon="6.18218">
        <ele>186.9</ele>
        <time>2019-02-10T10:29:03Z</time>
      </trkpt>
      <trkpt lat="43.49842" lon="6.1821">
        <ele>187.1</ele>
        <time>2019-02-10T10:29:12Z</time>
      </trkpt>
      <trkpt lat="43.49832" lon="6.18212">
        <ele>187.1</ele>
        <time>2019-02-10T10:29:22Z</time>
      </trkpt>
      <trkpt lat="43.49822" lon="6.18211">
        <ele>187</ele>
        <time>2019-02-10T10:29:30Z</time>
      </trkpt>
      <trkpt lat="43.49814" lon="6.18205">
        <ele>187.4</ele>
        <time>2019-02-10T10:29:41Z</time>
      </trkpt>
      <trkpt lat="43.49808" lon="6.18196">
        <ele>188.2</ele>
        <time>2019-02-10T10:29:54Z</time>
      </trkpt>
      <trkpt lat="43.49799" lon="6.18191">
        <ele>188.7</ele>
        <time>2019-02-10T10:30:03Z</time>
      </trkpt>
      <trkpt lat="43.4979" lon="6.18189">
        <ele>190.2</ele>
        <time>2019-02-10T10:30:18Z</time>
      </trkpt>
      <trkpt lat="43.4978" lon="6.18194">
        <ele>190.1</ele>
        <time>2019-02-10T10:30:29Z</time>
      </trkpt>
      <trkpt lat="43.49771" lon="6.18197">
        <ele>190.2</ele>
        <time>2019-02-10T10:30:38Z</time>
      </trkpt>
      <trkpt lat="43.49762" lon="6.18202">
        <ele>190.4</ele>
        <time>2019-02-10T10:30:47Z</time>
      </trkpt>
      <trkpt lat="43.49754" lon="6.18207">
        <ele>190.3</ele>
        <time>2019-02-10T10:30:56Z</time>
      </trkpt>
      <trkpt lat="43.49745" lon="6.18211">
        <ele>190.1</ele>
        <time>2019-02-10T10:31:07Z</time>
      </trkpt>
      <trkpt lat="43.49737" lon="6.18218">
        <ele>189.9</ele>
        <time>2019-02-10T10:31:16Z</time>
      </trkpt>
      <trkpt lat="43.49729" lon="6.18213">
        <ele>190.3</ele>
        <time>2019-02-10T10:31:39Z</time>
      </trkpt>
      <trkpt lat="43.49721" lon="6.18207">
        <ele>190.7</ele>
        <time>2019-02-10T10:31:56Z</time>
      </trkpt>
      <trkpt lat="43.49712" lon="6.18206">
        <ele>190.7</ele>
        <time>2019-02-10T10:35:00Z</time>
      </trkpt>
      <trkpt lat="43.49703" lon="6.18199">
        <ele>190.9</ele>
        <time>2019-02-10T10:35:12Z</time>
      </trkpt>
      <trkpt lat="43.49696" lon="6.18207">
        <ele>191</ele>
        <time>2019-02-10T10:35:20Z</time>
      </trkpt>
      <trkpt lat="43.49686" lon="6.1821">
        <ele>190.6</ele>
        <time>2019-02-10T10:35:29Z</time>
      </trkpt>
      <trkpt lat="43.4968" lon="6.18201">
        <ele>190.6</ele>
        <time>2019-02-10T10:35:45Z</time>
      </trkpt>
      <trkpt lat="43.49678" lon="6.18189">
        <ele>190.9</ele>
        <time>2019-02-10T10:35:55Z</time>
      </trkpt>
      <trkpt lat="43.49682" lon="6.18176">
        <ele>191.3</ele>
        <time>2019-02-10T10:36:06Z</time>
      </trkpt>
      <trkpt lat="43.49684" lon="6.18163">
        <ele>191.9</ele>
        <time>2019-02-10T10:36:15Z</time>
      </trkpt>
      <trkpt lat="43.49681" lon="6.18151">
        <ele>192.6</ele>
        <time>2019-02-10T10:36:23Z</time>
      </trkpt>
      <trkpt lat="43.49673" lon="6.18144">
        <ele>192.5</ele>
        <time>2019-02-10T10:36:33Z</time>
      </trkpt>
      <trkpt lat="43.49667" lon="6.18135">
        <ele>192.9</ele>
        <time>2019-02-10T10:36:41Z</time>
      </trkpt>
      <trkpt lat="43.49662" lon="6.18123">
        <ele>194.4</ele>
        <time>2019-02-10T10:36:54Z</time>
      </trkpt>
      <trkpt lat="43.49654" lon="6.18117">
        <ele>194.4</ele>
        <time>2019-02-10T10:37:15Z</time>
      </trkpt>
      <trkpt lat="43.49644" lon="6.1811">
        <ele>193.5</ele>
        <time>2019-02-10T10:37:28Z</time>
      </trkpt>
      <trkpt lat="43.49636" lon="6.18106">
        <ele>192.6</ele>
        <time>2019-02-10T10:37:36Z</time>
      </trkpt>
      <trkpt lat="43.49627" lon="6.18102">
        <ele>191.9</ele>
        <time>2019-02-10T10:37:44Z</time>
      </trkpt>
      <trkpt lat="43.49617" lon="6.18097">
        <ele>191.4</ele>
        <time>2019-02-10T10:37:52Z</time>
      </trkpt>
      <trkpt lat="43.49609" lon="6.18092">
        <ele>190.7</ele>
        <time>2019-02-10T10:38:00Z</time>
      </trkpt>
      <trkpt lat="43.496" lon="6.18087">
        <ele>190.2</ele>
        <time>2019-02-10T10:38:08Z</time>
      </trkpt>
      <trkpt lat="43.49591" lon="6.18081">
        <ele>189.7</ele>
        <time>2019-02-10T10:38:15Z</time>
      </trkpt>
      <trkpt lat="43.49583" lon="6.18077">
        <ele>188.9</ele>
        <time>2019-02-10T10:38:24Z</time>
      </trkpt>
      <trkpt lat="43.49574" lon="6.18073">
        <ele>188.2</ele>
        <time>2019-02-10T10:38:31Z</time>
      </trkpt>
      <trkpt lat="43.49565" lon="6.18067">
        <ele>187.6</ele>
        <time>2019-02-10T10:38:39Z</time>
      </trkpt>
      <trkpt lat="43.49556" lon="6.18061">
        <ele>187.1</ele>
        <time>2019-02-10T10:38:49Z</time>
      </trkpt>
      <trkpt lat="43.49547" lon="6.18057">
        <ele>186.4</ele>
        <time>2019-02-10T10:38:57Z</time>
      </trkpt>
      <trkpt lat="43.49537" lon="6.18052">
        <ele>186.1</ele>
        <time>2019-02-10T10:39:04Z</time>
      </trkpt>
      <trkpt lat="43.49528" lon="6.18045">
        <ele>185</ele>
        <time>2019-02-10T10:39:15Z</time>
      </trkpt>
      <trkpt lat="43.49519" lon="6.18039">
        <ele>184.4</ele>
        <time>2019-02-10T10:39:23Z</time>
      </trkpt>
      <trkpt lat="43.4951" lon="6.18033">
        <ele>183.2</ele>
        <time>2019-02-10T10:39:32Z</time>
      </trkpt>
      <trkpt lat="43.49501" lon="6.18025">
        <ele>182.5</ele>
        <time>2019-02-10T10:39:40Z</time>
      </trkpt>
      <trkpt lat="43.49492" lon="6.18021">
        <ele>182.6</ele>
        <time>2019-02-10T10:39:49Z</time>
      </trkpt>
      <trkpt lat="43.49482" lon="6.18015">
        <ele>182.2</ele>
        <time>2019-02-10T10:39:57Z</time>
      </trkpt>
      <trkpt lat="43.49473" lon="6.1801">
        <ele>182.5</ele>
        <time>2019-02-10T10:40:06Z</time>
      </trkpt>
      <trkpt lat="43.49464" lon="6.18006">
        <ele>182.8</ele>
        <time>2019-02-10T10:40:15Z</time>
      </trkpt>
      <trkpt lat="43.49455" lon="6.17997">
        <ele>183.4</ele>
        <time>2019-02-10T10:40:25Z</time>
      </trkpt>
      <trkpt lat="43.49446" lon="6.17991">
        <ele>184.4</ele>
        <time>2019-02-10T10:40:33Z</time>
      </trkpt>
      <trkpt lat="43.49437" lon="6.17988">
        <ele>185.9</ele>
        <time>2019-02-10T10:40:44Z</time>
      </trkpt>
      <trkpt lat="43.49429" lon="6.17981">
        <ele>186.8</ele>
        <time>2019-02-10T10:40:51Z</time>
      </trkpt>
      <trkpt lat="43.4942" lon="6.17976">
        <ele>188</ele>
        <time>2019-02-10T10:40:59Z</time>
      </trkpt>
      <trkpt lat="43.49412" lon="6.17969">
        <ele>188.7</ele>
        <time>2019-02-10T10:41:09Z</time>
      </trkpt>
      <trkpt lat="43.49404" lon="6.17964">
        <ele>189.4</ele>
        <time>2019-02-10T10:41:17Z</time>
      </trkpt>
      <trkpt lat="43.49396" lon="6.17958">
        <ele>190</ele>
        <time>2019-02-10T10:41:25Z</time>
      </trkpt>
      <trkpt lat="43.49387" lon="6.17953">
        <ele>189.9</ele>
        <time>2019-02-10T10:41:35Z</time>
      </trkpt>
      <trkpt lat="43.49377" lon="6.17948">
        <ele>190.3</ele>
        <time>2019-02-10T10:41:44Z</time>
      </trkpt>
      <trkpt lat="43.49368" lon="6.17944">
        <ele>191.4</ele>
        <time>2019-02-10T10:41:54Z</time>
      </trkpt>
      <trkpt lat="43.49359" lon="6.17944">
        <ele>193.1</ele>
        <time>2019-02-10T10:42:36Z</time>
      </trkpt>
      <trkpt lat="43.49351" lon="6.1795">
        <ele>193.5</ele>
        <time>2019-02-10T10:44:10Z</time>
      </trkpt>
      <trkpt lat="43.49341" lon="6.17954">
        <ele>193.2</ele>
        <time>2019-02-10T10:44:21Z</time>
      </trkpt>
      <trkpt lat="43.49332" lon="6.17952">
        <ele>193.4</ele>
        <time>2019-02-10T10:44:31Z</time>
      </trkpt>
      <trkpt lat="43.49327" lon="6.17942">
        <ele>195</ele>
        <time>2019-02-10T10:44:42Z</time>
      </trkpt>
      <trkpt lat="43.4933" lon="6.17929">
        <ele>197.5</ele>
        <time>2019-02-10T10:45:39Z</time>
      </trkpt>
      <trkpt lat="43.49329" lon="6.17916">
        <ele>199.6</ele>
        <time>2019-02-10T10:45:51Z</time>
      </trkpt>
      <trkpt lat="43.49321" lon="6.17909">
        <ele>201.2</ele>
        <time>2019-02-10T10:46:01Z</time>
      </trkpt>
      <trkpt lat="43.49315" lon="6.17898">
        <ele>203.6</ele>
        <time>2019-02-10T10:46:16Z</time>
      </trkpt>
      <trkpt lat="43.4931" lon="6.17888">
        <ele>205.1</ele>
        <time>2019-02-10T10:46:27Z</time>
      </trkpt>
      <trkpt lat="43.49302" lon="6.17879">
        <ele>207</ele>
        <time>2019-02-10T10:46:40Z</time>
      </trkpt>
      <trkpt lat="43.49297" lon="6.17869">
        <ele>208.3</ele>
        <time>2019-02-10T10:46:51Z</time>
      </trkpt>
      <trkpt lat="43.49288" lon="6.17861">
        <ele>209.8</ele>
        <time>2019-02-10T10:47:04Z</time>
      </trkpt>
      <trkpt lat="43.4928" lon="6.17854">
        <ele>210.9</ele>
        <time>2019-02-10T10:47:14Z</time>
      </trkpt>
      <trkpt lat="43.49274" lon="6.17844">
        <ele>212.1</ele>
        <time>2019-02-10T10:47:25Z</time>
      </trkpt>
      <trkpt lat="43.49266" lon="6.17837">
        <ele>213.2</ele>
        <time>2019-02-10T10:47:42Z</time>
      </trkpt>
      <trkpt lat="43.49265" lon="6.17824">
        <ele>213.5</ele>
        <time>2019-02-10T10:48:00Z</time>
      </trkpt>
      <trkpt lat="43.49268" lon="6.17812">
        <ele>214</ele>
        <time>2019-02-10T10:48:11Z</time>
      </trkpt>
      <trkpt lat="43.49277" lon="6.17805">
        <ele>214.1</ele>
        <time>2019-02-10T10:48:21Z</time>
      </trkpt>
      <trkpt lat="43.49284" lon="6.17797">
        <ele>214.5</ele>
        <time>2019-02-10T10:48:30Z</time>
      </trkpt>
      <trkpt lat="43.4929" lon="6.17787">
        <ele>214.3</ele>
        <time>2019-02-10T10:48:39Z</time>
      </trkpt>
      <trkpt lat="43.49297" lon="6.17778">
        <ele>214.5</ele>
        <time>2019-02-10T10:48:47Z</time>
      </trkpt>
      <trkpt lat="43.49304" lon="6.17769">
        <ele>215.1</ele>
        <time>2019-02-10T10:48:57Z</time>
      </trkpt>
      <trkpt lat="43.49311" lon="6.17759">
        <ele>215.2</ele>
        <time>2019-02-10T10:49:07Z</time>
      </trkpt>
      <trkpt lat="43.49317" lon="6.1775">
        <ele>215.1</ele>
        <time>2019-02-10T10:49:14Z</time>
      </trkpt>
      <trkpt lat="43.49324" lon="6.1774">
        <ele>215.4</ele>
        <time>2019-02-10T10:49:24Z</time>
      </trkpt>
      <trkpt lat="43.49331" lon="6.17729">
        <ele>215.9</ele>
        <time>2019-02-10T10:49:33Z</time>
      </trkpt>
      <trkpt lat="43.49336" lon="6.17719">
        <ele>216.2</ele>
        <time>2019-02-10T10:49:41Z</time>
      </trkpt>
      <trkpt lat="43.49339" lon="6.17706">
        <ele>216.5</ele>
        <time>2019-02-10T10:49:53Z</time>
      </trkpt>
      <trkpt lat="43.49338" lon="6.17694">
        <ele>216.8</ele>
        <time>2019-02-10T10:50:01Z</time>
      </trkpt>
      <trkpt lat="43.49334" lon="6.17683">
        <ele>217.7</ele>
        <time>2019-02-10T10:50:12Z</time>
      </trkpt>
      <trkpt lat="43.49326" lon="6.17675">
        <ele>218.3</ele>
        <time>2019-02-10T10:50:22Z</time>
      </trkpt>
      <trkpt lat="43.49318" lon="6.17667">
        <ele>219.1</ele>
        <time>2019-02-10T10:50:31Z</time>
      </trkpt>
      <trkpt lat="43.4931" lon="6.1766">
        <ele>219.9</ele>
        <time>2019-02-10T10:50:40Z</time>
      </trkpt>
      <trkpt lat="43.49303" lon="6.17651">
        <ele>220.5</ele>
        <time>2019-02-10T10:50:49Z</time>
      </trkpt>
      <trkpt lat="43.49297" lon="6.17642">
        <ele>220.9</ele>
        <time>2019-02-10T10:50:58Z</time>
      </trkpt>
      <trkpt lat="43.49287" lon="6.17633">
        <ele>221.3</ele>
        <time>2019-02-10T10:51:10Z</time>
      </trkpt>
      <trkpt lat="43.49279" lon="6.17625">
        <ele>221.4</ele>
        <time>2019-02-10T10:51:19Z</time>
      </trkpt>
      <trkpt lat="43.49269" lon="6.17619">
        <ele>221.5</ele>
        <time>2019-02-10T10:51:28Z</time>
      </trkpt>
      <trkpt lat="43.49261" lon="6.17612">
        <ele>221.6</ele>
        <time>2019-02-10T10:51:39Z</time>
      </trkpt>
      <trkpt lat="43.49253" lon="6.17604">
        <ele>221.7</ele>
        <time>2019-02-10T10:51:48Z</time>
      </trkpt>
      <trkpt lat="43.49249" lon="6.17593">
        <ele>222.4</ele>
        <time>2019-02-10T10:51:59Z</time>
      </trkpt>
      <trkpt lat="43.49242" lon="6.17583">
        <ele>222.5</ele>
        <time>2019-02-10T10:52:07Z</time>
      </trkpt>
      <trkpt lat="43.49234" lon="6.17576">
        <ele>222.8</ele>
        <time>2019-02-10T10:52:17Z</time>
      </trkpt>
      <trkpt lat="43.49225" lon="6.17568">
        <ele>222.6</ele>
        <time>2019-02-10T10:52:29Z</time>
      </trkpt>
      <trkpt lat="43.49216" lon="6.17566">
        <ele>222.5</ele>
        <time>2019-02-10T10:52:39Z</time>
      </trkpt>
      <trkpt lat="43.49207" lon="6.17563">
        <ele>222.7</ele>
        <time>2019-02-10T10:52:48Z</time>
      </trkpt>
      <trkpt lat="43.49198" lon="6.17561">
        <ele>222.8</ele>
        <time>2019-02-10T10:52:58Z</time>
      </trkpt>
      <trkpt lat="43.49189" lon="6.17559">
        <ele>222.7</ele>
        <time>2019-02-10T10:53:07Z</time>
      </trkpt>
      <trkpt lat="43.49178" lon="6.17555">
        <ele>223</ele>
        <time>2019-02-10T10:53:19Z</time>
      </trkpt>
      <trkpt lat="43.49169" lon="6.17552">
        <ele>223.2</ele>
        <time>2019-02-10T10:53:25Z</time>
      </trkpt>
      <trkpt lat="43.49161" lon="6.17548">
        <ele>223.7</ele>
        <time>2019-02-10T10:53:34Z</time>
      </trkpt>
      <trkpt lat="43.49152" lon="6.17545">
        <ele>224.2</ele>
        <time>2019-02-10T10:53:43Z</time>
      </trkpt>
      <trkpt lat="43.49143" lon="6.17542">
        <ele>225.4</ele>
        <time>2019-02-10T10:53:54Z</time>
      </trkpt>
      <trkpt lat="43.49134" lon="6.17538">
        <ele>225.5</ele>
        <time>2019-02-10T10:54:02Z</time>
      </trkpt>
      <trkpt lat="43.49125" lon="6.17531">
        <ele>226</ele>
        <time>2019-02-10T10:54:12Z</time>
      </trkpt>
      <trkpt lat="43.49117" lon="6.17524">
        <ele>226</ele>
        <time>2019-02-10T10:54:27Z</time>
      </trkpt>
      <trkpt lat="43.49115" lon="6.17511">
        <ele>226.8</ele>
        <time>2019-02-10T10:54:40Z</time>
      </trkpt>
      <trkpt lat="43.49108" lon="6.17502">
        <ele>227.7</ele>
        <time>2019-02-10T10:54:50Z</time>
      </trkpt>
      <trkpt lat="43.49101" lon="6.17494">
        <ele>228.1</ele>
        <time>2019-02-10T10:55:03Z</time>
      </trkpt>
      <trkpt lat="43.49094" lon="6.17484">
        <ele>228.1</ele>
        <time>2019-02-10T10:55:13Z</time>
      </trkpt>
      <trkpt lat="43.49087" lon="6.17476">
        <ele>228</ele>
        <time>2019-02-10T10:55:24Z</time>
      </trkpt>
      <trkpt lat="43.4908" lon="6.17469">
        <ele>227.8</ele>
        <time>2019-02-10T10:55:31Z</time>
      </trkpt>
      <trkpt lat="43.4907" lon="6.17465">
        <ele>227.1</ele>
        <time>2019-02-10T10:55:41Z</time>
      </trkpt>
      <trkpt lat="43.4906" lon="6.17463">
        <ele>226</ele>
        <time>2019-02-10T10:55:50Z</time>
      </trkpt>
      <trkpt lat="43.49052" lon="6.17454">
        <ele>225.7</ele>
        <time>2019-02-10T10:56:01Z</time>
      </trkpt>
      <trkpt lat="43.49044" lon="6.17447">
        <ele>225.1</ele>
        <time>2019-02-10T10:56:14Z</time>
      </trkpt>
      <trkpt lat="43.49035" lon="6.17443">
        <ele>224.8</ele>
        <time>2019-02-10T10:56:29Z</time>
      </trkpt>
      <trkpt lat="43.49025" lon="6.17441">
        <ele>224.2</ele>
        <time>2019-02-10T10:58:04Z</time>
      </trkpt>
      <trkpt lat="43.49018" lon="6.17433">
        <ele>223.7</ele>
        <time>2019-02-10T10:58:17Z</time>
      </trkpt>
      <trkpt lat="43.4901" lon="6.17425">
        <ele>223.3</ele>
        <time>2019-02-10T10:59:38Z</time>
      </trkpt>
      <trkpt lat="43.49019" lon="6.1742">
        <ele>224.1</ele>
        <time>2019-02-10T11:02:27Z</time>
      </trkpt>
      <trkpt lat="43.49009" lon="6.17422">
        <ele>225.3</ele>
        <time>2019-02-10T11:05:22Z</time>
      </trkpt>
      <trkpt lat="43.49" lon="6.17427">
        <ele>224.6</ele>
        <time>2019-02-10T11:05:31Z</time>
      </trkpt>
      <trkpt lat="43.48992" lon="6.17435">
        <ele>223.7</ele>
        <time>2019-02-10T11:05:42Z</time>
      </trkpt>
      <trkpt lat="43.49" lon="6.17429">
        <ele>224.3</ele>
        <time>2019-02-10T11:07:58Z</time>
      </trkpt>
      <trkpt lat="43.49009" lon="6.17427">
        <ele>224.9</ele>
        <time>2019-02-10T11:08:09Z</time>
      </trkpt>
      <trkpt lat="43.49018" lon="6.17433">
        <ele>224.9</ele>
        <time>2019-02-10T11:14:52Z</time>
      </trkpt>
      <trkpt lat="43.49021" lon="6.17445">
        <ele>225.7</ele>
        <time>2019-02-10T11:15:02Z</time>
      </trkpt>
      <trkpt lat="43.49019" lon="6.17458">
        <ele>226.5</ele>
        <time>2019-02-10T11:15:10Z</time>
      </trkpt>
      <trkpt lat="43.4902" lon="6.17471">
        <ele>227</ele>
        <time>2019-02-10T11:15:22Z</time>
      </trkpt>
      <trkpt lat="43.49028" lon="6.17463">
        <ele>226.8</ele>
        <time>2019-02-10T11:15:39Z</time>
      </trkpt>
      <trkpt lat="43.49037" lon="6.1746">
        <ele>226.8</ele>
        <time>2019-02-10T11:15:50Z</time>
      </trkpt>
      <trkpt lat="43.49038" lon="6.17447">
        <ele>226.7</ele>
        <time>2019-02-10T11:16:10Z</time>
      </trkpt>
      <trkpt lat="43.4903" lon="6.17441">
        <ele>225.7</ele>
        <time>2019-02-10T11:16:17Z</time>
      </trkpt>
      <trkpt lat="43.49021" lon="6.17434">
        <ele>224.8</ele>
        <time>2019-02-10T11:16:33Z</time>
      </trkpt>
      <trkpt lat="43.49014" lon="6.17425">
        <ele>224</ele>
        <time>2019-02-10T11:16:43Z</time>
      </trkpt>
      <trkpt lat="43.49019" lon="6.17436">
        <ele>211.8</ele>
        <time>2019-02-10T11:49:13Z</time>
      </trkpt>
      <trkpt lat="43.49027" lon="6.17444">
        <ele>212.7</ele>
        <time>2019-02-10T11:49:26Z</time>
      </trkpt>
      <trkpt lat="43.49032" lon="6.17456">
        <ele>213.7</ele>
        <time>2019-02-10T11:49:39Z</time>
      </trkpt>
      <trkpt lat="43.49037" lon="6.17467">
        <ele>214.3</ele>
        <time>2019-02-10T11:49:49Z</time>
      </trkpt>
      <trkpt lat="43.49046" lon="6.17468">
        <ele>214.7</ele>
        <time>2019-02-10T11:50:00Z</time>
      </trkpt>
      <trkpt lat="43.49056" lon="6.17471">
        <ele>215.6</ele>
        <time>2019-02-10T11:50:12Z</time>
      </trkpt>
      <trkpt lat="43.49065" lon="6.17474">
        <ele>216</ele>
        <time>2019-02-10T11:50:21Z</time>
      </trkpt>
      <trkpt lat="43.49074" lon="6.17479">
        <ele>216.5</ele>
        <time>2019-02-10T11:50:31Z</time>
      </trkpt>
      <trkpt lat="43.49081" lon="6.17488">
        <ele>216.8</ele>
        <time>2019-02-10T11:50:41Z</time>
      </trkpt>
      <trkpt lat="43.49089" lon="6.17497">
        <ele>216.9</ele>
        <time>2019-02-10T11:50:51Z</time>
      </trkpt>
      <trkpt lat="43.49097" lon="6.17502">
        <ele>216.5</ele>
        <time>2019-02-10T11:51:00Z</time>
      </trkpt>
      <trkpt lat="43.49104" lon="6.17512">
        <ele>216</ele>
        <time>2019-02-10T11:51:10Z</time>
      </trkpt>
      <trkpt lat="43.49109" lon="6.17523">
        <ele>214.9</ele>
        <time>2019-02-10T11:51:23Z</time>
      </trkpt>
      <trkpt lat="43.49115" lon="6.17532">
        <ele>214.1</ele>
        <time>2019-02-10T11:51:30Z</time>
      </trkpt>
      <trkpt lat="43.49122" lon="6.17542">
        <ele>213.8</ele>
        <time>2019-02-10T11:51:39Z</time>
      </trkpt>
      <trkpt lat="43.49131" lon="6.17546">
        <ele>213.4</ele>
        <time>2019-02-10T11:51:49Z</time>
      </trkpt>
      <trkpt lat="43.49141" lon="6.17549">
        <ele>212.8</ele>
        <time>2019-02-10T11:51:57Z</time>
      </trkpt>
      <trkpt lat="43.49149" lon="6.17554">
        <ele>212.1</ele>
        <time>2019-02-10T11:52:04Z</time>
      </trkpt>
      <trkpt lat="43.49157" lon="6.17559">
        <ele>211.3</ele>
        <time>2019-02-10T11:52:12Z</time>
      </trkpt>
      <trkpt lat="43.49166" lon="6.17563">
        <ele>210.9</ele>
        <time>2019-02-10T11:52:20Z</time>
      </trkpt>
      <trkpt lat="43.49175" lon="6.17564">
        <ele>210.6</ele>
        <time>2019-02-10T11:52:29Z</time>
      </trkpt>
      <trkpt lat="43.49185" lon="6.17568">
        <ele>210.3</ele>
        <time>2019-02-10T11:52:40Z</time>
      </trkpt>
      <trkpt lat="43.49194" lon="6.17566">
        <ele>210.3</ele>
        <time>2019-02-10T11:52:47Z</time>
      </trkpt>
      <trkpt lat="43.49202" lon="6.17572">
        <ele>210.3</ele>
        <time>2019-02-10T11:52:56Z</time>
      </trkpt>
      <trkpt lat="43.49212" lon="6.17574">
        <ele>210.4</ele>
        <time>2019-02-10T11:53:02Z</time>
      </trkpt>
      <trkpt lat="43.49222" lon="6.17577">
        <ele>210.3</ele>
        <time>2019-02-10T11:53:10Z</time>
      </trkpt>
      <trkpt lat="43.4923" lon="6.17585">
        <ele>210.3</ele>
        <time>2019-02-10T11:53:19Z</time>
      </trkpt>
      <trkpt lat="43.4924" lon="6.17591">
        <ele>210.1</ele>
        <time>2019-02-10T11:53:27Z</time>
      </trkpt>
      <trkpt lat="43.49249" lon="6.17594">
        <ele>209.9</ele>
        <time>2019-02-10T11:53:35Z</time>
      </trkpt>
      <trkpt lat="43.49256" lon="6.17605">
        <ele>209.4</ele>
        <time>2019-02-10T11:53:42Z</time>
      </trkpt>
      <trkpt lat="43.49263" lon="6.17613">
        <ele>209.1</ele>
        <time>2019-02-10T11:53:49Z</time>
      </trkpt>
      <trkpt lat="43.49269" lon="6.17622">
        <ele>209.1</ele>
        <time>2019-02-10T11:53:57Z</time>
      </trkpt>
      <trkpt lat="43.49277" lon="6.1763">
        <ele>208.8</ele>
        <time>2019-02-10T11:54:04Z</time>
      </trkpt>
      <trkpt lat="43.49285" lon="6.17637">
        <ele>208.7</ele>
        <time>2019-02-10T11:54:11Z</time>
      </trkpt>
      <trkpt lat="43.49294" lon="6.17642">
        <ele>208</ele>
        <time>2019-02-10T11:54:19Z</time>
      </trkpt>
      <trkpt lat="43.493" lon="6.17652">
        <ele>207.6</ele>
        <time>2019-02-10T11:54:26Z</time>
      </trkpt>
      <trkpt lat="43.49307" lon="6.1766">
        <ele>207</ele>
        <time>2019-02-10T11:54:34Z</time>
      </trkpt>
      <trkpt lat="43.49314" lon="6.17669">
        <ele>206.1</ele>
        <time>2019-02-10T11:54:42Z</time>
      </trkpt>
      <trkpt lat="43.49321" lon="6.17679">
        <ele>205.2</ele>
        <time>2019-02-10T11:54:50Z</time>
      </trkpt>
      <trkpt lat="43.49329" lon="6.17686">
        <ele>204.4</ele>
        <time>2019-02-10T11:54:59Z</time>
      </trkpt>
      <trkpt lat="43.49336" lon="6.17696">
        <ele>202.7</ele>
        <time>2019-02-10T11:55:09Z</time>
      </trkpt>
      <trkpt lat="43.4933" lon="6.17706">
        <ele>202</ele>
        <time>2019-02-10T11:55:20Z</time>
      </trkpt>
      <trkpt lat="43.49324" lon="6.17716">
        <ele>201.8</ele>
        <time>2019-02-10T11:55:31Z</time>
      </trkpt>
      <trkpt lat="43.49317" lon="6.17726">
        <ele>201.2</ele>
        <time>2019-02-10T11:55:41Z</time>
      </trkpt>
      <trkpt lat="43.49313" lon="6.17738">
        <ele>200.7</ele>
        <time>2019-02-10T11:55:52Z</time>
      </trkpt>
      <trkpt lat="43.49306" lon="6.17747">
        <ele>200.5</ele>
        <time>2019-02-10T11:56:01Z</time>
      </trkpt>
      <trkpt lat="43.49298" lon="6.17758">
        <ele>200.3</ele>
        <time>2019-02-10T11:56:09Z</time>
      </trkpt>
      <trkpt lat="43.49291" lon="6.17766">
        <ele>200.2</ele>
        <time>2019-02-10T11:56:15Z</time>
      </trkpt>
      <trkpt lat="43.49283" lon="6.17776">
        <ele>199.9</ele>
        <time>2019-02-10T11:56:24Z</time>
      </trkpt>
      <trkpt lat="43.49279" lon="6.17787">
        <ele>199.6</ele>
        <time>2019-02-10T11:56:33Z</time>
      </trkpt>
      <trkpt lat="43.49275" lon="6.17799">
        <ele>199.7</ele>
        <time>2019-02-10T11:56:38Z</time>
      </trkpt>
      <trkpt lat="43.49268" lon="6.17808">
        <ele>199.6</ele>
        <time>2019-02-10T11:56:46Z</time>
      </trkpt>
      <trkpt lat="43.49263" lon="6.17819">
        <ele>199.1</ele>
        <time>2019-02-10T11:56:55Z</time>
      </trkpt>
      <trkpt lat="43.49267" lon="6.17831">
        <ele>198.6</ele>
        <time>2019-02-10T11:57:03Z</time>
      </trkpt>
      <trkpt lat="43.49271" lon="6.17843">
        <ele>197.5</ele>
        <time>2019-02-10T11:57:12Z</time>
      </trkpt>
      <trkpt lat="43.49278" lon="6.17854">
        <ele>196.6</ele>
        <time>2019-02-10T11:57:20Z</time>
      </trkpt>
      <trkpt lat="43.49284" lon="6.17863">
        <ele>195.5</ele>
        <time>2019-02-10T11:57:27Z</time>
      </trkpt>
      <trkpt lat="43.49289" lon="6.17873">
        <ele>194.4</ele>
        <time>2019-02-10T11:57:35Z</time>
      </trkpt>
      <trkpt lat="43.49297" lon="6.17881">
        <ele>192.7</ele>
        <time>2019-02-10T11:57:44Z</time>
      </trkpt>
      <trkpt lat="43.49301" lon="6.17893">
        <ele>190.9</ele>
        <time>2019-02-10T11:57:53Z</time>
      </trkpt>
      <trkpt lat="43.49309" lon="6.17902">
        <ele>189.1</ele>
        <time>2019-02-10T11:58:02Z</time>
      </trkpt>
      <trkpt lat="43.49315" lon="6.17911">
        <ele>187.1</ele>
        <time>2019-02-10T11:58:12Z</time>
      </trkpt>
      <trkpt lat="43.49322" lon="6.1792">
        <ele>185.4</ele>
        <time>2019-02-10T11:58:21Z</time>
      </trkpt>
      <trkpt lat="43.49324" lon="6.17932">
        <ele>182.9</ele>
        <time>2019-02-10T11:58:35Z</time>
      </trkpt>
      <trkpt lat="43.49324" lon="6.17945">
        <ele>181.2</ele>
        <time>2019-02-10T11:58:44Z</time>
      </trkpt>
      <trkpt lat="43.49322" lon="6.17957">
        <ele>180.2</ele>
        <time>2019-02-10T11:58:55Z</time>
      </trkpt>
      <trkpt lat="43.49332" lon="6.17957">
        <ele>179.5</ele>
        <time>2019-02-10T11:59:37Z</time>
      </trkpt>
      <trkpt lat="43.49341" lon="6.17956">
        <ele>179.4</ele>
        <time>2019-02-10T11:59:46Z</time>
      </trkpt>
      <trkpt lat="43.4935" lon="6.17953">
        <ele>179.3</ele>
        <time>2019-02-10T11:59:56Z</time>
      </trkpt>
      <trkpt lat="43.49358" lon="6.17945">
        <ele>179.1</ele>
        <time>2019-02-10T12:00:04Z</time>
      </trkpt>
      <trkpt lat="43.49364" lon="6.17936">
        <ele>179.6</ele>
        <time>2019-02-10T12:00:10Z</time>
      </trkpt>
      <trkpt lat="43.49371" lon="6.17926">
        <ele>180.2</ele>
        <time>2019-02-10T12:00:20Z</time>
      </trkpt>
      <trkpt lat="43.49376" lon="6.17915">
        <ele>180.8</ele>
        <time>2019-02-10T12:00:30Z</time>
      </trkpt>
      <trkpt lat="43.49381" lon="6.17903">
        <ele>181</ele>
        <time>2019-02-10T12:00:40Z</time>
      </trkpt>
      <trkpt lat="43.49388" lon="6.17895">
        <ele>180.8</ele>
        <time>2019-02-10T12:00:47Z</time>
      </trkpt>
      <trkpt lat="43.49395" lon="6.17885">
        <ele>180.4</ele>
        <time>2019-02-10T12:00:55Z</time>
      </trkpt>
      <trkpt lat="43.49401" lon="6.17875">
        <ele>180</ele>
        <time>2019-02-10T12:01:01Z</time>
      </trkpt>
      <trkpt lat="43.49408" lon="6.17864">
        <ele>180.1</ele>
        <time>2019-02-10T12:01:12Z</time>
      </trkpt>
      <trkpt lat="43.49413" lon="6.17854">
        <ele>179.9</ele>
        <time>2019-02-10T12:01:19Z</time>
      </trkpt>
      <trkpt lat="43.4942" lon="6.17846">
        <ele>179.6</ele>
        <time>2019-02-10T12:01:27Z</time>
      </trkpt>
      <trkpt lat="43.49427" lon="6.17837">
        <ele>179.2</ele>
        <time>2019-02-10T12:01:32Z</time>
      </trkpt>
      <trkpt lat="43.49435" lon="6.1783">
        <ele>178.1</ele>
        <time>2019-02-10T12:01:42Z</time>
      </trkpt>
      <trkpt lat="43.49442" lon="6.1782">
        <ele>177.4</ele>
        <time>2019-02-10T12:01:50Z</time>
      </trkpt>
      <trkpt lat="43.49448" lon="6.1781">
        <ele>177.5</ele>
        <time>2019-02-10T12:01:59Z</time>
      </trkpt>
      <trkpt lat="43.49453" lon="6.17798">
        <ele>177.7</ele>
        <time>2019-02-10T12:02:09Z</time>
      </trkpt>
      <trkpt lat="43.4946" lon="6.17787">
        <ele>177.8</ele>
        <time>2019-02-10T12:02:18Z</time>
      </trkpt>
      <trkpt lat="43.49465" lon="6.17777">
        <ele>177.6</ele>
        <time>2019-02-10T12:02:25Z</time>
      </trkpt>
      <trkpt lat="43.49471" lon="6.17764">
        <ele>177</ele>
        <time>2019-02-10T12:02:36Z</time>
      </trkpt>
      <trkpt lat="43.49476" lon="6.17753">
        <ele>176</ele>
        <time>2019-02-10T12:02:47Z</time>
      </trkpt>
      <trkpt lat="43.49483" lon="6.17744">
        <ele>175.3</ele>
        <time>2019-02-10T12:02:56Z</time>
      </trkpt>
      <trkpt lat="43.49491" lon="6.17736">
        <ele>175</ele>
        <time>2019-02-10T12:03:04Z</time>
      </trkpt>
      <trkpt lat="43.49498" lon="6.17727">
        <ele>174.8</ele>
        <time>2019-02-10T12:03:12Z</time>
      </trkpt>
      <trkpt lat="43.49506" lon="6.1772">
        <ele>174.2</ele>
        <time>2019-02-10T12:03:20Z</time>
      </trkpt>
      <trkpt lat="43.49514" lon="6.17712">
        <ele>174</ele>
        <time>2019-02-10T12:03:29Z</time>
      </trkpt>
      <trkpt lat="43.49523" lon="6.17705">
        <ele>173.7</ele>
        <time>2019-02-10T12:03:37Z</time>
      </trkpt>
      <trkpt lat="43.49533" lon="6.17701">
        <ele>173.5</ele>
        <time>2019-02-10T12:03:47Z</time>
      </trkpt>
      <trkpt lat="43.49542" lon="6.177">
        <ele>173.4</ele>
        <time>2019-02-10T12:03:56Z</time>
      </trkpt>
      <trkpt lat="43.49552" lon="6.17697">
        <ele>173.4</ele>
        <time>2019-02-10T12:04:05Z</time>
      </trkpt>
      <trkpt lat="43.49562" lon="6.17696">
        <ele>173.3</ele>
        <time>2019-02-10T12:04:12Z</time>
      </trkpt>
      <trkpt lat="43.49571" lon="6.17695">
        <ele>173.5</ele>
        <time>2019-02-10T12:04:19Z</time>
      </trkpt>
      <trkpt lat="43.4958" lon="6.17688">
        <ele>173.4</ele>
        <time>2019-02-10T12:04:25Z</time>
      </trkpt>
      <trkpt lat="43.49588" lon="6.17685">
        <ele>173.4</ele>
        <time>2019-02-10T12:04:32Z</time>
      </trkpt>
      <trkpt lat="43.49597" lon="6.17679">
        <ele>173.4</ele>
        <time>2019-02-10T12:04:39Z</time>
      </trkpt>
      <trkpt lat="43.49605" lon="6.17673">
        <ele>173.3</ele>
        <time>2019-02-10T12:04:46Z</time>
      </trkpt>
      <trkpt lat="43.49613" lon="6.17667">
        <ele>173.2</ele>
        <time>2019-02-10T12:04:52Z</time>
      </trkpt>
      <trkpt lat="43.49622" lon="6.17664">
        <ele>173.1</ele>
        <time>2019-02-10T12:05:01Z</time>
      </trkpt>
      <trkpt lat="43.49632" lon="6.17662">
        <ele>173</ele>
        <time>2019-02-10T12:05:09Z</time>
      </trkpt>
      <trkpt lat="43.49642" lon="6.1766">
        <ele>173.7</ele>
        <time>2019-02-10T12:05:17Z</time>
      </trkpt>
      <trkpt lat="43.49651" lon="6.17661">
        <ele>173.9</ele>
        <time>2019-02-10T12:05:26Z</time>
      </trkpt>
      <trkpt lat="43.49661" lon="6.17656">
        <ele>174.1</ele>
        <time>2019-02-10T12:05:35Z</time>
      </trkpt>
      <trkpt lat="43.49672" lon="6.17652">
        <ele>173.5</ele>
        <time>2019-02-10T12:05:43Z</time>
      </trkpt>
      <trkpt lat="43.49681" lon="6.17651">
        <ele>173.2</ele>
        <time>2019-02-10T12:05:51Z</time>
      </trkpt>
      <trkpt lat="43.4969" lon="6.17648">
        <ele>172.7</ele>
        <time>2019-02-10T12:05:58Z</time>
      </trkpt>
      <trkpt lat="43.49699" lon="6.17646">
        <ele>173.6</ele>
        <time>2019-02-10T12:06:07Z</time>
      </trkpt>
      <trkpt lat="43.49709" lon="6.17648">
        <ele>174.3</ele>
        <time>2019-02-10T12:06:15Z</time>
      </trkpt>
      <trkpt lat="43.49718" lon="6.1765">
        <ele>174.2</ele>
        <time>2019-02-10T12:06:24Z</time>
      </trkpt>
      <trkpt lat="43.49727" lon="6.17648">
        <ele>172.9</ele>
        <time>2019-02-10T12:06:34Z</time>
      </trkpt>
      <trkpt lat="43.49738" lon="6.17649">
        <ele>171.2</ele>
        <time>2019-02-10T12:06:44Z</time>
      </trkpt>
      <trkpt lat="43.49748" lon="6.17648">
        <ele>169.7</ele>
        <time>2019-02-10T12:06:52Z</time>
      </trkpt>
      <trkpt lat="43.49757" lon="6.17641">
        <ele>167.7</ele>
        <time>2019-02-10T12:07:04Z</time>
      </trkpt>
      <trkpt lat="43.49765" lon="6.17631">
        <ele>166.1</ele>
        <time>2019-02-10T12:07:13Z</time>
      </trkpt>
      <trkpt lat="43.49771" lon="6.17622">
        <ele>164.5</ele>
        <time>2019-02-10T12:07:22Z</time>
      </trkpt>
      <trkpt lat="43.49777" lon="6.17611">
        <ele>163.5</ele>
        <time>2019-02-10T12:07:29Z</time>
      </trkpt>
      <trkpt lat="43.49782" lon="6.176">
        <ele>161.9</ele>
        <time>2019-02-10T12:07:40Z</time>
      </trkpt>
      <trkpt lat="43.49789" lon="6.1759">
        <ele>160.7</ele>
        <time>2019-02-10T12:07:48Z</time>
      </trkpt>
      <trkpt lat="43.49797" lon="6.17579">
        <ele>160.1</ele>
        <time>2019-02-10T12:07:56Z</time>
      </trkpt>
      <trkpt lat="43.49803" lon="6.17569">
        <ele>159.5</ele>
        <time>2019-02-10T12:08:03Z</time>
      </trkpt>
      <trkpt lat="43.49809" lon="6.17559">
        <ele>159.3</ele>
        <time>2019-02-10T12:08:13Z</time>
      </trkpt>
      <trkpt lat="43.49819" lon="6.17555">
        <ele>159.5</ele>
        <time>2019-02-10T12:08:21Z</time>
      </trkpt>
      <trkpt lat="43.49829" lon="6.17555">
        <ele>159.4</ele>
        <time>2019-02-10T12:08:30Z</time>
      </trkpt>
      <trkpt lat="43.49838" lon="6.17556">
        <ele>159.9</ele>
        <time>2019-02-10T12:08:39Z</time>
      </trkpt>
      <trkpt lat="43.49848" lon="6.17555">
        <ele>160</ele>
        <time>2019-02-10T12:08:47Z</time>
      </trkpt>
      <trkpt lat="43.49857" lon="6.17554">
        <ele>159.8</ele>
        <time>2019-02-10T12:08:55Z</time>
      </trkpt>
      <trkpt lat="43.49867" lon="6.17549">
        <ele>160</ele>
        <time>2019-02-10T12:09:03Z</time>
      </trkpt>
      <trkpt lat="43.49875" lon="6.17543">
        <ele>160.5</ele>
        <time>2019-02-10T12:09:12Z</time>
      </trkpt>
      <trkpt lat="43.49884" lon="6.17535">
        <ele>160.6</ele>
        <time>2019-02-10T12:09:20Z</time>
      </trkpt>
      <trkpt lat="43.49892" lon="6.17526">
        <ele>161.2</ele>
        <time>2019-02-10T12:09:30Z</time>
      </trkpt>
      <trkpt lat="43.49899" lon="6.17517">
        <ele>161.5</ele>
        <time>2019-02-10T12:09:38Z</time>
      </trkpt>
      <trkpt lat="43.49906" lon="6.17508">
        <ele>162</ele>
        <time>2019-02-10T12:09:48Z</time>
      </trkpt>
      <trkpt lat="43.49914" lon="6.175">
        <ele>162.8</ele>
        <time>2019-02-10T12:09:58Z</time>
      </trkpt>
      <trkpt lat="43.49922" lon="6.17492">
        <ele>162.8</ele>
        <time>2019-02-10T12:10:06Z</time>
      </trkpt>
      <trkpt lat="43.49929" lon="6.17482">
        <ele>163</ele>
        <time>2019-02-10T12:10:14Z</time>
      </trkpt>
      <trkpt lat="43.49937" lon="6.17475">
        <ele>163.5</ele>
        <time>2019-02-10T12:10:23Z</time>
      </trkpt>
      <trkpt lat="43.49944" lon="6.17466">
        <ele>163.9</ele>
        <time>2019-02-10T12:10:32Z</time>
      </trkpt>
      <trkpt lat="43.4995" lon="6.17456">
        <ele>164.1</ele>
        <time>2019-02-10T12:10:39Z</time>
      </trkpt>
      <trkpt lat="43.49958" lon="6.17447">
        <ele>164.4</ele>
        <time>2019-02-10T12:10:50Z</time>
      </trkpt>
      <trkpt lat="43.49965" lon="6.17437">
        <ele>165</ele>
        <time>2019-02-10T12:11:00Z</time>
      </trkpt>
      <trkpt lat="43.49972" lon="6.17429">
        <ele>165.7</ele>
        <time>2019-02-10T12:11:09Z</time>
      </trkpt>
      <trkpt lat="43.49978" lon="6.17419">
        <ele>166.1</ele>
        <time>2019-02-10T12:11:17Z</time>
      </trkpt>
      <trkpt lat="43.49985" lon="6.17409">
        <ele>166.2</ele>
        <time>2019-02-10T12:11:25Z</time>
      </trkpt>
      <trkpt lat="43.49991" lon="6.174">
        <ele>167.1</ele>
        <time>2019-02-10T12:11:33Z</time>
      </trkpt>
      <trkpt lat="43.49998" lon="6.17391">
        <ele>167.9</ele>
        <time>2019-02-10T12:11:42Z</time>
      </trkpt>
      <trkpt lat="43.50006" lon="6.17383">
        <ele>169.3</ele>
        <time>2019-02-10T12:11:52Z</time>
      </trkpt>
      <trkpt lat="43.50012" lon="6.17375">
        <ele>170.3</ele>
        <time>2019-02-10T12:12:21Z</time>
      </trkpt>
      <trkpt lat="43.50013" lon="6.17362">
        <ele>171.2</ele>
        <time>2019-02-10T12:14:40Z</time>
      </trkpt>
      <trkpt lat="43.50014" lon="6.17349">
        <ele>171.5</ele>
        <time>2019-02-10T12:14:51Z</time>
      </trkpt>
      <trkpt lat="43.50011" lon="6.17337">
        <ele>171.6</ele>
        <time>2019-02-10T12:15:04Z</time>
      </trkpt>
      <trkpt lat="43.50007" lon="6.17325">
        <ele>171.5</ele>
        <time>2019-02-10T12:15:16Z</time>
      </trkpt>
      <trkpt lat="43.50003" lon="6.17314">
        <ele>171.6</ele>
        <time>2019-02-10T12:15:27Z</time>
      </trkpt>
      <trkpt lat="43.5" lon="6.17302">
        <ele>171.6</ele>
        <time>2019-02-10T12:15:36Z</time>
      </trkpt>
      <trkpt lat="43.49997" lon="6.17289">
        <ele>171.7</ele>
        <time>2019-02-10T12:15:44Z</time>
      </trkpt>
      <trkpt lat="43.49992" lon="6.17277">
        <ele>171.4</ele>
        <time>2019-02-10T12:15:52Z</time>
      </trkpt>
      <trkpt lat="43.49988" lon="6.17265">
        <ele>171.6</ele>
        <time>2019-02-10T12:16:00Z</time>
      </trkpt>
      <trkpt lat="43.49985" lon="6.17253">
        <ele>171.9</ele>
        <time>2019-02-10T12:16:09Z</time>
      </trkpt>
      <trkpt lat="43.49982" lon="6.1724">
        <ele>171.8</ele>
        <time>2019-02-10T12:16:18Z</time>
      </trkpt>
      <trkpt lat="43.49976" lon="6.17229">
        <ele>171.6</ele>
        <time>2019-02-10T12:16:28Z</time>
      </trkpt>
      <trkpt lat="43.49971" lon="6.17218">
        <ele>171.5</ele>
        <time>2019-02-10T12:16:38Z</time>
      </trkpt>
      <trkpt lat="43.49966" lon="6.17206">
        <ele>171</ele>
        <time>2019-02-10T12:16:53Z</time>
      </trkpt>
      <trkpt lat="43.49963" lon="6.17193">
        <ele>170.6</ele>
        <time>2019-02-10T12:17:01Z</time>
      </trkpt>
      <trkpt lat="43.49962" lon="6.1718">
        <ele>170.2</ele>
        <time>2019-02-10T12:17:09Z</time>
      </trkpt>
      <trkpt lat="43.4996" lon="6.17167">
        <ele>169.6</ele>
        <time>2019-02-10T12:17:17Z</time>
      </trkpt>
      <trkpt lat="43.49956" lon="6.17156">
        <ele>169.3</ele>
        <time>2019-02-10T12:17:25Z</time>
      </trkpt>
      <trkpt lat="43.49951" lon="6.17144">
        <ele>169.1</ele>
        <time>2019-02-10T12:17:33Z</time>
      </trkpt>
      <trkpt lat="43.49945" lon="6.17135">
        <ele>169.3</ele>
        <time>2019-02-10T12:17:40Z</time>
      </trkpt>
      <trkpt lat="43.4994" lon="6.17124">
        <ele>169.7</ele>
        <time>2019-02-10T12:17:48Z</time>
      </trkpt>
      <trkpt lat="43.49935" lon="6.17112">
        <ele>170.8</ele>
        <time>2019-02-10T12:17:58Z</time>
      </trkpt>
      <trkpt lat="43.49929" lon="6.17102">
        <ele>171.4</ele>
        <time>2019-02-10T12:18:06Z</time>
      </trkpt>
      <trkpt lat="43.49925" lon="6.17091">
        <ele>172.4</ele>
        <time>2019-02-10T12:18:16Z</time>
      </trkpt>
      <trkpt lat="43.49923" lon="6.17078">
        <ele>173.3</ele>
        <time>2019-02-10T12:18:27Z</time>
      </trkpt>
      <trkpt lat="43.4992" lon="6.17066">
        <ele>173.7</ele>
        <time>2019-02-10T12:19:32Z</time>
      </trkpt>
      <trkpt lat="43.49919" lon="6.17054">
        <ele>173.9</ele>
        <time>2019-02-10T12:19:59Z</time>
      </trkpt>
      <trkpt lat="43.49923" lon="6.17043">
        <ele>174</ele>
        <time>2019-02-10T12:20:13Z</time>
      </trkpt>
      <trkpt lat="43.49925" lon="6.17031">
        <ele>174.3</ele>
        <time>2019-02-10T12:20:46Z</time>
      </trkpt>
      <trkpt lat="43.49919" lon="6.17022">
        <ele>174.2</ele>
        <time>2019-02-10T12:23:33Z</time>
      </trkpt>
      <trkpt lat="43.49911" lon="6.17014">
        <ele>173.8</ele>
        <time>2019-02-10T12:23:44Z</time>
      </trkpt>
      <trkpt lat="43.49904" lon="6.17005">
        <ele>173.7</ele>
        <time>2019-02-10T12:23:54Z</time>
      </trkpt>
      <trkpt lat="43.49897" lon="6.16995">
        <ele>173.2</ele>
        <time>2019-02-10T12:24:04Z</time>
      </trkpt>
      <trkpt lat="43.49889" lon="6.16987">
        <ele>172.4</ele>
        <time>2019-02-10T12:24:14Z</time>
      </trkpt>
      <trkpt lat="43.49881" lon="6.1698">
        <ele>171.7</ele>
        <time>2019-02-10T12:24:23Z</time>
      </trkpt>
      <trkpt lat="43.49873" lon="6.16973">
        <ele>170.9</ele>
        <time>2019-02-10T12:24:31Z</time>
      </trkpt>
      <trkpt lat="43.49866" lon="6.16966">
        <ele>170.3</ele>
        <time>2019-02-10T12:24:39Z</time>
      </trkpt>
      <trkpt lat="43.49858" lon="6.16959">
        <ele>169.7</ele>
        <time>2019-02-10T12:24:47Z</time>
      </trkpt>
      <trkpt lat="43.49848" lon="6.16958">
        <ele>168.9</ele>
        <time>2019-02-10T12:25:00Z</time>
      </trkpt>
      <trkpt lat="43.4984" lon="6.16951">
        <ele>168.6</ele>
        <time>2019-02-10T12:25:45Z</time>
      </trkpt>
      <trkpt lat="43.49832" lon="6.16944">
        <ele>168.1</ele>
        <time>2019-02-10T12:25:55Z</time>
      </trkpt>
      <trkpt lat="43.49824" lon="6.16938">
        <ele>167.5</ele>
        <time>2019-02-10T12:26:04Z</time>
      </trkpt>
      <trkpt lat="43.49829" lon="6.16949">
        <ele>166.7</ele>
        <time>2019-02-10T12:29:32Z</time>
      </trkpt>
      <trkpt lat="43.49823" lon="6.16939">
        <ele>164.9</ele>
        <time>2019-02-10T12:30:21Z</time>
      </trkpt>
      <trkpt lat="43.49815" lon="6.16932">
        <ele>164.1</ele>
        <time>2019-02-10T12:32:12Z</time>
      </trkpt>
      <trkpt lat="43.49806" lon="6.16927">
        <ele>163.2</ele>
        <time>2019-02-10T12:32:21Z</time>
      </trkpt>
      <trkpt lat="43.49798" lon="6.16921">
        <ele>162.8</ele>
        <time>2019-02-10T12:32:29Z</time>
      </trkpt>
      <trkpt lat="43.49789" lon="6.16917">
        <ele>162.3</ele>
        <time>2019-02-10T12:32:37Z</time>
      </trkpt>
      <trkpt lat="43.4978" lon="6.16912">
        <ele>161.9</ele>
        <time>2019-02-10T12:32:45Z</time>
      </trkpt>
      <trkpt lat="43.49771" lon="6.16907">
        <ele>161.1</ele>
        <time>2019-02-10T12:32:53Z</time>
      </trkpt>
      <trkpt lat="43.49762" lon="6.16904">
        <ele>160.6</ele>
        <time>2019-02-10T12:33:01Z</time>
      </trkpt>
      <trkpt lat="43.49753" lon="6.16899">
        <ele>160.1</ele>
        <time>2019-02-10T12:33:10Z</time>
      </trkpt>
      <trkpt lat="43.49743" lon="6.16896">
        <ele>159.7</ele>
        <time>2019-02-10T12:33:18Z</time>
      </trkpt>
      <trkpt lat="43.49734" lon="6.16891">
        <ele>159.6</ele>
        <time>2019-02-10T12:33:26Z</time>
      </trkpt>
      <trkpt lat="43.49725" lon="6.16887">
        <ele>159.6</ele>
        <time>2019-02-10T12:33:33Z</time>
      </trkpt>
      <trkpt lat="43.49716" lon="6.16883">
        <ele>160.1</ele>
        <time>2019-02-10T12:33:41Z</time>
      </trkpt>
      <trkpt lat="43.49707" lon="6.1688">
        <ele>161</ele>
        <time>2019-02-10T12:33:49Z</time>
      </trkpt>
      <trkpt lat="43.49699" lon="6.16876">
        <ele>162</ele>
        <time>2019-02-10T12:33:56Z</time>
      </trkpt>
      <trkpt lat="43.4969" lon="6.16873">
        <ele>162.5</ele>
        <time>2019-02-10T12:34:29Z</time>
      </trkpt>
      <trkpt lat="43.49681" lon="6.16869">
        <ele>162.6</ele>
        <time>2019-02-10T12:34:36Z</time>
      </trkpt>
      <trkpt lat="43.49672" lon="6.16864">
        <ele>162.7</ele>
        <time>2019-02-10T12:34:43Z</time>
      </trkpt>
      <trkpt lat="43.49663" lon="6.16861">
        <ele>162.7</ele>
        <time>2019-02-10T12:34:50Z</time>
      </trkpt>
      <trkpt lat="43.49653" lon="6.16857">
        <ele>162.6</ele>
        <time>2019-02-10T12:34:58Z</time>
      </trkpt>
      <trkpt lat="43.49643" lon="6.16853">
        <ele>162.4</ele>
        <time>2019-02-10T12:35:06Z</time>
      </trkpt>
      <trkpt lat="43.49633" lon="6.16851">
        <ele>162.5</ele>
        <time>2019-02-10T12:35:14Z</time>
      </trkpt>
      <trkpt lat="43.49624" lon="6.16847">
        <ele>162.5</ele>
        <time>2019-02-10T12:35:22Z</time>
      </trkpt>
      <trkpt lat="43.49615" lon="6.16842">
        <ele>162.5</ele>
        <time>2019-02-10T12:35:30Z</time>
      </trkpt>
      <trkpt lat="43.49606" lon="6.16837">
        <ele>162.3</ele>
        <time>2019-02-10T12:35:38Z</time>
      </trkpt>
      <trkpt lat="43.49597" lon="6.16833">
        <ele>162</ele>
        <time>2019-02-10T12:35:45Z</time>
      </trkpt>
      <trkpt lat="43.49588" lon="6.16829">
        <ele>161.8</ele>
        <time>2019-02-10T12:35:52Z</time>
      </trkpt>
      <trkpt lat="43.49579" lon="6.16826">
        <ele>161.4</ele>
        <time>2019-02-10T12:36:00Z</time>
      </trkpt>
      <trkpt lat="43.4957" lon="6.16824">
        <ele>161</ele>
        <time>2019-02-10T12:36:07Z</time>
      </trkpt>
      <trkpt lat="43.49561" lon="6.1682">
        <ele>160.5</ele>
        <time>2019-02-10T12:36:14Z</time>
      </trkpt>
      <trkpt lat="43.49552" lon="6.16817">
        <ele>160.2</ele>
        <time>2019-02-10T12:36:21Z</time>
      </trkpt>
      <trkpt lat="43.49543" lon="6.16813">
        <ele>159.4</ele>
        <time>2019-02-10T12:36:28Z</time>
      </trkpt>
      <trkpt lat="43.49534" lon="6.16809">
        <ele>159</ele>
        <time>2019-02-10T12:36:35Z</time>
      </trkpt>
      <trkpt lat="43.49525" lon="6.16804">
        <ele>158.3</ele>
        <time>2019-02-10T12:36:42Z</time>
      </trkpt>
      <trkpt lat="43.49515" lon="6.16801">
        <ele>157.9</ele>
        <time>2019-02-10T12:36:50Z</time>
      </trkpt>
      <trkpt lat="43.49507" lon="6.16798">
        <ele>157.6</ele>
        <time>2019-02-10T12:36:57Z</time>
      </trkpt>
      <trkpt lat="43.49497" lon="6.16794">
        <ele>157.2</ele>
        <time>2019-02-10T12:37:05Z</time>
      </trkpt>
      <trkpt lat="43.49488" lon="6.1679">
        <ele>157.2</ele>
        <time>2019-02-10T12:37:12Z</time>
      </trkpt>
      <trkpt lat="43.49479" lon="6.16786">
        <ele>157.1</ele>
        <time>2019-02-10T12:37:19Z</time>
      </trkpt>
      <trkpt lat="43.4947" lon="6.16781">
        <ele>156.9</ele>
        <time>2019-02-10T12:37:26Z</time>
      </trkpt>
      <trkpt lat="43.49461" lon="6.16776">
        <ele>156.8</ele>
        <time>2019-02-10T12:37:34Z</time>
      </trkpt>
      <trkpt lat="43.49452" lon="6.1677">
        <ele>157.2</ele>
        <time>2019-02-10T12:37:42Z</time>
      </trkpt>
      <trkpt lat="43.49443" lon="6.16763">
        <ele>157.7</ele>
        <time>2019-02-10T12:37:52Z</time>
      </trkpt>
      <trkpt lat="43.49434" lon="6.16756">
        <ele>158.6</ele>
        <time>2019-02-10T12:38:00Z</time>
      </trkpt>
      <trkpt lat="43.49425" lon="6.1675">
        <ele>159.2</ele>
        <time>2019-02-10T12:38:08Z</time>
      </trkpt>
      <trkpt lat="43.49416" lon="6.16744">
        <ele>159.2</ele>
        <time>2019-02-10T12:38:16Z</time>
      </trkpt>
      <trkpt lat="43.49408" lon="6.16738">
        <ele>159</ele>
        <time>2019-02-10T12:38:24Z</time>
      </trkpt>
      <trkpt lat="43.49399" lon="6.16735">
        <ele>158.3</ele>
        <time>2019-02-10T12:38:32Z</time>
      </trkpt>
      <trkpt lat="43.4939" lon="6.16731">
        <ele>157.2</ele>
        <time>2019-02-10T12:38:39Z</time>
      </trkpt>
      <trkpt lat="43.49381" lon="6.16728">
        <ele>156.1</ele>
        <time>2019-02-10T12:38:46Z</time>
      </trkpt>
      <trkpt lat="43.49371" lon="6.16724">
        <ele>156.3</ele>
        <time>2019-02-10T12:38:53Z</time>
      </trkpt>
      <trkpt lat="43.49361" lon="6.16721">
        <ele>156.3</ele>
        <time>2019-02-10T12:39:00Z</time>
      </trkpt>
      <trkpt lat="43.49352" lon="6.16718">
        <ele>156.3</ele>
        <time>2019-02-10T12:39:09Z</time>
      </trkpt>
      <trkpt lat="43.49343" lon="6.16714">
        <ele>156.4</ele>
        <time>2019-02-10T12:39:17Z</time>
      </trkpt>
      <trkpt lat="43.49334" lon="6.16708">
        <ele>156.4</ele>
        <time>2019-02-10T12:39:25Z</time>
      </trkpt>
      <trkpt lat="43.49326" lon="6.16703">
        <ele>156.6</ele>
        <time>2019-02-10T12:39:33Z</time>
      </trkpt>
      <trkpt lat="43.49317" lon="6.16698">
        <ele>156.8</ele>
        <time>2019-02-10T12:39:40Z</time>
      </trkpt>
      <trkpt lat="43.49307" lon="6.16695">
        <ele>156.7</ele>
        <time>2019-02-10T12:39:47Z</time>
      </trkpt>
      <trkpt lat="43.49298" lon="6.16693">
        <ele>156.6</ele>
        <time>2019-02-10T12:39:54Z</time>
      </trkpt>
      <trkpt lat="43.49288" lon="6.16691">
        <ele>156.8</ele>
        <time>2019-02-10T12:40:01Z</time>
      </trkpt>
      <trkpt lat="43.49279" lon="6.16689">
        <ele>157.5</ele>
        <time>2019-02-10T12:40:09Z</time>
      </trkpt>
      <trkpt lat="43.4927" lon="6.16688">
        <ele>158.4</ele>
        <time>2019-02-10T12:40:19Z</time>
      </trkpt>
      <trkpt lat="43.4926" lon="6.1669">
        <ele>158.9</ele>
        <time>2019-02-10T12:40:28Z</time>
      </trkpt>
      <trkpt lat="43.4925" lon="6.16688">
        <ele>159</ele>
        <time>2019-02-10T12:40:36Z</time>
      </trkpt>
      <trkpt lat="43.4924" lon="6.16689">
        <ele>159.1</ele>
        <time>2019-02-10T12:40:45Z</time>
      </trkpt>
      <trkpt lat="43.49231" lon="6.16692">
        <ele>158.9</ele>
        <time>2019-02-10T12:40:53Z</time>
      </trkpt>
      <trkpt lat="43.4922" lon="6.16695">
        <ele>158.2</ele>
        <time>2019-02-10T12:41:02Z</time>
      </trkpt>
      <trkpt lat="43.49211" lon="6.16697">
        <ele>157</ele>
        <time>2019-02-10T12:41:11Z</time>
      </trkpt>
      <trkpt lat="43.49201" lon="6.167">
        <ele>155.1</ele>
        <time>2019-02-10T12:41:21Z</time>
      </trkpt>
      <trkpt lat="43.49191" lon="6.167">
        <ele>153.8</ele>
        <time>2019-02-10T12:41:30Z</time>
      </trkpt>
      <trkpt lat="43.49182" lon="6.16705">
        <ele>151.9</ele>
        <time>2019-02-10T12:41:40Z</time>
      </trkpt>
      <trkpt lat="43.49173" lon="6.16708">
        <ele>150.1</ele>
        <time>2019-02-10T12:41:49Z</time>
      </trkpt>
      <trkpt lat="43.49164" lon="6.16713">
        <ele>148.6</ele>
        <time>2019-02-10T12:41:58Z</time>
      </trkpt>
      <trkpt lat="43.49157" lon="6.16722">
        <ele>146.9</ele>
        <time>2019-02-10T12:43:06Z</time>
      </trkpt>
      <trkpt lat="43.49149" lon="6.16719">
        <ele>144.8</ele>
        <time>2019-02-10T12:44:54Z</time>
      </trkpt>
      <trkpt lat="43.49139" lon="6.1672">
        <ele>144.2</ele>
        <time>2019-02-10T12:45:03Z</time>
      </trkpt>
      <trkpt lat="43.4913" lon="6.16725">
        <ele>144</ele>
        <time>2019-02-10T12:45:11Z</time>
      </trkpt>
      <trkpt lat="43.49123" lon="6.16734">
        <ele>144.2</ele>
        <time>2019-02-10T12:45:20Z</time>
      </trkpt>
      <trkpt lat="43.49117" lon="6.16744">
        <ele>144.2</ele>
        <time>2019-02-10T12:45:28Z</time>
      </trkpt>
      <trkpt lat="43.49112" lon="6.16755">
        <ele>144.2</ele>
        <time>2019-02-10T12:45:36Z</time>
      </trkpt>
      <trkpt lat="43.49108" lon="6.16768">
        <ele>144.2</ele>
        <time>2019-02-10T12:45:44Z</time>
      </trkpt>
      <trkpt lat="43.49103" lon="6.16778">
        <ele>144.2</ele>
        <time>2019-02-10T12:45:51Z</time>
      </trkpt>
      <trkpt lat="43.49097" lon="6.16789">
        <ele>144</ele>
        <time>2019-02-10T12:45:58Z</time>
      </trkpt>
      <trkpt lat="43.4909" lon="6.16798">
        <ele>143.7</ele>
        <time>2019-02-10T12:46:06Z</time>
      </trkpt>
      <trkpt lat="43.49081" lon="6.16806">
        <ele>143.4</ele>
        <time>2019-02-10T12:46:14Z</time>
      </trkpt>
      <trkpt lat="43.49075" lon="6.16816">
        <ele>143.1</ele>
        <time>2019-02-10T12:46:22Z</time>
      </trkpt>
      <trkpt lat="43.49067" lon="6.16825">
        <ele>143</ele>
        <time>2019-02-10T12:46:30Z</time>
      </trkpt>
      <trkpt lat="43.49062" lon="6.16836">
        <ele>142.8</ele>
        <time>2019-02-10T12:46:38Z</time>
      </trkpt>
      <trkpt lat="43.49055" lon="6.16845">
        <ele>142.9</ele>
        <time>2019-02-10T12:46:48Z</time>
      </trkpt>
      <trkpt lat="43.49046" lon="6.16847">
        <ele>143.3</ele>
        <time>2019-02-10T12:46:55Z</time>
      </trkpt>
      <trkpt lat="43.49037" lon="6.16847">
        <ele>142.7</ele>
        <time>2019-02-10T12:47:02Z</time>
      </trkpt>
      <trkpt lat="43.49027" lon="6.16845">
        <ele>142.2</ele>
        <time>2019-02-10T12:47:10Z</time>
      </trkpt>
      <trkpt lat="43.49017" lon="6.16848">
        <ele>141.8</ele>
        <time>2019-02-10T12:47:18Z</time>
      </trkpt>
      <trkpt lat="43.49008" lon="6.16852">
        <ele>141.4</ele>
        <time>2019-02-10T12:47:25Z</time>
      </trkpt>
      <trkpt lat="43.49" lon="6.16859">
        <ele>141.5</ele>
        <time>2019-02-10T12:47:32Z</time>
      </trkpt>
      <trkpt lat="43.48992" lon="6.16866">
        <ele>141.2</ele>
        <time>2019-02-10T12:47:39Z</time>
      </trkpt>
      <trkpt lat="43.48986" lon="6.16876">
        <ele>141</ele>
        <time>2019-02-10T12:47:46Z</time>
      </trkpt>
      <trkpt lat="43.48981" lon="6.16887">
        <ele>140.9</ele>
        <time>2019-02-10T12:47:53Z</time>
      </trkpt>
      <trkpt lat="43.48978" lon="6.16899">
        <ele>141.3</ele>
        <time>2019-02-10T12:48:00Z</time>
      </trkpt>
      <trkpt lat="43.48975" lon="6.16911">
        <ele>141.3</ele>
        <time>2019-02-10T12:48:07Z</time>
      </trkpt>
      <trkpt lat="43.48971" lon="6.16923">
        <ele>141.4</ele>
        <time>2019-02-10T12:48:14Z</time>
      </trkpt>
      <trkpt lat="43.48966" lon="6.16934">
        <ele>141.2</ele>
        <time>2019-02-10T12:48:22Z</time>
      </trkpt>
      <trkpt lat="43.48962" lon="6.16945">
        <ele>141</ele>
        <time>2019-02-10T12:48:29Z</time>
      </trkpt>
      <trkpt lat="43.48956" lon="6.16957">
        <ele>140.5</ele>
        <time>2019-02-10T12:48:37Z</time>
      </trkpt>
      <trkpt lat="43.48951" lon="6.16968">
        <ele>140.5</ele>
        <time>2019-02-10T12:48:44Z</time>
      </trkpt>
      <trkpt lat="43.48949" lon="6.16982">
        <ele>140.5</ele>
        <time>2019-02-10T12:48:52Z</time>
      </trkpt>
      <trkpt lat="43.48945" lon="6.16994">
        <ele>140.5</ele>
        <time>2019-02-10T12:49:00Z</time>
      </trkpt>
      <trkpt lat="43.48942" lon="6.17006">
        <ele>140.1</ele>
        <time>2019-02-10T12:49:08Z</time>
      </trkpt>
      <trkpt lat="43.48939" lon="6.17019">
        <ele>139.9</ele>
        <time>2019-02-10T12:49:16Z</time>
      </trkpt>
      <trkpt lat="43.48936" lon="6.17031">
        <ele>139.9</ele>
        <time>2019-02-10T12:49:23Z</time>
      </trkpt>
      <trkpt lat="43.48931" lon="6.17042">
        <ele>139.8</ele>
        <time>2019-02-10T12:49:31Z</time>
      </trkpt>
      <trkpt lat="43.48925" lon="6.17053">
        <ele>140.2</ele>
        <time>2019-02-10T12:49:38Z</time>
      </trkpt>
      <trkpt lat="43.48918" lon="6.17061">
        <ele>140.1</ele>
        <time>2019-02-10T12:49:46Z</time>
      </trkpt>
      <trkpt lat="43.4891" lon="6.17068">
        <ele>140</ele>
        <time>2019-02-10T12:49:53Z</time>
      </trkpt>
      <trkpt lat="43.48903" lon="6.17077">
        <ele>139.4</ele>
        <time>2019-02-10T12:50:01Z</time>
      </trkpt>
      <trkpt lat="43.48897" lon="6.17087">
        <ele>139.1</ele>
        <time>2019-02-10T12:50:08Z</time>
      </trkpt>
      <trkpt lat="43.48893" lon="6.17098">
        <ele>138.1</ele>
        <time>2019-02-10T12:50:15Z</time>
      </trkpt>
      <trkpt lat="43.48888" lon="6.17111">
        <ele>137</ele>
        <time>2019-02-10T12:50:24Z</time>
      </trkpt>
      <trkpt lat="43.48884" lon="6.17123">
        <ele>136.6</ele>
        <time>2019-02-10T12:50:31Z</time>
      </trkpt>
      <trkpt lat="43.48882" lon="6.17135">
        <ele>136.4</ele>
        <time>2019-02-10T12:50:38Z</time>
      </trkpt>
      <trkpt lat="43.4888" lon="6.17148">
        <ele>135.9</ele>
        <time>2019-02-10T12:50:46Z</time>
      </trkpt>
      <trkpt lat="43.4888" lon="6.17162">
        <ele>136</ele>
        <time>2019-02-10T12:50:53Z</time>
      </trkpt>
      <trkpt lat="43.4888" lon="6.17175">
        <ele>136.1</ele>
        <time>2019-02-10T12:51:00Z</time>
      </trkpt>
      <trkpt lat="43.4888" lon="6.17188">
        <ele>136.2</ele>
        <time>2019-02-10T12:51:07Z</time>
      </trkpt>
      <trkpt lat="43.48879" lon="6.17202">
        <ele>136</ele>
        <time>2019-02-10T12:51:14Z</time>
      </trkpt>
      <trkpt lat="43.48876" lon="6.17215">
        <ele>136.5</ele>
        <time>2019-02-10T12:51:21Z</time>
      </trkpt>
      <trkpt lat="43.48876" lon="6.17227">
        <ele>136.9</ele>
        <time>2019-02-10T12:51:28Z</time>
      </trkpt>
      <trkpt lat="43.48877" lon="6.1724">
        <ele>137</ele>
        <time>2019-02-10T12:51:35Z</time>
      </trkpt>
      <trkpt lat="43.48877" lon="6.17253">
        <ele>137.8</ele>
        <time>2019-02-10T12:51:43Z</time>
      </trkpt>
      <trkpt lat="43.48875" lon="6.17266">
        <ele>138.2</ele>
        <time>2019-02-10T12:51:51Z</time>
      </trkpt>
      <trkpt lat="43.48867" lon="6.17272">
        <ele>138.9</ele>
        <time>2019-02-10T12:52:01Z</time>
      </trkpt>
      <trkpt lat="43.48858" lon="6.17278">
        <ele>139.2</ele>
        <time>2019-02-10T12:52:10Z</time>
      </trkpt>
      <trkpt lat="43.48851" lon="6.17286">
        <ele>139.2</ele>
        <time>2019-02-10T12:52:18Z</time>
      </trkpt>
      <trkpt lat="43.48845" lon="6.17296">
        <ele>139.2</ele>
        <time>2019-02-10T12:52:25Z</time>
      </trkpt>
      <trkpt lat="43.48839" lon="6.17307">
        <ele>139.5</ele>
        <time>2019-02-10T12:52:32Z</time>
      </trkpt>
      <trkpt lat="43.48833" lon="6.17317">
        <ele>139.3</ele>
        <time>2019-02-10T12:52:39Z</time>
      </trkpt>
      <trkpt lat="43.48826" lon="6.17327">
        <ele>138.9</ele>
        <time>2019-02-10T12:52:47Z</time>
      </trkpt>
      <trkpt lat="43.48819" lon="6.17336">
        <ele>138.9</ele>
        <time>2019-02-10T12:52:54Z</time>
      </trkpt>
      <trkpt lat="43.48812" lon="6.17345">
        <ele>138.9</ele>
        <time>2019-02-10T12:53:02Z</time>
      </trkpt>
      <trkpt lat="43.48804" lon="6.1735">
        <ele>138.7</ele>
        <time>2019-02-10T12:53:10Z</time>
      </trkpt>
      <trkpt lat="43.48796" lon="6.1736">
        <ele>138.2</ele>
        <time>2019-02-10T12:53:19Z</time>
      </trkpt>
      <trkpt lat="43.48791" lon="6.17371">
        <ele>137.8</ele>
        <time>2019-02-10T12:53:26Z</time>
      </trkpt>
      <trkpt lat="43.48785" lon="6.17381">
        <ele>137.7</ele>
        <time>2019-02-10T12:53:33Z</time>
      </trkpt>
      <trkpt lat="43.48778" lon="6.17389">
        <ele>137.7</ele>
        <time>2019-02-10T12:53:40Z</time>
      </trkpt>
      <trkpt lat="43.48772" lon="6.17399">
        <ele>137.5</ele>
        <time>2019-02-10T12:53:50Z</time>
      </trkpt>
      <trkpt lat="43.48763" lon="6.17406">
        <ele>137</ele>
        <time>2019-02-10T12:53:59Z</time>
      </trkpt>
      <trkpt lat="43.48755" lon="6.17413">
        <ele>137.1</ele>
        <time>2019-02-10T12:54:08Z</time>
      </trkpt>
      <trkpt lat="43.48747" lon="6.17418">
        <ele>136.8</ele>
        <time>2019-02-10T12:54:16Z</time>
      </trkpt>
      <trkpt lat="43.48737" lon="6.17419">
        <ele>136.6</ele>
        <time>2019-02-10T12:54:22Z</time>
      </trkpt>
      <trkpt lat="43.48728" lon="6.1742">
        <ele>136.4</ele>
        <time>2019-02-10T12:54:27Z</time>
      </trkpt>
      <trkpt lat="43.48719" lon="6.17424">
        <ele>136.3</ele>
        <time>2019-02-10T12:54:33Z</time>
      </trkpt>
      <trkpt lat="43.4871" lon="6.17429">
        <ele>136.2</ele>
        <time>2019-02-10T12:54:39Z</time>
      </trkpt>
      <trkpt lat="43.48701" lon="6.17433">
        <ele>136.1</ele>
        <time>2019-02-10T12:54:47Z</time>
      </trkpt>
      <trkpt lat="43.48697" lon="6.17444">
        <ele>135.9</ele>
        <time>2019-02-10T12:54:54Z</time>
      </trkpt>
      <trkpt lat="43.48694" lon="6.17457">
        <ele>135.9</ele>
        <time>2019-02-10T12:55:03Z</time>
      </trkpt>
      <trkpt lat="43.48685" lon="6.1746">
        <ele>135.7</ele>
        <time>2019-02-10T12:55:35Z</time>
      </trkpt>
      <trkpt lat="43.48676" lon="6.17456">
        <ele>135.3</ele>
        <time>2019-02-10T12:57:00Z</time>
      </trkpt>
      <trkpt lat="43.48667" lon="6.17455">
        <ele>135.1</ele>
        <time>2019-02-10T12:57:07Z</time>
      </trkpt>
      <trkpt lat="43.48657" lon="6.17459">
        <ele>134.7</ele>
        <time>2019-02-10T12:57:17Z</time>
      </trkpt>
      <trkpt lat="43.48647" lon="6.17459">
        <ele>134.4</ele>
        <time>2019-02-10T12:57:25Z</time>
      </trkpt>
      <trkpt lat="43.48638" lon="6.17462">
        <ele>134.4</ele>
        <time>2019-02-10T12:57:30Z</time>
      </trkpt>
      <trkpt lat="43.48629" lon="6.17464">
        <ele>134.4</ele>
        <time>2019-02-10T12:57:37Z</time>
      </trkpt>
      <trkpt lat="43.4862" lon="6.17467">
        <ele>134.3</ele>
        <time>2019-02-10T12:57:45Z</time>
      </trkpt>
      <trkpt lat="43.48611" lon="6.17473">
        <ele>134.5</ele>
        <time>2019-02-10T12:57:54Z</time>
      </trkpt>
      <trkpt lat="43.48603" lon="6.17478">
        <ele>134.5</ele>
        <time>2019-02-10T12:58:01Z</time>
      </trkpt>
      <trkpt lat="43.48594" lon="6.17483">
        <ele>134.2</ele>
        <time>2019-02-10T12:58:08Z</time>
      </trkpt>
      <trkpt lat="43.48585" lon="6.17485">
        <ele>134.3</ele>
        <time>2019-02-10T12:58:16Z</time>
      </trkpt>
      <trkpt lat="43.48575" lon="6.17487">
        <ele>134.3</ele>
        <time>2019-02-10T12:58:24Z</time>
      </trkpt>
      <trkpt lat="43.48565" lon="6.1749">
        <ele>134.5</ele>
        <time>2019-02-10T12:58:32Z</time>
      </trkpt>
      <trkpt lat="43.48556" lon="6.17492">
        <ele>134.5</ele>
        <time>2019-02-10T12:58:41Z</time>
      </trkpt>
      <trkpt lat="43.48547" lon="6.17494">
        <ele>134.8</ele>
        <time>2019-02-10T12:58:49Z</time>
      </trkpt>
      <trkpt lat="43.48537" lon="6.17495">
        <ele>135.1</ele>
        <time>2019-02-10T12:58:57Z</time>
      </trkpt>
      <trkpt lat="43.48528" lon="6.17496">
        <ele>134.9</ele>
        <time>2019-02-10T12:59:03Z</time>
      </trkpt>
      <trkpt lat="43.48517" lon="6.17497">
        <ele>134.4</ele>
        <time>2019-02-10T12:59:10Z</time>
      </trkpt>
      <trkpt lat="43.48507" lon="6.17493">
        <ele>134</ele>
        <time>2019-02-10T12:59:20Z</time>
      </trkpt>
      <trkpt lat="43.48496" lon="6.17493">
        <ele>134.2</ele>
        <time>2019-02-10T12:59:27Z</time>
      </trkpt>
      <trkpt lat="43.48486" lon="6.17491">
        <ele>134.3</ele>
        <time>2019-02-10T12:59:33Z</time>
      </trkpt>
      <trkpt lat="43.48476" lon="6.17488">
        <ele>134.3</ele>
        <time>2019-02-10T12:59:39Z</time>
      </trkpt>
      <trkpt lat="43.48466" lon="6.17487">
        <ele>134.2</ele>
        <time>2019-02-10T12:59:45Z</time>
      </trkpt>
      <trkpt lat="43.48456" lon="6.17485">
        <ele>134</ele>
        <time>2019-02-10T12:59:53Z</time>
      </trkpt>
      <trkpt lat="43.48447" lon="6.17482">
        <ele>133.9</ele>
        <time>2019-02-10T13:00:01Z</time>
      </trkpt>
      <trkpt lat="43.48438" lon="6.17475">
        <ele>133.8</ele>
        <time>2019-02-10T13:00:08Z</time>
      </trkpt>
      <trkpt lat="43.48428" lon="6.1747">
        <ele>133.7</ele>
        <time>2019-02-10T13:00:16Z</time>
      </trkpt>
      <trkpt lat="43.48419" lon="6.17463">
        <ele>134</ele>
        <time>2019-02-10T13:00:22Z</time>
      </trkpt>
      <trkpt lat="43.4841" lon="6.17457">
        <ele>134</ele>
        <time>2019-02-10T13:00:31Z</time>
      </trkpt>
      <trkpt lat="43.48401" lon="6.17451">
        <ele>133.8</ele>
        <time>2019-02-10T13:00:39Z</time>
      </trkpt>
      <trkpt lat="43.48394" lon="6.1746">
        <ele>133.2</ele>
        <time>2019-02-10T13:00:58Z</time>
      </trkpt>
      <trkpt lat="43.48385" lon="6.17458">
        <ele>133.4</ele>
        <time>2019-02-10T13:01:19Z</time>
      </trkpt>
      <trkpt lat="43.48376" lon="6.17455">
        <ele>133.2</ele>
        <time>2019-02-10T13:01:29Z</time>
      </trkpt>
      <trkpt lat="43.48367" lon="6.17457">
        <ele>133.4</ele>
        <time>2019-02-10T13:01:40Z</time>
      </trkpt>
      <trkpt lat="43.48358" lon="6.17461">
        <ele>133.4</ele>
        <time>2019-02-10T13:01:49Z</time>
      </trkpt>
      <trkpt lat="43.48349" lon="6.17464">
        <ele>133.2</ele>
        <time>2019-02-10T13:01:59Z</time>
      </trkpt>
      <trkpt lat="43.48343" lon="6.17474">
        <ele>133.5</ele>
        <time>2019-02-10T13:02:10Z</time>
      </trkpt>
      <trkpt lat="43.48334" lon="6.17477">
        <ele>133.7</ele>
        <time>2019-02-10T13:02:18Z</time>
      </trkpt>
      <trkpt lat="43.48325" lon="6.17479">
        <ele>134</ele>
        <time>2019-02-10T13:02:26Z</time>
      </trkpt>
      <trkpt lat="43.48315" lon="6.1748">
        <ele>133.8</ele>
        <time>2019-02-10T13:02:33Z</time>
      </trkpt>
      <trkpt lat="43.48305" lon="6.17479">
        <ele>133.6</ele>
        <time>2019-02-10T13:02:41Z</time>
      </trkpt>
      <trkpt lat="43.48297" lon="6.17488">
        <ele>133.8</ele>
        <time>2019-02-10T13:02:49Z</time>
      </trkpt>
      <trkpt lat="43.4829" lon="6.17495">
        <ele>133.7</ele>
        <time>2019-02-10T13:02:58Z</time>
      </trkpt>
      <trkpt lat="43.48281" lon="6.17501">
        <ele>133.6</ele>
        <time>2019-02-10T13:03:07Z</time>
      </trkpt>
      <trkpt lat="43.48271" lon="6.17503">
        <ele>133.5</ele>
        <time>2019-02-10T13:03:15Z</time>
      </trkpt>
      <trkpt lat="43.48262" lon="6.17503">
        <ele>133.3</ele>
        <time>2019-02-10T13:03:21Z</time>
      </trkpt>
      <trkpt lat="43.48253" lon="6.17507">
        <ele>133.4</ele>
        <time>2019-02-10T13:03:27Z</time>
      </trkpt>
      <trkpt lat="43.48244" lon="6.17513">
        <ele>133.2</ele>
        <time>2019-02-10T13:03:34Z</time>
      </trkpt>
      <trkpt lat="43.48239" lon="6.17524">
        <ele>133.2</ele>
        <time>2019-02-10T13:03:41Z</time>
      </trkpt>
      <trkpt lat="43.48231" lon="6.17531">
        <ele>133.5</ele>
        <time>2019-02-10T13:03:51Z</time>
      </trkpt>
      <trkpt lat="43.48222" lon="6.17533">
        <ele>133</ele>
        <time>2019-02-10T13:04:02Z</time>
      </trkpt>
      <trkpt lat="43.48218" lon="6.17544">
        <ele>133</ele>
        <time>2019-02-10T13:04:18Z</time>
      </trkpt>
      <trkpt lat="43.4821" lon="6.1755">
        <ele>133.1</ele>
        <time>2019-02-10T13:05:36Z</time>
      </trkpt>
      <trkpt lat="43.48202" lon="6.17544">
        <ele>133.1</ele>
        <time>2019-02-10T13:05:44Z</time>
      </trkpt>
      <trkpt lat="43.48195" lon="6.17534">
        <ele>133.1</ele>
        <time>2019-02-10T13:05:53Z</time>
      </trkpt>
      <trkpt lat="43.48189" lon="6.17523">
        <ele>133.3</ele>
        <time>2019-02-10T13:06:02Z</time>
      </trkpt>
      <trkpt lat="43.48183" lon="6.17513">
        <ele>133.6</ele>
        <time>2019-02-10T13:06:10Z</time>
      </trkpt>
      <trkpt lat="43.48177" lon="6.17502">
        <ele>133.8</ele>
        <time>2019-02-10T13:06:19Z</time>
      </trkpt>
      <trkpt lat="43.4817" lon="6.17493">
        <ele>133.8</ele>
        <time>2019-02-10T13:06:26Z</time>
      </trkpt>
      <trkpt lat="43.4816" lon="6.17493">
        <ele>133.5</ele>
        <time>2019-02-10T13:06:34Z</time>
      </trkpt>
      <trkpt lat="43.48154" lon="6.17503">
        <ele>133.3</ele>
        <time>2019-02-10T13:06:44Z</time>
      </trkpt>
      <trkpt lat="43.48148" lon="6.17513">
        <ele>133.2</ele>
        <time>2019-02-10T13:06:52Z</time>
      </trkpt>
      <trkpt lat="43.48142" lon="6.17523">
        <ele>133.5</ele>
        <time>2019-02-10T13:07:01Z</time>
      </trkpt>
      <trkpt lat="43.48134" lon="6.17529">
        <ele>133.3</ele>
        <time>2019-02-10T13:07:11Z</time>
      </trkpt>
      <trkpt lat="43.48131" lon="6.17542">
        <ele>133.2</ele>
        <time>2019-02-10T13:07:24Z</time>
      </trkpt>
      <trkpt lat="43.48127" lon="6.17554">
        <ele>133.2</ele>
        <time>2019-02-10T13:07:33Z</time>
      </trkpt>
      <trkpt lat="43.48119" lon="6.17559">
        <ele>133.1</ele>
        <time>2019-02-10T13:07:43Z</time>
      </trkpt>
      <trkpt lat="43.48109" lon="6.17561">
        <ele>133.1</ele>
        <time>2019-02-10T13:07:50Z</time>
      </trkpt>
      <trkpt lat="43.481" lon="6.17567">
        <ele>132.9</ele>
        <time>2019-02-10T13:07:58Z</time>
      </trkpt>
      <trkpt lat="43.48092" lon="6.17576">
        <ele>132.9</ele>
        <time>2019-02-10T13:08:06Z</time>
      </trkpt>
      <trkpt lat="43.48083" lon="6.17581">
        <ele>133</ele>
        <time>2019-02-10T13:08:15Z</time>
      </trkpt>
      <trkpt lat="43.48075" lon="6.17587">
        <ele>132.7</ele>
        <time>2019-02-10T13:08:23Z</time>
      </trkpt>
      <trkpt lat="43.48067" lon="6.17593">
        <ele>132.8</ele>
        <time>2019-02-10T13:08:31Z</time>
      </trkpt>
      <trkpt lat="43.48061" lon="6.17603">
        <ele>132.3</ele>
        <time>2019-02-10T13:08:41Z</time>
      </trkpt>
      <trkpt lat="43.48054" lon="6.17612">
        <ele>132.5</ele>
        <time>2019-02-10T13:10:16Z</time>
      </trkpt>
      <trkpt lat="43.48047" lon="6.17622">
        <ele>132.5</ele>
        <time>2019-02-10T13:10:25Z</time>
      </trkpt>
      <trkpt lat="43.48042" lon="6.17632">
        <ele>132.4</ele>
        <time>2019-02-10T13:10:33Z</time>
      </trkpt>
      <trkpt lat="43.48035" lon="6.17643">
        <ele>132.4</ele>
        <time>2019-02-10T13:10:41Z</time>
      </trkpt>
      <trkpt lat="43.4803" lon="6.17654">
        <ele>132.3</ele>
        <time>2019-02-10T13:10:49Z</time>
      </trkpt>
      <trkpt lat="43.48025" lon="6.17665">
        <ele>132.1</ele>
        <time>2019-02-10T13:10:56Z</time>
      </trkpt>
      <trkpt lat="43.4802" lon="6.17676">
        <ele>131.8</ele>
        <time>2019-02-10T13:11:04Z</time>
      </trkpt>
      <trkpt lat="43.48016" lon="6.17687">
        <ele>131.7</ele>
        <time>2019-02-10T13:11:11Z</time>
      </trkpt>
      <trkpt lat="43.48009" lon="6.17697">
        <ele>132.1</ele>
        <time>2019-02-10T13:11:19Z</time>
      </trkpt>
      <trkpt lat="43.48" lon="6.17699">
        <ele>132.3</ele>
        <time>2019-02-10T13:11:26Z</time>
      </trkpt>
      <trkpt lat="43.47991" lon="6.17699">
        <ele>132.3</ele>
        <time>2019-02-10T13:11:36Z</time>
      </trkpt>
      <trkpt lat="43.47981" lon="6.17699">
        <ele>132.2</ele>
        <time>2019-02-10T13:11:44Z</time>
      </trkpt>
      <trkpt lat="43.47972" lon="6.17702">
        <ele>132.2</ele>
        <time>2019-02-10T13:11:50Z</time>
      </trkpt>
      <trkpt lat="43.47963" lon="6.17707">
        <ele>131.9</ele>
        <time>2019-02-10T13:11:57Z</time>
      </trkpt>
      <trkpt lat="43.47955" lon="6.17714">
        <ele>131.9</ele>
        <time>2019-02-10T13:12:04Z</time>
      </trkpt>
      <trkpt lat="43.47946" lon="6.17717">
        <ele>131.8</ele>
        <time>2019-02-10T13:12:13Z</time>
      </trkpt>
      <trkpt lat="43.47937" lon="6.17721">
        <ele>131.5</ele>
        <time>2019-02-10T13:12:21Z</time>
      </trkpt>
      <trkpt lat="43.47933" lon="6.17733">
        <ele>131.3</ele>
        <time>2019-02-10T13:12:29Z</time>
      </trkpt>
      <trkpt lat="43.47924" lon="6.17737">
        <ele>130.6</ele>
        <time>2019-02-10T13:12:37Z</time>
      </trkpt>
      <trkpt lat="43.47915" lon="6.17745">
        <ele>130.5</ele>
        <time>2019-02-10T13:12:46Z</time>
      </trkpt>
      <trkpt lat="43.47908" lon="6.17754">
        <ele>130.4</ele>
        <time>2019-02-10T13:12:53Z</time>
      </trkpt>
      <trkpt lat="43.47899" lon="6.1776">
        <ele>130.6</ele>
        <time>2019-02-10T13:13:01Z</time>
      </trkpt>
      <trkpt lat="43.4789" lon="6.17764">
        <ele>131.1</ele>
        <time>2019-02-10T13:13:09Z</time>
      </trkpt>
      <trkpt lat="43.47881" lon="6.17765">
        <ele>131.6</ele>
        <time>2019-02-10T13:13:18Z</time>
      </trkpt>
      <trkpt lat="43.47872" lon="6.1777">
        <ele>132.2</ele>
        <time>2019-02-10T13:13:27Z</time>
      </trkpt>
      <trkpt lat="43.47862" lon="6.17771">
        <ele>132.5</ele>
        <time>2019-02-10T13:13:33Z</time>
      </trkpt>
      <trkpt lat="43.47853" lon="6.17769">
        <ele>132.7</ele>
        <time>2019-02-10T13:13:42Z</time>
      </trkpt>
      <trkpt lat="43.47844" lon="6.17764">
        <ele>132.7</ele>
        <time>2019-02-10T13:13:50Z</time>
      </trkpt>
      <trkpt lat="43.47836" lon="6.1776">
        <ele>133.2</ele>
        <time>2019-02-10T13:13:58Z</time>
      </trkpt>
      <trkpt lat="43.47826" lon="6.17759">
        <ele>133.2</ele>
        <time>2019-02-10T13:14:06Z</time>
      </trkpt>
      <trkpt lat="43.47823" lon="6.17771">
        <ele>133.3</ele>
        <time>2019-02-10T13:14:16Z</time>
      </trkpt>
      <trkpt lat="43.47824" lon="6.17758">
        <ele>134.2</ele>
        <time>2019-02-10T13:16:13Z</time>
      </trkpt>
      <trkpt lat="43.47821" lon="6.17747">
        <ele>136.5</ele>
        <time>2019-02-10T13:23:24Z</time>
      </trkpt>
      <trkpt lat="43.47816" lon="6.17736">
        <ele>136.5</ele>
        <time>2019-02-10T13:23:34Z</time>
      </trkpt>
      <trkpt lat="43.47812" lon="6.17723">
        <ele>136.7</ele>
        <time>2019-02-10T13:23:44Z</time>
      </trkpt>
      <trkpt lat="43.47807" lon="6.17711">
        <ele>137.2</ele>
        <time>2019-02-10T13:23:53Z</time>
      </trkpt>
      <trkpt lat="43.47803" lon="6.17698">
        <ele>137.1</ele>
        <time>2019-02-10T13:24:01Z</time>
      </trkpt>
      <trkpt lat="43.47799" lon="6.17686">
        <ele>136.8</ele>
        <time>2019-02-10T13:24:10Z</time>
      </trkpt>
      <trkpt lat="43.47796" lon="6.17673">
        <ele>136.6</ele>
        <time>2019-02-10T13:24:19Z</time>
      </trkpt>
      <trkpt lat="43.47792" lon="6.17662">
        <ele>136.8</ele>
        <time>2019-02-10T13:24:26Z</time>
      </trkpt>
      <trkpt lat="43.47789" lon="6.17649">
        <ele>136.7</ele>
        <time>2019-02-10T13:24:34Z</time>
      </trkpt>
      <trkpt lat="43.47784" lon="6.17637">
        <ele>136.8</ele>
        <time>2019-02-10T13:24:42Z</time>
      </trkpt>
      <trkpt lat="43.47781" lon="6.17625">
        <ele>137.2</ele>
        <time>2019-02-10T13:24:50Z</time>
      </trkpt>
      <trkpt lat="43.47777" lon="6.17614">
        <ele>137.9</ele>
        <time>2019-02-10T13:24:58Z</time>
      </trkpt>
      <trkpt lat="43.47773" lon="6.17601">
        <ele>137.8</ele>
        <time>2019-02-10T13:25:06Z</time>
      </trkpt>
      <trkpt lat="43.47774" lon="6.17589">
        <ele>137.6</ele>
        <time>2019-02-10T13:25:14Z</time>
      </trkpt>
      <trkpt lat="43.47775" lon="6.17575">
        <ele>137.5</ele>
        <time>2019-02-10T13:25:23Z</time>
      </trkpt>
      <trkpt lat="43.47776" lon="6.17563">
        <ele>137.5</ele>
        <time>2019-02-10T13:25:37Z</time>
      </trkpt>
      <trkpt lat="43.47777" lon="6.1755">
        <ele>137.2</ele>
        <time>2019-02-10T13:25:48Z</time>
      </trkpt>
      <trkpt lat="43.47768" lon="6.17545">
        <ele>137.3</ele>
        <time>2019-02-10T13:26:01Z</time>
      </trkpt>
      <trkpt lat="43.47761" lon="6.17553">
        <ele>137.3</ele>
        <time>2019-02-10T13:27:06Z</time>
      </trkpt>
      <trkpt lat="43.47757" lon="6.17566">
        <ele>136.9</ele>
        <time>2019-02-10T13:27:14Z</time>
      </trkpt>
      <trkpt lat="43.47753" lon="6.17578">
        <ele>136.4</ele>
        <time>2019-02-10T13:27:22Z</time>
      </trkpt>
      <trkpt lat="43.47748" lon="6.17588">
        <ele>135.7</ele>
        <time>2019-02-10T13:27:30Z</time>
      </trkpt>
      <trkpt lat="43.47741" lon="6.17597">
        <ele>135.1</ele>
        <time>2019-02-10T13:27:39Z</time>
      </trkpt>
      <trkpt lat="43.47738" lon="6.17608">
        <ele>134.3</ele>
        <time>2019-02-10T13:27:47Z</time>
      </trkpt>
      <trkpt lat="43.47733" lon="6.17619">
        <ele>133.7</ele>
        <time>2019-02-10T13:27:54Z</time>
      </trkpt>
      <trkpt lat="43.47728" lon="6.17631">
        <ele>133.1</ele>
        <time>2019-02-10T13:28:02Z</time>
      </trkpt>
      <trkpt lat="43.4772" lon="6.17638">
        <ele>132.6</ele>
        <time>2019-02-10T13:28:10Z</time>
      </trkpt>
      <trkpt lat="43.47712" lon="6.17631">
        <ele>132.7</ele>
        <time>2019-02-10T13:28:24Z</time>
      </trkpt>
      <trkpt lat="43.47707" lon="6.17619">
        <ele>133</ele>
        <time>2019-02-10T13:28:33Z</time>
      </trkpt>
      <trkpt lat="43.47704" lon="6.17607">
        <ele>133.3</ele>
        <time>2019-02-10T13:28:42Z</time>
      </trkpt>
      <trkpt lat="43.47702" lon="6.17594">
        <ele>134.1</ele>
        <time>2019-02-10T13:28:52Z</time>
      </trkpt>
      <trkpt lat="43.47699" lon="6.17582">
        <ele>134.9</ele>
        <time>2019-02-10T13:29:02Z</time>
      </trkpt>
      <trkpt lat="43.47697" lon="6.1757">
        <ele>135.5</ele>
        <time>2019-02-10T13:29:13Z</time>
      </trkpt>
      <trkpt lat="43.47688" lon="6.17567">
        <ele>135.2</ele>
        <time>2019-02-10T13:29:25Z</time>
      </trkpt>
      <trkpt lat="43.47678" lon="6.17566">
        <ele>135.5</ele>
        <time>2019-02-10T13:29:34Z</time>
      </trkpt>
      <trkpt lat="43.47669" lon="6.17569">
        <ele>135.5</ele>
        <time>2019-02-10T13:29:43Z</time>
      </trkpt>
      <trkpt lat="43.4766" lon="6.17574">
        <ele>135.1</ele>
        <time>2019-02-10T13:29:50Z</time>
      </trkpt>
      <trkpt lat="43.47651" lon="6.17577">
        <ele>134.9</ele>
        <time>2019-02-10T13:29:59Z</time>
      </trkpt>
      <trkpt lat="43.47641" lon="6.1758">
        <ele>134.7</ele>
        <time>2019-02-10T13:30:09Z</time>
      </trkpt>
      <trkpt lat="43.47632" lon="6.17585">
        <ele>135</ele>
        <time>2019-02-10T13:30:18Z</time>
      </trkpt>
      <trkpt lat="43.47633" lon="6.17598">
        <ele>136</ele>
        <time>2019-02-10T13:32:04Z</time>
      </trkpt>
      <trkpt lat="43.47625" lon="6.17594">
        <ele>135.8</ele>
        <time>2019-02-10T13:32:26Z</time>
      </trkpt>
      <trkpt lat="43.47615" lon="6.17595">
        <ele>136.3</ele>
        <time>2019-02-10T13:33:01Z</time>
      </trkpt>
      <trkpt lat="43.47606" lon="6.17598">
        <ele>136.1</ele>
        <time>2019-02-10T13:33:11Z</time>
      </trkpt>
      <trkpt lat="43.47597" lon="6.17602">
        <ele>136.5</ele>
        <time>2019-02-10T13:33:20Z</time>
      </trkpt>
      <trkpt lat="43.47587" lon="6.17603">
        <ele>136.6</ele>
        <time>2019-02-10T13:33:30Z</time>
      </trkpt>
      <trkpt lat="43.47578" lon="6.17607">
        <ele>136.5</ele>
        <time>2019-02-10T13:33:39Z</time>
      </trkpt>
      <trkpt lat="43.47569" lon="6.17611">
        <ele>136.6</ele>
        <time>2019-02-10T13:33:50Z</time>
      </trkpt>
      <trkpt lat="43.47562" lon="6.17619">
        <ele>136.9</ele>
        <time>2019-02-10T13:34:30Z</time>
      </trkpt>
      <trkpt lat="43.47553" lon="6.17624">
        <ele>136.1</ele>
        <time>2019-02-10T13:35:42Z</time>
      </trkpt>
      <trkpt lat="43.47544" lon="6.17627">
        <ele>136.6</ele>
        <time>2019-02-10T13:35:52Z</time>
      </trkpt>
      <trkpt lat="43.47536" lon="6.17633">
        <ele>138.1</ele>
        <time>2019-02-10T13:36:04Z</time>
      </trkpt>
      <trkpt lat="43.47528" lon="6.17639">
        <ele>143.7</ele>
        <time>2019-02-10T13:37:01Z</time>
      </trkpt>
      <trkpt lat="43.47519" lon="6.17641">
        <ele>147.8</ele>
        <time>2019-02-10T13:37:22Z</time>
      </trkpt>
      <trkpt lat="43.47518" lon="6.17654">
        <ele>149</ele>
        <time>2019-02-10T13:37:38Z</time>
      </trkpt>
      <trkpt lat="43.4752" lon="6.17666">
        <ele>149.5</ele>
        <time>2019-02-10T13:37:50Z</time>
      </trkpt>
      <trkpt lat="43.47522" lon="6.17678">
        <ele>149.4</ele>
        <time>2019-02-10T13:38:00Z</time>
      </trkpt>
      <trkpt lat="43.47522" lon="6.17691">
        <ele>149.3</ele>
        <time>2019-02-10T13:38:07Z</time>
      </trkpt>
      <trkpt lat="43.47522" lon="6.17703">
        <ele>149.7</ele>
        <time>2019-02-10T13:38:19Z</time>
      </trkpt>
      <trkpt lat="43.47521" lon="6.17716">
        <ele>149.8</ele>
        <time>2019-02-10T13:38:27Z</time>
      </trkpt>
      <trkpt lat="43.47514" lon="6.17725">
        <ele>150</ele>
        <time>2019-02-10T13:38:38Z</time>
      </trkpt>
      <trkpt lat="43.47509" lon="6.17737">
        <ele>150.6</ele>
        <time>2019-02-10T13:38:49Z</time>
      </trkpt>
      <trkpt lat="43.47506" lon="6.17749">
        <ele>150.5</ele>
        <time>2019-02-10T13:38:58Z</time>
      </trkpt>
      <trkpt lat="43.47502" lon="6.1776">
        <ele>150.3</ele>
        <time>2019-02-10T13:39:09Z</time>
      </trkpt>
      <trkpt lat="43.47505" lon="6.17772">
        <ele>150.4</ele>
        <time>2019-02-10T13:39:19Z</time>
      </trkpt>
      <trkpt lat="43.47507" lon="6.17784">
        <ele>149.1</ele>
        <time>2019-02-10T13:39:28Z</time>
      </trkpt>
      <trkpt lat="43.47512" lon="6.17796">
        <ele>147.1</ele>
        <time>2019-02-10T13:39:37Z</time>
      </trkpt>
      <trkpt lat="43.47517" lon="6.17808">
        <ele>145.5</ele>
        <time>2019-02-10T13:39:46Z</time>
      </trkpt>
      <trkpt lat="43.4752" lon="6.17821">
        <ele>143.8</ele>
        <time>2019-02-10T13:39:53Z</time>
      </trkpt>
      <trkpt lat="43.47523" lon="6.17834">
        <ele>142.6</ele>
        <time>2019-02-10T13:40:00Z</time>
      </trkpt>
      <trkpt lat="43.47525" lon="6.17847">
        <ele>141.9</ele>
        <time>2019-02-10T13:40:07Z</time>
      </trkpt>
      <trkpt lat="43.47528" lon="6.17859">
        <ele>141.2</ele>
        <time>2019-02-10T13:40:14Z</time>
      </trkpt>
      <trkpt lat="43.47533" lon="6.17871">
        <ele>140.6</ele>
        <time>2019-02-10T13:40:22Z</time>
      </trkpt>
      <trkpt lat="43.4754" lon="6.17881">
        <ele>140</ele>
        <time>2019-02-10T13:40:30Z</time>
      </trkpt>
      <trkpt lat="43.47545" lon="6.17892">
        <ele>139.8</ele>
        <time>2019-02-10T13:40:37Z</time>
      </trkpt>
      <trkpt lat="43.47551" lon="6.17902">
        <ele>140.2</ele>
        <time>2019-02-10T13:40:45Z</time>
      </trkpt>
      <trkpt lat="43.47558" lon="6.17911">
        <ele>140.7</ele>
        <time>2019-02-10T13:40:54Z</time>
      </trkpt>
      <trkpt lat="43.47565" lon="6.1792">
        <ele>141.1</ele>
        <time>2019-02-10T13:41:01Z</time>
      </trkpt>
      <trkpt lat="43.47559" lon="6.17911">
        <ele>141.1</ele>
        <time>2019-02-10T13:41:12Z</time>
      </trkpt>
      <trkpt lat="43.47554" lon="6.17899">
        <ele>140.8</ele>
        <time>2019-02-10T13:41:20Z</time>
      </trkpt>
      <trkpt lat="43.47563" lon="6.17907">
        <ele>139.1</ele>
        <time>2019-02-10T13:41:46Z</time>
      </trkpt>
      <trkpt lat="43.47569" lon="6.17917">
        <ele>138.7</ele>
        <time>2019-02-10T13:41:57Z</time>
      </trkpt>
      <trkpt lat="43.47578" lon="6.17919">
        <ele>138.6</ele>
        <time>2019-02-10T13:42:05Z</time>
      </trkpt>
      <trkpt lat="43.47588" lon="6.17919">
        <ele>138.6</ele>
        <time>2019-02-10T13:42:14Z</time>
      </trkpt>
      <trkpt lat="43.47597" lon="6.17919">
        <ele>138.5</ele>
        <time>2019-02-10T13:42:23Z</time>
      </trkpt>
      <trkpt lat="43.47606" lon="6.17922">
        <ele>138.2</ele>
        <time>2019-02-10T13:42:36Z</time>
      </trkpt>
      <trkpt lat="43.47615" lon="6.17926">
        <ele>138.5</ele>
        <time>2019-02-10T13:42:48Z</time>
      </trkpt>
      <trkpt lat="43.47623" lon="6.17931">
        <ele>138.2</ele>
        <time>2019-02-10T13:42:57Z</time>
      </trkpt>
      <trkpt lat="43.47632" lon="6.17935">
        <ele>138.3</ele>
        <time>2019-02-10T13:43:06Z</time>
      </trkpt>
      <trkpt lat="43.47639" lon="6.17943">
        <ele>139.4</ele>
        <time>2019-02-10T13:43:13Z</time>
      </trkpt>
      <trkpt lat="43.47645" lon="6.17953">
        <ele>140.3</ele>
        <time>2019-02-10T13:43:19Z</time>
      </trkpt>
      <trkpt lat="43.47647" lon="6.17966">
        <ele>141.6</ele>
        <time>2019-02-10T13:43:28Z</time>
      </trkpt>
      <trkpt lat="43.47653" lon="6.17977">
        <ele>143</ele>
        <time>2019-02-10T13:43:45Z</time>
      </trkpt>
      <trkpt lat="43.47652" lon="6.17989">
        <ele>144.7</ele>
        <time>2019-02-10T13:44:00Z</time>
      </trkpt>
      <trkpt lat="43.47643" lon="6.17982">
        <ele>145.8</ele>
        <time>2019-02-10T13:44:16Z</time>
      </trkpt>
      <trkpt lat="43.47634" lon="6.17975">
        <ele>146</ele>
        <time>2019-02-10T13:44:24Z</time>
      </trkpt>
      <trkpt lat="43.47627" lon="6.17965">
        <ele>146.4</ele>
        <time>2019-02-10T13:44:32Z</time>
      </trkpt>
      <trkpt lat="43.47618" lon="6.1796">
        <ele>146.7</ele>
        <time>2019-02-10T13:44:47Z</time>
      </trkpt>
      <trkpt lat="43.47609" lon="6.17957">
        <ele>147</ele>
        <time>2019-02-10T13:44:56Z</time>
      </trkpt>
      <trkpt lat="43.47599" lon="6.17954">
        <ele>147</ele>
        <time>2019-02-10T13:45:03Z</time>
      </trkpt>
      <trkpt lat="43.4759" lon="6.17954">
        <ele>147.6</ele>
        <time>2019-02-10T13:45:13Z</time>
      </trkpt>
      <trkpt lat="43.47582" lon="6.17962">
        <ele>148.8</ele>
        <time>2019-02-10T13:45:21Z</time>
      </trkpt>
      <trkpt lat="43.47573" lon="6.17963">
        <ele>150.1</ele>
        <time>2019-02-10T13:45:29Z</time>
      </trkpt>
      <trkpt lat="43.47565" lon="6.17972">
        <ele>151.2</ele>
        <time>2019-02-10T13:45:39Z</time>
      </trkpt>
      <trkpt lat="43.47559" lon="6.17982">
        <ele>151.7</ele>
        <time>2019-02-10T13:45:47Z</time>
      </trkpt>
      <trkpt lat="43.47554" lon="6.17993">
        <ele>152</ele>
        <time>2019-02-10T13:45:56Z</time>
      </trkpt>
      <trkpt lat="43.47552" lon="6.18007">
        <ele>152.3</ele>
        <time>2019-02-10T13:46:04Z</time>
      </trkpt>
      <trkpt lat="43.47551" lon="6.1802">
        <ele>152.5</ele>
        <time>2019-02-10T13:46:12Z</time>
      </trkpt>
      <trkpt lat="43.47551" lon="6.18033">
        <ele>152.6</ele>
        <time>2019-02-10T13:46:18Z</time>
      </trkpt>
      <trkpt lat="43.4756" lon="6.18034">
        <ele>154.6</ele>
        <time>2019-02-10T13:46:30Z</time>
      </trkpt>
      <trkpt lat="43.47569" lon="6.18032">
        <ele>156.5</ele>
        <time>2019-02-10T13:46:45Z</time>
      </trkpt>
      <trkpt lat="43.47571" lon="6.1802">
        <ele>156.6</ele>
        <time>2019-02-10T13:46:55Z</time>
      </trkpt>
      <trkpt lat="43.47573" lon="6.18007">
        <ele>156.3</ele>
        <time>2019-02-10T13:47:05Z</time>
      </trkpt>
      <trkpt lat="43.47574" lon="6.17994">
        <ele>155</ele>
        <time>2019-02-10T13:47:17Z</time>
      </trkpt>
      <trkpt lat="43.47583" lon="6.17991">
        <ele>155.2</ele>
        <time>2019-02-10T13:47:28Z</time>
      </trkpt>
      <trkpt lat="43.47592" lon="6.17983">
        <ele>157.5</ele>
        <time>2019-02-10T13:47:54Z</time>
      </trkpt>
      <trkpt lat="43.47601" lon="6.17989">
        <ele>158.2</ele>
        <time>2019-02-10T13:48:01Z</time>
      </trkpt>
      <trkpt lat="43.47608" lon="6.17996">
        <ele>159.6</ele>
        <time>2019-02-10T13:48:15Z</time>
      </trkpt>
      <trkpt lat="43.47617" lon="6.17992">
        <ele>159.7</ele>
        <time>2019-02-10T13:48:44Z</time>
      </trkpt>
      <trkpt lat="43.47609" lon="6.17999">
        <ele>160.5</ele>
        <time>2019-02-10T13:49:47Z</time>
      </trkpt>
      <trkpt lat="43.47605" lon="6.1801">
        <ele>165.3</ele>
        <time>2019-02-10T13:50:11Z</time>
      </trkpt>
      <trkpt lat="43.47596" lon="6.18017">
        <ele>167.1</ele>
        <time>2019-02-10T13:50:20Z</time>
      </trkpt>
      <trkpt lat="43.47593" lon="6.18029">
        <ele>169.5</ele>
        <time>2019-02-10T13:50:32Z</time>
      </trkpt>
      <trkpt lat="43.47602" lon="6.18027">
        <ele>170.2</ele>
        <time>2019-02-10T13:51:22Z</time>
      </trkpt>
      <trkpt lat="43.4761" lon="6.18034">
        <ele>171.2</ele>
        <time>2019-02-10T13:51:41Z</time>
      </trkpt>
      <trkpt lat="43.47612" lon="6.18049">
        <ele>171.1</ele>
        <time>2019-02-10T13:52:00Z</time>
      </trkpt>
      <trkpt lat="43.47613" lon="6.18061">
        <ele>170.8</ele>
        <time>2019-02-10T13:52:20Z</time>
      </trkpt>
      <trkpt lat="43.47613" lon="6.18074">
        <ele>171.3</ele>
        <time>2019-02-10T13:52:37Z</time>
      </trkpt>
      <trkpt lat="43.4762" lon="6.18083">
        <ele>171</ele>
        <time>2019-02-10T13:54:05Z</time>
      </trkpt>
      <trkpt lat="43.47624" lon="6.18071">
        <ele>168.8</ele>
        <time>2019-02-10T13:54:42Z</time>
      </trkpt>
      <trkpt lat="43.47618" lon="6.18062">
        <ele>168</ele>
        <time>2019-02-10T13:55:12Z</time>
      </trkpt>
      <trkpt lat="43.47627" lon="6.18056">
        <ele>166.9</ele>
        <time>2019-02-10T13:56:06Z</time>
      </trkpt>
      <trkpt lat="43.47635" lon="6.18062">
        <ele>164</ele>
        <time>2019-02-10T13:56:50Z</time>
      </trkpt>
      <trkpt lat="43.47638" lon="6.18051">
        <ele>161.9</ele>
        <time>2019-02-10T13:57:19Z</time>
      </trkpt>
      <trkpt lat="43.47647" lon="6.18045">
        <ele>157.9</ele>
        <time>2019-02-10T13:58:03Z</time>
      </trkpt>
      <trkpt lat="43.47653" lon="6.18054">
        <ele>158.6</ele>
        <time>2019-02-10T14:00:26Z</time>
      </trkpt>
      <trkpt lat="43.47651" lon="6.18066">
        <ele>157.2</ele>
        <time>2019-02-10T14:02:00Z</time>
      </trkpt>
      <trkpt lat="43.4765" lon="6.18079">
        <ele>155.9</ele>
        <time>2019-02-10T14:02:27Z</time>
      </trkpt>
      <trkpt lat="43.47652" lon="6.18091">
        <ele>155.9</ele>
        <time>2019-02-10T14:02:40Z</time>
      </trkpt>
      <trkpt lat="43.47647" lon="6.18103">
        <ele>155.9</ele>
        <time>2019-02-10T14:02:54Z</time>
      </trkpt>
      <trkpt lat="43.47648" lon="6.18115">
        <ele>156.1</ele>
        <time>2019-02-10T14:03:07Z</time>
      </trkpt>
      <trkpt lat="43.4765" lon="6.18128">
        <ele>156.7</ele>
        <time>2019-02-10T14:03:46Z</time>
      </trkpt>
      <trkpt lat="43.47648" lon="6.18141">
        <ele>156.9</ele>
        <time>2019-02-10T14:04:28Z</time>
      </trkpt>
      <trkpt lat="43.47648" lon="6.18154">
        <ele>155.9</ele>
        <time>2019-02-10T14:04:38Z</time>
      </trkpt>
      <trkpt lat="43.47646" lon="6.18166">
        <ele>155.3</ele>
        <time>2019-02-10T14:04:47Z</time>
      </trkpt>
      <trkpt lat="43.47651" lon="6.18177">
        <ele>155</ele>
        <time>2019-02-10T14:04:52Z</time>
      </trkpt>
      <trkpt lat="43.47656" lon="6.18189">
        <ele>155</ele>
        <time>2019-02-10T14:04:59Z</time>
      </trkpt>
      <trkpt lat="43.47653" lon="6.182">
        <ele>154.8</ele>
        <time>2019-02-10T14:05:14Z</time>
      </trkpt>
      <trkpt lat="43.47651" lon="6.18213">
        <ele>154.5</ele>
        <time>2019-02-10T14:06:16Z</time>
      </trkpt>
      <trkpt lat="43.47648" lon="6.182">
        <ele>154.3</ele>
        <time>2019-02-10T14:06:43Z</time>
      </trkpt>
      <trkpt lat="43.47651" lon="6.18186">
        <ele>154.4</ele>
        <time>2019-02-10T14:06:50Z</time>
      </trkpt>
      <trkpt lat="43.47656" lon="6.18176">
        <ele>154.5</ele>
        <time>2019-02-10T14:06:54Z</time>
      </trkpt>
      <trkpt lat="43.4766" lon="6.18164">
        <ele>154</ele>
        <time>2019-02-10T14:07:01Z</time>
      </trkpt>
      <trkpt lat="43.47664" lon="6.18153">
        <ele>152.5</ele>
        <time>2019-02-10T14:07:21Z</time>
      </trkpt>
      <trkpt lat="43.47668" lon="6.18142">
        <ele>149.7</ele>
        <time>2019-02-10T14:07:43Z</time>
      </trkpt>
      <trkpt lat="43.47676" lon="6.18134">
        <ele>148</ele>
        <time>2019-02-10T14:07:58Z</time>
      </trkpt>
      <trkpt lat="43.47685" lon="6.18134">
        <ele>147</ele>
        <time>2019-02-10T14:08:07Z</time>
      </trkpt>
      <trkpt lat="43.47694" lon="6.18129">
        <ele>145.2</ele>
        <time>2019-02-10T14:08:20Z</time>
      </trkpt>
      <trkpt lat="43.47702" lon="6.18121">
        <ele>144.5</ele>
        <time>2019-02-10T14:08:28Z</time>
      </trkpt>
      <trkpt lat="43.4771" lon="6.18126">
        <ele>143.7</ele>
        <time>2019-02-10T14:08:38Z</time>
      </trkpt>
      <trkpt lat="43.4772" lon="6.18132">
        <ele>142.9</ele>
        <time>2019-02-10T14:08:45Z</time>
      </trkpt>
      <trkpt lat="43.47726" lon="6.18141">
        <ele>141.8</ele>
        <time>2019-02-10T14:09:03Z</time>
      </trkpt>
      <trkpt lat="43.47727" lon="6.18154">
        <ele>140.8</ele>
        <time>2019-02-10T14:09:23Z</time>
      </trkpt>
      <trkpt lat="43.4773" lon="6.18166">
        <ele>140.1</ele>
        <time>2019-02-10T14:09:34Z</time>
      </trkpt>
      <trkpt lat="43.47734" lon="6.18178">
        <ele>139.6</ele>
        <time>2019-02-10T14:09:44Z</time>
      </trkpt>
      <trkpt lat="43.47738" lon="6.1819">
        <ele>138.9</ele>
        <time>2019-02-10T14:09:53Z</time>
      </trkpt>
      <trkpt lat="43.47739" lon="6.18204">
        <ele>138.7</ele>
        <time>2019-02-10T14:10:02Z</time>
      </trkpt>
      <trkpt lat="43.47744" lon="6.18215">
        <ele>139.2</ele>
        <time>2019-02-10T14:10:09Z</time>
      </trkpt>
      <trkpt lat="43.4775" lon="6.18226">
        <ele>138</ele>
        <time>2019-02-10T14:10:17Z</time>
      </trkpt>
      <trkpt lat="43.47753" lon="6.18238">
        <ele>137.6</ele>
        <time>2019-02-10T14:10:25Z</time>
      </trkpt>
      <trkpt lat="43.47757" lon="6.1825">
        <ele>137.1</ele>
        <time>2019-02-10T14:10:33Z</time>
      </trkpt>
      <trkpt lat="43.47757" lon="6.18263">
        <ele>136.7</ele>
        <time>2019-02-10T14:10:41Z</time>
      </trkpt>
      <trkpt lat="43.47756" lon="6.18277">
        <ele>136.6</ele>
        <time>2019-02-10T14:10:50Z</time>
      </trkpt>
      <trkpt lat="43.47755" lon="6.1829">
        <ele>136.5</ele>
        <time>2019-02-10T14:10:59Z</time>
      </trkpt>
      <trkpt lat="43.47753" lon="6.18304">
        <ele>136.2</ele>
        <time>2019-02-10T14:11:08Z</time>
      </trkpt>
      <trkpt lat="43.47752" lon="6.18316">
        <ele>135.9</ele>
        <time>2019-02-10T14:11:17Z</time>
      </trkpt>
      <trkpt lat="43.47754" lon="6.18329">
        <ele>136</ele>
        <time>2019-02-10T14:11:26Z</time>
      </trkpt>
      <trkpt lat="43.47763" lon="6.18333">
        <ele>135.6</ele>
        <time>2019-02-10T14:11:38Z</time>
      </trkpt>
      <trkpt lat="43.47771" lon="6.18338">
        <ele>135.1</ele>
        <time>2019-02-10T14:11:48Z</time>
      </trkpt>
      <trkpt lat="43.47776" lon="6.18341">
        <ele>135</ele>
        <time>2019-02-10T14:12:01Z</time>
      </trkpt>
    </trkseg>
  </trk>
</gpx>